MYDAX CHILLER For M1 mirror 
            

Key: (Temperatures in Centigrade) 
A) System is ON or OFF
B) Actual Tank Temperature as sensed by the Output RTD                   
C) Set point Temperature 
D) Calculated temperature of the refrigerant line at the suction pressure transducer
E) Pressure in PSIg of the refrigerant line at the suction pressure transducer
F & G) Temperature in the refrigerant line at the Superheat and Condenser RTDs
H) Temperature in the refrigerant line at the Discharge RTD (2-stage design only)
I) Temperature in the refrigerant line at the Subcooler RTD (inactive)
J) Valve drives of evaporator 

----------- DATE ----------: A    B     C     D     E    F    G    H   I J

 last update: Sun Sep 25 10:50:27 PDT 2022
Sun Sep 25 10:50:10 PDT 2022 ON: 20.00 +20.0 20.04 -21.5 18.7 22.7 28.3 14 0 Alarm State:  0
Sun Sep 25 10:49:08 PDT 2022 ON: 20.00 +20.0 20.05 -21.6 18.6 22.8 28.2 16 0 Alarm State:  0
Sun Sep 25 10:48:07 PDT 2022 ON: 20.01 +20.0 20.05 -21.8 18.4 22.9 28.2 17 0 Alarm State:  0
Sun Sep 25 10:47:05 PDT 2022 ON: 20.01 +20.0 20.06 -22.3 17.7 23.5 28.1 16 0 Alarm State:  0
Sun Sep 25 10:46:04 PDT 2022 ON: 20.01 +20.0 20.07 -22.0 18.1 23.2 28.1 17 0 Alarm State:  0
Sun Sep 25 10:45:02 PDT 2022 ON: 20.01 +20.0 20.06 -21.3 19.0 22.5 28.2 16 0 Alarm State:  0
Sun Sep 25 10:44:01 PDT 2022 ON: 20.01 +20.0 20.07 -22.6 17.4 23.7 28.1 16 0 Alarm State:  0
Sun Sep 25 10:42:59 PDT 2022 ON: 20.00 +20.0 20.06 -23.1 16.7 24.2 28.2 14 0 Alarm State:  0
Sun Sep 25 10:41:58 PDT 2022 ON: 20.01 +20.0 20.05 -20.8 19.6 22.0 28.3 16 0 Alarm State:  0
Sun Sep 25 10:40:56 PDT 2022 ON: 20.01 +20.0 20.07 -22.3 17.8 23.4 28.1 17 0 Alarm State:  0
Sun Sep 25 10:39:55 PDT 2022 ON: 20.02 +20.0 20.08 -23.3 16.5 24.4 28.1 16 0 Alarm State:  0
Sun Sep 25 10:38:53 PDT 2022 ON: 20.00 +20.0 20.06 -22.9 16.9 24.1 28.2 14 0 Alarm State:  0
Sun Sep 25 10:37:52 PDT 2022 ON: 20.00 +20.0 20.05 -21.8 18.3 23.0 28.3 14 0 Alarm State:  0
Sun Sep 25 10:36:50 PDT 2022 ON: 20.00 +20.0 20.04 -21.2 19.1 22.4 28.2 15 0 Alarm State:  0
Sun Sep 25 10:35:49 PDT 2022 ON: 20.01 +20.0 20.05 -21.2 19.1 22.4 28.2 16 0 Alarm State:  0
Sun Sep 25 10:34:47 PDT 2022 ON: 20.00 +20.0 20.07 -22.8 17.1 23.9 28.2 16 0 Alarm State:  0
Sun Sep 25 10:33:46 PDT 2022 ON: 20.00 +20.0 20.06 -21.9 18.2 23.1 28.3 15 0 Alarm State:  0
Sun Sep 25 10:32:44 PDT 2022 ON: 20.01 +20.0 20.05 -21.7 18.5 22.8 28.2 16 0 Alarm State:  0
Sun Sep 25 10:31:43 PDT 2022 ON: 20.01 +20.0 20.07 -22.5 17.5 23.6 28.2 16 0 Alarm State:  0
Sun Sep 25 10:30:41 PDT 2022 ON: 20.02 +20.0 20.09 -23.3 16.5 24.4 28.1 15 0 Alarm State:  0
Sun Sep 25 10:29:40 PDT 2022 ON: 20.00 +20.0 20.07 -22.9 16.9 24.1 28.1 14 0 Alarm State:  0
Sun Sep 25 10:28:38 PDT 2022 ON: 20.00 +20.0 20.05 -21.2 19.1 22.4 28.3 15 0 Alarm State:  0
Sun Sep 25 10:27:37 PDT 2022 ON: 20.01 +20.0 20.06 -22.0 18.1 23.2 28.1 17 0 Alarm State:  0
Sun Sep 25 10:26:35 PDT 2022 ON: 20.01 +20.0 20.08 -22.9 17.0 24.0 28.1 16 0 Alarm State:  0
Sun Sep 25 10:25:34 PDT 2022 ON: 20.01 +20.0 20.07 -23.3 16.5 24.4 28.2 15 0 Alarm State:  0
Sun Sep 25 10:24:32 PDT 2022 ON: 20.00 +20.0 20.06 -22.7 17.2 23.9 28.2 14 0 Alarm State:  0
Sun Sep 25 10:23:31 PDT 2022 ON: 20.00 +20.0 20.04 -21.4 18.9 22.5 28.3 15 0 Alarm State:  0
Sun Sep 25 10:22:29 PDT 2022 ON: 20.00 +20.0 20.04 -21.2 19.2 22.3 28.3 15 0 Alarm State:  0
Sun Sep 25 10:21:28 PDT 2022 ON: 20.00 +20.0 20.04 -21.5 18.8 22.6 28.2 15 0 Alarm State:  0
Sun Sep 25 10:20:26 PDT 2022 ON: 20.01 +20.0 20.08 -22.6 17.3 23.8 28.1 16 0 Alarm State:  0
Sun Sep 25 10:19:25 PDT 2022 ON: 20.01 +20.0 20.06 -22.3 17.8 23.4 28.1 17 0 Alarm State:  0
Sun Sep 25 10:18:23 PDT 2022 ON: 20.02 +20.0 20.08 -22.9 16.9 24.1 28.1 16 0 Alarm State:  0
Sun Sep 25 10:17:22 PDT 2022 ON: 20.02 +20.0 20.09 -23.5 16.2 24.7 28.0 15 0 Alarm State:  0
Sun Sep 25 10:16:20 PDT 2022 ON: 20.01 +20.0 20.06 -22.3 17.7 23.5 28.1 17 0 Alarm State:  0
Sun Sep 25 10:15:19 PDT 2022 ON: 20.01 +20.0 20.08 -23.2 16.6 24.3 28.1 16 0 Alarm State:  0
Sun Sep 25 10:14:17 PDT 2022 ON: 20.01 +20.0 20.07 -22.9 16.9 24.1 28.2 15 0 Alarm State:  0
Sun Sep 25 10:13:16 PDT 2022 ON: 20.00 +20.0 20.04 -22.0 18.1 23.2 28.3 14 0 Alarm State:  0
Sun Sep 25 10:12:14 PDT 2022 ON: 20.01 +20.0 20.06 -21.2 19.1 22.4 28.2 16 0 Alarm State:  0
Sun Sep 25 10:11:13 PDT 2022 ON: 20.01 +20.0 20.08 -23.3 16.5 24.4 28.1 16 0 Alarm State:  0
Sun Sep 25 10:10:11 PDT 2022 ON: 20.00 +20.0 20.05 -22.6 17.4 23.7 28.3 14 0 Alarm State:  0
Sun Sep 25 10:09:10 PDT 2022 ON: 20.00 +20.0 20.04 -21.6 18.6 22.8 28.2 14 0 Alarm State:  0
Sun Sep 25 10:08:08 PDT 2022 ON: 20.00 +20.0 20.06 -22.5 17.5 23.6 28.2 16 0 Alarm State:  0
Sun Sep 25 10:07:07 PDT 2022 ON: 20.00 +20.0 20.06 -22.9 16.9 24.1 28.2 15 0 Alarm State:  0
Sun Sep 25 10:06:05 PDT 2022 ON: 20.00 +20.0 20.05 -22.3 17.7 23.5 28.3 14 0 Alarm State:  0
Sun Sep 25 10:05:04 PDT 2022 ON: 20.00 +20.0 20.04 -21.2 19.1 22.4 28.2 16 0 Alarm State:  0
Sun Sep 25 10:04:02 PDT 2022 ON: 20.01 +20.0 20.07 -22.9 17.0 24.0 28.1 16 0 Alarm State:  0
Sun Sep 25 10:03:01 PDT 2022 ON: 20.01 +20.0 20.05 -21.9 18.2 23.1 28.1 14 0 Alarm State:  0
Sun Sep 25 10:01:59 PDT 2022 ON: 20.01 +20.0 20.06 -22.4 17.6 23.6 28.1 16 0 Alarm State:  0
Sun Sep 25 10:00:58 PDT 2022 ON: 20.01 +20.0 20.07 -22.9 17.0 24.0 28.1 16 0 Alarm State:  0
Sun Sep 25 09:59:56 PDT 2022 ON: 20.00 +20.0 20.06 -22.0 18.1 23.2 28.3 15 0 Alarm State:  0
Sun Sep 25 09:58:55 PDT 2022 ON: 20.00 +20.0 20.04 -21.3 19.0 22.5 28.2 14 0 Alarm State:  0
Sun Sep 25 09:57:53 PDT 2022 ON: 20.00 +20.0 20.04 -21.4 18.9 22.5 28.2 16 0 Alarm State:  0
Sun Sep 25 09:56:52 PDT 2022 ON: 20.01 +20.0 20.07 -22.3 17.7 23.5 28.1 16 0 Alarm State:  0
Sun Sep 25 09:55:50 PDT 2022 ON: 20.00 +20.0 20.07 -23.4 16.3 24.6 28.1 14 0 Alarm State:  0
Sun Sep 25 09:54:49 PDT 2022 ON: 20.00 +20.0 20.05 -22.3 17.8 23.4 28.3 14 0 Alarm State:  0
Sun Sep 25 09:53:47 PDT 2022 ON: 20.00 +20.0 20.03 -21.0 19.4 22.2 28.3 15 0 Alarm State:  0
Sun Sep 25 09:52:45 PDT 2022 ON: 20.00 +20.0 20.04 -21.5 18.8 22.6 28.3 15 0 Alarm State:  0
Sun Sep 25 09:51:44 PDT 2022 ON: 20.01 +20.0 20.04 -21.4 18.9 22.5 28.2 15 0 Alarm State:  0
Sun Sep 25 09:50:42 PDT 2022 ON: 20.00 +20.0 20.05 -21.3 19.0 22.5 28.2 16 0 Alarm State:  0
Sun Sep 25 09:49:41 PDT 2022 ON: 20.01 +20.0 20.07 -22.4 17.6 23.6 28.2 17 0 Alarm State:  0
Sun Sep 25 09:48:39 PDT 2022 ON: 20.01 +20.0 20.07 -22.7 17.2 23.9 28.2 15 0 Alarm State:  0
Sun Sep 25 09:47:38 PDT 2022 ON: 19.99 +20.0 20.04 -21.5 18.8 22.6 28.3 14 0 Alarm State:  0
Sun Sep 25 09:46:36 PDT 2022 ON: 19.99 +20.0 20.06 -22.6 17.3 23.8 28.2 15 0 Alarm State:  0
Sun Sep 25 09:45:35 PDT 2022 ON: 20.00 +20.0 20.05 -21.8 18.4 22.9 28.3 15 0 Alarm State:  0
Sun Sep 25 09:44:33 PDT 2022 ON: 20.01 +20.0 20.05 -22.3 17.7 23.5 28.1 16 0 Alarm State:  0
Sun Sep 25 09:43:32 PDT 2022 ON: 20.00 +20.0 20.07 -23.0 16.8 24.2 28.2 15 0 Alarm State:  0
Sun Sep 25 09:42:30 PDT 2022 ON: 20.00 +20.0 20.05 -22.3 17.8 23.4 28.3 15 0 Alarm State:  0
Sun Sep 25 09:41:29 PDT 2022 ON: 20.01 +20.0 20.05 -21.5 18.7 22.7 28.2 15 0 Alarm State:  0
Sun Sep 25 09:40:27 PDT 2022 ON: 20.01 +20.0 20.07 -22.8 17.1 23.9 28.2 16 0 Alarm State:  0
Sun Sep 25 09:39:26 PDT 2022 ON: 20.00 +20.0 20.04 -21.5 18.7 22.7 28.3 14 0 Alarm State:  0
Sun Sep 25 09:38:24 PDT 2022 ON: 20.00 +20.0 20.06 -22.5 17.5 23.6 28.1 15 0 Alarm State:  0
Sun Sep 25 09:37:23 PDT 2022 ON: 20.01 +20.0 20.08 -22.6 17.3 23.8 28.1 16 0 Alarm State:  0
Sun Sep 25 09:36:21 PDT 2022 ON: 20.01 +20.0 20.08 -23.6 16.1 24.7 28.0 15 0 Alarm State:  0
Sun Sep 25 09:35:20 PDT 2022 ON: 20.00 +20.0 20.05 -22.3 17.7 23.5 28.3 14 0 Alarm State:  0
Sun Sep 25 09:34:18 PDT 2022 ON: 20.00 +20.0 20.04 -21.4 18.9 22.5 28.2 15 0 Alarm State:  0
Sun Sep 25 09:33:17 PDT 2022 ON: 20.00 +20.0 20.03 -20.8 19.7 21.9 28.3 16 0 Alarm State:  0
Sun Sep 25 09:32:15 PDT 2022 ON: 20.01 +20.0 20.05 -21.6 18.6 22.8 28.1 17 0 Alarm State:  0
Sun Sep 25 09:31:14 PDT 2022 ON: 20.01 +20.0 20.07 -22.9 16.9 24.1 28.0 16 0 Alarm State:  0
Sun Sep 25 09:30:12 PDT 2022 ON: 20.01 +20.0 20.08 -23.3 16.5 24.4 28.0 16 0 Alarm State:  0
Sun Sep 25 09:29:11 PDT 2022 ON: 20.01 +20.0 20.06 -22.7 17.2 23.9 28.2 16 0 Alarm State:  0
Sun Sep 25 09:28:09 PDT 2022 ON: 20.01 +20.0 20.07 -22.6 17.3 23.8 28.2 15 0 Alarm State:  0
Sun Sep 25 09:27:08 PDT 2022 ON: 20.00 +20.0 20.05 -21.8 18.3 23.0 28.3 14 0 Alarm State:  0
Sun Sep 25 09:26:06 PDT 2022 ON: 20.01 +20.0 20.05 -21.7 18.5 22.8 28.1 14 0 Alarm State:  0
Sun Sep 25 09:25:05 PDT 2022 ON: 20.00 +20.0 20.04 -21.5 18.8 22.6 28.2 15 0 Alarm State:  0
Sun Sep 25 09:24:03 PDT 2022 ON: 20.01 +20.0 20.06 -22.0 18.1 23.2 28.1 17 0 Alarm State:  0
Sun Sep 25 09:23:02 PDT 2022 ON: 20.00 +20.0 20.07 -23.0 16.8 24.2 28.2 15 0 Alarm State:  0
Sun Sep 25 09:22:00 PDT 2022 ON: 20.00 +20.0 20.05 -22.5 17.5 23.6 28.3 14 0 Alarm State:  0
Sun Sep 25 09:20:59 PDT 2022 ON: 20.00 +20.0 20.04 -21.6 18.6 22.8 28.2 14 0 Alarm State:  0
Sun Sep 25 09:19:57 PDT 2022 ON: 20.01 +20.0 20.06 -22.3 17.8 23.4 28.1 17 0 Alarm State:  0
Sun Sep 25 09:18:56 PDT 2022 ON: 20.02 +20.0 20.09 -23.2 16.6 24.3 28.1 15 0 Alarm State:  0
Sun Sep 25 09:17:54 PDT 2022 ON: 20.00 +20.0 20.06 -22.9 16.9 24.1 28.2 15 0 Alarm State:  0
Sun Sep 25 09:16:53 PDT 2022 ON: 20.00 +20.0 20.04 -21.7 18.5 22.8 28.2 15 0 Alarm State:  0
Sun Sep 25 09:15:51 PDT 2022 ON: 20.01 +20.0 20.06 -21.6 18.6 22.8 28.2 17 0 Alarm State:  0
Sun Sep 25 09:14:50 PDT 2022 ON: 20.01 +20.0 20.08 -23.0 16.8 24.2 28.1 16 0 Alarm State:  0
Sun Sep 25 09:13:48 PDT 2022 ON: 20.01 +20.0 20.09 -23.4 16.3 24.6 28.1 15 0 Alarm State:  0
Sun Sep 25 09:12:47 PDT 2022 ON: 20.00 +20.0 20.06 -22.5 17.5 23.6 28.3 14 0 Alarm State:  0
Sun Sep 25 09:11:45 PDT 2022 ON: 20.01 +20.0 20.05 -21.4 18.9 22.5 28.2 14 0 Alarm State:  0
Sun Sep 25 09:10:44 PDT 2022 ON: 19.99 +20.0 20.04 -21.5 18.8 22.6 28.2 15 0 Alarm State:  0
Sun Sep 25 09:09:42 PDT 2022 ON: 20.01 +20.0 20.05 -21.7 18.5 22.8 28.1 16 0 Alarm State:  0
Sun Sep 25 09:08:41 PDT 2022 ON: 20.01 +20.0 20.07 -22.5 17.5 23.6 28.0 16 0 Alarm State:  0
Sun Sep 25 09:07:39 PDT 2022 ON: 20.01 +20.0 20.07 -22.3 17.7 23.5 28.1 17 0 Alarm State:  0
Sun Sep 25 09:06:38 PDT 2022 ON: 20.00 +20.0 20.07 -22.8 17.1 23.9 28.2 16 0 Alarm State:  0
Sun Sep 25 09:05:36 PDT 2022 ON: 20.00 +20.0 20.06 -22.7 17.2 23.9 28.2 14 0 Alarm State:  0
Sun Sep 25 09:04:35 PDT 2022 ON: 20.00 +20.0 20.03 -21.6 18.6 22.8 28.3 15 0 Alarm State:  0
Sun Sep 25 09:03:33 PDT 2022 ON: 20.01 +20.0 20.04 -21.6 18.6 22.8 28.1 15 0 Alarm State:  0
Sun Sep 25 09:02:32 PDT 2022 ON: 20.00 +20.0 20.05 -21.7 18.5 22.8 28.2 17 0 Alarm State:  0
Sun Sep 25 09:01:30 PDT 2022 ON: 20.00 +20.0 20.08 -22.8 17.1 23.9 28.1 16 0 Alarm State:  0
Sun Sep 25 09:00:29 PDT 2022 ON: 20.01 +20.0 20.07 -23.1 16.7 24.2 28.2 15 0 Alarm State:  0
Sun Sep 25 08:59:27 PDT 2022 ON: 20.00 +20.0 20.04 -21.7 18.5 22.8 28.2 14 0 Alarm State:  0
Sun Sep 25 08:58:26 PDT 2022 ON: 20.00 +20.0 20.03 -21.2 19.1 22.4 28.2 14 0 Alarm State:  0
Sun Sep 25 08:57:24 PDT 2022 ON: 20.00 +20.0 20.05 -21.4 18.9 22.5 28.2 16 0 Alarm State:  0
Sun Sep 25 08:56:23 PDT 2022 ON: 20.01 +20.0 20.06 -22.4 17.6 23.6 28.1 17 0 Alarm State:  0
Sun Sep 25 08:55:21 PDT 2022 ON: 20.02 +20.0 20.07 -22.3 17.7 23.5 28.2 16 0 Alarm State:  0
Sun Sep 25 08:54:20 PDT 2022 ON: 20.00 +20.0 20.07 -23.1 16.7 24.2 28.2 14 0 Alarm State:  0
Sun Sep 25 08:53:18 PDT 2022 ON: 20.00 +20.0 20.08 -23.5 16.2 24.7 28.1 15 0 Alarm State:  0
Sun Sep 25 08:52:17 PDT 2022 ON: 20.01 +20.0 20.05 -21.5 18.8 22.6 28.2 15 0 Alarm State:  0
Sun Sep 25 08:51:15 PDT 2022 ON: 20.01 +20.0 20.05 -21.7 18.5 22.8 28.2 16 0 Alarm State:  0
Sun Sep 25 08:50:13 PDT 2022 ON: 20.00 +20.0 20.07 -22.8 17.1 23.9 28.2 15 0 Alarm State:  0
Sun Sep 25 08:49:12 PDT 2022 ON: 20.01 +20.0 20.07 -22.7 17.2 23.9 28.1 16 0 Alarm State:  0
Sun Sep 25 08:48:10 PDT 2022 ON: 20.00 +20.0 20.05 -22.3 17.8 23.4 28.3 14 0 Alarm State:  0
Sun Sep 25 08:47:09 PDT 2022 ON: 20.00 +20.0 20.04 -21.4 18.9 22.5 28.3 14 0 Alarm State:  0
Sun Sep 25 08:46:07 PDT 2022 ON: 20.01 +20.0 20.05 -21.7 18.5 22.8 28.1 16 0 Alarm State:  0
Sun Sep 25 08:45:06 PDT 2022 ON: 20.00 +20.0 20.06 -22.9 17.0 24.0 28.2 15 0 Alarm State:  0
Sun Sep 25 08:44:04 PDT 2022 ON: 20.00 +20.0 20.05 -22.1 18.0 23.2 28.3 14 0 Alarm State:  0
Sun Sep 25 08:43:03 PDT 2022 ON: 20.00 +20.0 20.04 -21.4 18.9 22.5 28.2 15 0 Alarm State:  0
Sun Sep 25 08:42:01 PDT 2022 ON: 20.00 +20.0 20.04 -21.0 19.4 22.2 28.2 16 0 Alarm State:  0
Sun Sep 25 08:41:00 PDT 2022 ON: 20.02 +20.0 20.07 -21.8 18.3 23.0 28.1 17 0 Alarm State:  0
Sun Sep 25 08:39:58 PDT 2022 ON: 20.01 +20.0 20.08 -22.3 17.7 23.5 28.1 17 0 Alarm State:  0
Sun Sep 25 08:38:57 PDT 2022 ON: 20.01 +20.0 20.07 -22.9 16.9 24.1 28.1 16 0 Alarm State:  0
Sun Sep 25 08:37:55 PDT 2022 ON: 20.00 +20.0 20.07 -23.0 16.8 24.2 28.2 14 0 Alarm State:  0
Sun Sep 25 08:36:54 PDT 2022 ON: 20.00 +20.0 20.05 -22.0 18.1 23.2 28.3 14 0 Alarm State:  0
Sun Sep 25 08:35:52 PDT 2022 ON: 20.00 +20.0 20.04 -21.2 19.1 22.4 28.3 15 0 Alarm State:  0
Sun Sep 25 08:34:51 PDT 2022 ON: 20.01 +20.0 20.05 -21.7 18.5 22.8 28.2 15 0 Alarm State:  0
Sun Sep 25 08:33:49 PDT 2022 ON: 20.00 +20.0 20.07 -22.7 17.2 23.9 28.2 15 0 Alarm State:  0
Sun Sep 25 08:32:48 PDT 2022 ON: 19.99 +20.0 20.05 -21.8 18.3 23.0 28.3 14 0 Alarm State:  0
Sun Sep 25 08:31:46 PDT 2022 ON: 20.01 +20.0 20.07 -22.2 17.9 23.3 28.1 16 0 Alarm State:  0
Sun Sep 25 08:30:45 PDT 2022 ON: 20.01 +20.0 20.06 -22.6 17.4 23.7 28.1 14 0 Alarm State:  0
Sun Sep 25 08:29:43 PDT 2022 ON: 20.01 +20.0 20.07 -22.7 17.2 23.9 28.2 16 0 Alarm State:  0
Sun Sep 25 08:28:42 PDT 2022 ON: 20.01 +20.0 20.05 -21.5 18.7 22.7 28.3 14 0 Alarm State:  0
Sun Sep 25 08:27:40 PDT 2022 ON: 20.01 +20.0 20.06 -21.5 18.7 22.7 28.3 16 0 Alarm State:  0
Sun Sep 25 08:26:39 PDT 2022 ON: 20.00 +20.0 20.05 -22.1 18.0 23.2 28.3 14 0 Alarm State:  0
Sun Sep 25 08:25:37 PDT 2022 ON: 20.00 +20.0 20.05 -21.6 18.6 22.8 28.2 15 0 Alarm State:  0
Sun Sep 25 08:24:36 PDT 2022 ON: 20.01 +20.0 20.06 -21.8 18.3 23.0 28.1 17 0 Alarm State:  0
Sun Sep 25 08:23:34 PDT 2022 ON: 20.00 +20.0 20.07 -22.6 17.3 23.8 28.2 15 0 Alarm State:  0
Sun Sep 25 08:22:33 PDT 2022 ON: 20.00 +20.0 20.05 -21.8 18.3 23.0 28.2 15 0 Alarm State:  0
Sun Sep 25 08:21:31 PDT 2022 ON: 20.01 +20.0 20.07 -23.1 16.7 24.2 28.1 16 0 Alarm State:  0
Sun Sep 25 08:20:30 PDT 2022 ON: 20.02 +20.0 20.09 -23.3 16.5 24.4 28.1 16 0 Alarm State:  0
Sun Sep 25 08:19:28 PDT 2022 ON: 20.01 +20.0 20.07 -22.5 17.5 23.6 28.2 14 0 Alarm State:  0
Sun Sep 25 08:18:27 PDT 2022 ON: 20.01 +20.0 20.04 -21.5 18.7 22.7 28.1 15 0 Alarm State:  0
Sun Sep 25 08:17:25 PDT 2022 ON: 20.01 +20.0 20.06 -21.5 18.7 22.7 28.2 16 0 Alarm State:  0
Sun Sep 25 08:16:24 PDT 2022 ON: 20.00 +20.0 20.06 -22.3 17.7 23.5 28.2 15 0 Alarm State:  0
Sun Sep 25 08:15:22 PDT 2022 ON: 20.01 +20.0 20.08 -22.6 17.3 23.8 28.1 16 0 Alarm State:  0
Sun Sep 25 08:14:21 PDT 2022 ON: 20.01 +20.0 20.07 -23.3 16.4 24.5 28.1 15 0 Alarm State:  0
Sun Sep 25 08:13:19 PDT 2022 ON: 20.00 +20.0 20.05 -22.4 17.6 23.6 28.3 14 0 Alarm State:  0
Sun Sep 25 08:12:18 PDT 2022 ON: 19.99 +20.0 20.04 -21.5 18.7 22.7 28.3 14 0 Alarm State:  0
Sun Sep 25 08:11:16 PDT 2022 ON: 20.00 +20.0 20.05 -22.0 18.1 23.2 28.3 14 0 Alarm State:  0
Sun Sep 25 08:10:15 PDT 2022 ON: 20.00 +20.0 20.05 -22.0 18.1 23.2 28.2 14 0 Alarm State:  0
Sun Sep 25 08:09:13 PDT 2022 ON: 20.01 +20.0 20.05 -21.8 18.3 23.0 28.2 16 0 Alarm State:  0
Sun Sep 25 08:08:12 PDT 2022 ON: 20.00 +20.0 20.06 -22.6 17.4 23.7 28.2 15 0 Alarm State:  0
Sun Sep 25 08:07:10 PDT 2022 ON: 20.00 +20.0 20.04 -21.4 18.9 22.5 28.2 14 0 Alarm State:  0
Sun Sep 25 08:06:09 PDT 2022 ON: 20.01 +20.0 20.05 -21.8 18.3 23.0 28.1 16 0 Alarm State:  0
Sun Sep 25 08:05:07 PDT 2022 ON: 20.01 +20.0 20.06 -22.6 17.3 23.8 28.2 16 0 Alarm State:  0
Sun Sep 25 08:04:06 PDT 2022 ON: 20.01 +20.0 20.05 -22.0 18.1 23.2 28.1 16 0 Alarm State:  0
Sun Sep 25 08:03:04 PDT 2022 ON: 20.02 +20.0 20.09 -22.9 16.9 24.1 28.0 16 0 Alarm State:  0
Sun Sep 25 08:02:03 PDT 2022 ON: 20.01 +20.0 20.07 -22.5 17.5 23.6 28.2 16 0 Alarm State:  0
Sun Sep 25 08:01:01 PDT 2022 ON: 20.00 +20.0 20.05 -22.1 18.0 23.2 28.3 14 0 Alarm State:  0
Sun Sep 25 08:00:00 PDT 2022 ON: 20.00 +20.0 20.06 -22.0 18.1 23.2 28.1 15 0 Alarm State:  0
Sun Sep 25 07:58:58 PDT 2022 ON: 20.01 +20.0 20.08 -22.9 16.9 24.1 28.1 16 0 Alarm State:  0
Sun Sep 25 07:57:57 PDT 2022 ON: 20.01 +20.0 20.07 -23.3 16.5 24.4 28.1 15 0 Alarm State:  0
Sun Sep 25 07:56:55 PDT 2022 ON: 20.01 +20.0 20.07 -23.0 16.8 24.2 28.1 15 0 Alarm State:  0
Sun Sep 25 07:55:54 PDT 2022 ON: 20.00 +20.0 20.06 -22.4 17.6 23.6 28.3 14 0 Alarm State:  0
Sun Sep 25 07:54:52 PDT 2022 ON: 20.00 +20.0 20.04 -21.4 18.9 22.5 28.2 15 0 Alarm State:  0
Sun Sep 25 07:53:50 PDT 2022 ON: 20.01 +20.0 20.06 -22.2 17.9 23.3 28.1 17 0 Alarm State:  0
Sun Sep 25 07:52:49 PDT 2022 ON: 20.01 +20.0 20.06 -22.9 17.0 24.0 28.1 16 0 Alarm State:  0
Sun Sep 25 07:51:47 PDT 2022 ON: 20.00 +20.0 20.06 -22.5 17.5 23.6 28.2 14 0 Alarm State:  0
Sun Sep 25 07:50:46 PDT 2022 ON: 20.00 +20.0 20.04 -21.5 18.7 22.7 28.2 16 0 Alarm State:  0
Sun Sep 25 07:49:44 PDT 2022 ON: 20.01 +20.0 20.06 -23.0 16.8 24.2 28.2 15 0 Alarm State:  0
Sun Sep 25 07:48:43 PDT 2022 ON: 20.00 +20.0 20.05 -22.2 17.9 23.3 28.3 14 0 Alarm State:  0
Sun Sep 25 07:47:41 PDT 2022 ON: 20.01 +20.0 20.05 -21.6 18.6 22.8 28.1 15 0 Alarm State:  0
Sun Sep 25 07:46:40 PDT 2022 ON: 20.00 +20.0 20.05 -21.8 18.4 22.9 28.1 17 0 Alarm State:  0
Sun Sep 25 07:45:38 PDT 2022 ON: 20.01 +20.0 20.05 -22.0 18.1 23.2 28.1 17 0 Alarm State:  0
Sun Sep 25 07:44:37 PDT 2022 ON: 20.01 +20.0 20.06 -22.9 16.9 24.1 28.2 15 0 Alarm State:  0
Sun Sep 25 07:43:35 PDT 2022 ON: 19.99 +20.0 20.04 -21.9 18.2 23.1 28.3 14 0 Alarm State:  0
Sun Sep 25 07:42:34 PDT 2022 ON: 20.00 +20.0 20.04 -21.0 19.4 22.2 28.3 15 0 Alarm State:  0
Sun Sep 25 07:41:32 PDT 2022 ON: 20.01 +20.0 20.07 -22.5 17.5 23.6 28.1 16 0 Alarm State:  0
Sun Sep 25 07:40:31 PDT 2022 ON: 20.01 +20.0 20.07 -23.1 16.7 24.2 28.1 16 0 Alarm State:  0
Sun Sep 25 07:39:29 PDT 2022 ON: 20.00 +20.0 20.04 -21.7 18.5 22.8 28.3 14 0 Alarm State:  0
Sun Sep 25 07:38:28 PDT 2022 ON: 20.01 +20.0 20.05 -21.6 18.6 22.8 28.1 16 0 Alarm State:  0
Sun Sep 25 07:37:26 PDT 2022 ON: 20.02 +20.0 20.09 -22.9 16.9 24.1 28.1 16 0 Alarm State:  0
Sun Sep 25 07:36:25 PDT 2022 ON: 20.00 +20.0 20.06 -22.7 17.2 23.9 28.2 14 0 Alarm State:  0
Sun Sep 25 07:35:23 PDT 2022 ON: 20.00 +20.0 20.03 -21.9 18.2 23.1 28.2 14 0 Alarm State:  0
Sun Sep 25 07:34:22 PDT 2022 ON: 20.01 +20.0 20.05 -21.2 19.2 22.3 28.2 17 0 Alarm State:  0
Sun Sep 25 07:33:20 PDT 2022 ON: 20.01 +20.0 20.06 -22.8 17.1 23.9 28.2 16 0 Alarm State:  0
Sun Sep 25 07:32:19 PDT 2022 ON: 20.00 +20.0 20.05 -22.3 17.7 23.5 28.2 14 0 Alarm State:  0
Sun Sep 25 07:31:17 PDT 2022 ON: 20.00 +20.0 20.03 -21.1 19.3 22.2 28.3 15 0 Alarm State:  0
Sun Sep 25 07:30:16 PDT 2022 ON: 20.01 +20.0 20.05 -21.1 19.3 22.2 28.2 16 0 Alarm State:  0
Sun Sep 25 07:29:14 PDT 2022 ON: 20.01 +20.0 20.06 -21.6 18.6 22.8 28.1 17 0 Alarm State:  0
Sun Sep 25 07:28:13 PDT 2022 ON: 20.01 +20.0 20.05 -21.9 18.2 23.1 28.1 16 0 Alarm State:  0
Sun Sep 25 07:27:11 PDT 2022 ON: 20.00 +20.0 20.07 -22.9 17.0 24.0 28.2 15 0 Alarm State:  0
Sun Sep 25 07:26:10 PDT 2022 ON: 20.01 +20.0 20.06 -21.8 18.4 22.9 28.2 15 0 Alarm State:  0
Sun Sep 25 07:25:08 PDT 2022 ON: 20.01 +20.0 20.05 -21.8 18.4 22.9 28.1 16 0 Alarm State:  0
Sun Sep 25 07:24:07 PDT 2022 ON: 20.01 +20.0 20.06 -22.1 18.0 23.2 28.1 17 0 Alarm State:  0
Sun Sep 25 07:23:05 PDT 2022 ON: 20.01 +20.0 20.07 -22.9 17.0 24.0 28.1 16 0 Alarm State:  0
Sun Sep 25 07:22:04 PDT 2022 ON: 20.01 +20.0 20.08 -23.0 16.8 24.2 28.2 15 0 Alarm State:  0
Sun Sep 25 07:21:02 PDT 2022 ON: 20.00 +20.0 20.05 -22.4 17.6 23.6 28.3 13 0 Alarm State:  0
Sun Sep 25 07:20:01 PDT 2022 ON: 19.99 +20.0 20.05 -22.5 17.5 23.6 28.2 14 0 Alarm State:  0
Sun Sep 25 07:18:59 PDT 2022 ON: 19.99 +20.0 20.02 -21.0 19.4 22.2 28.3 15 0 Alarm State:  0
Sun Sep 25 07:17:58 PDT 2022 ON: 20.01 +20.0 20.06 -21.2 19.1 22.4 28.2 15 0 Alarm State:  0
Sun Sep 25 07:16:56 PDT 2022 ON: 20.01 +20.0 20.06 -21.3 19.0 22.5 28.2 16 0 Alarm State:  0
Sun Sep 25 07:15:55 PDT 2022 ON: 20.01 +20.0 20.06 -22.6 17.4 23.7 28.2 16 0 Alarm State:  0
Sun Sep 25 07:14:53 PDT 2022 ON: 20.00 +20.0 20.04 -22.6 17.4 23.7 28.2 14 0 Alarm State:  0
Sun Sep 25 07:13:52 PDT 2022 ON: 20.00 +20.0 20.04 -21.3 19.0 22.5 28.2 15 0 Alarm State:  0
Sun Sep 25 07:12:50 PDT 2022 ON: 20.00 +20.0 20.06 -22.8 17.1 23.9 28.1 16 0 Alarm State:  0
Sun Sep 25 07:11:49 PDT 2022 ON: 20.02 +20.0 20.06 -22.1 18.0 23.2 28.1 17 0 Alarm State:  0
Sun Sep 25 07:10:47 PDT 2022 ON: 20.01 +20.0 20.08 -23.7 15.9 24.9 28.0 15 0 Alarm State:  0
Sun Sep 25 07:09:46 PDT 2022 ON: 20.00 +20.0 20.07 -22.8 17.1 23.9 28.1 16 0 Alarm State:  0
Sun Sep 25 07:08:44 PDT 2022 ON: 20.01 +20.0 20.07 -22.3 17.7 23.5 28.1 16 0 Alarm State:  0
Sun Sep 25 07:07:43 PDT 2022 ON: 20.02 +20.0 20.08 -22.8 17.1 23.9 28.0 16 0 Alarm State:  0
Sun Sep 25 07:06:41 PDT 2022 ON: 20.01 +20.0 20.06 -22.6 17.4 23.7 28.1 15 0 Alarm State:  0
Sun Sep 25 07:05:40 PDT 2022 ON: 20.01 +20.0 20.05 -21.7 18.5 22.8 28.1 16 0 Alarm State:  0
Sun Sep 25 07:04:38 PDT 2022 ON: 20.00 +20.0 20.07 -22.8 17.1 23.9 28.1 16 0 Alarm State:  0
Sun Sep 25 07:03:37 PDT 2022 ON: 20.01 +20.0 20.07 -22.8 17.1 23.9 28.1 16 0 Alarm State:  0
Sun Sep 25 07:02:35 PDT 2022 ON: 20.01 +20.0 20.07 -22.7 17.2 23.9 28.1 16 0 Alarm State:  0
Sun Sep 25 07:01:34 PDT 2022 ON: 20.01 +20.0 20.07 -22.9 16.9 24.1 28.2 14 0 Alarm State:  0
Sun Sep 25 07:00:32 PDT 2022 ON: 20.00 +20.0 20.06 -22.0 18.1 23.2 28.2 14 0 Alarm State:  0
Sun Sep 25 06:59:30 PDT 2022 ON: 20.01 +20.0 20.07 -22.5 17.5 23.6 28.1 16 0 Alarm State:  0
Sun Sep 25 06:58:29 PDT 2022 ON: 20.00 +20.0 20.06 -22.6 17.3 23.8 28.3 14 0 Alarm State:  0
Sun Sep 25 06:57:27 PDT 2022 ON: 20.01 +20.0 20.06 -22.2 17.9 23.3 28.2 15 0 Alarm State:  0
Sun Sep 25 06:56:26 PDT 2022 ON: 20.00 +20.0 20.04 -21.7 18.5 22.8 28.3 14 0 Alarm State:  0
Sun Sep 25 06:55:24 PDT 2022 ON: 20.01 +20.0 20.04 -21.6 18.6 22.8 28.2 15 0 Alarm State:  0
Sun Sep 25 06:54:23 PDT 2022 ON: 20.01 +20.0 20.06 -22.9 16.9 24.1 28.2 15 0 Alarm State:  0
Sun Sep 25 06:53:21 PDT 2022 ON: 20.00 +20.0 20.06 -22.6 17.3 23.8 28.2 14 0 Alarm State:  0
Sun Sep 25 06:52:20 PDT 2022 ON: 20.00 +20.0 20.04 -21.5 18.8 22.6 28.3 15 0 Alarm State:  0
Sun Sep 25 06:51:18 PDT 2022 ON: 20.00 +20.0 20.04 -21.4 18.9 22.5 28.2 15 0 Alarm State:  0
Sun Sep 25 06:50:17 PDT 2022 ON: 20.00 +20.0 20.06 -22.5 17.5 23.6 28.2 17 0 Alarm State:  0
Sun Sep 25 06:49:15 PDT 2022 ON: 20.02 +20.0 20.08 -22.4 17.6 23.6 28.1 16 0 Alarm State:  0
Sun Sep 25 06:48:14 PDT 2022 ON: 20.00 +20.0 20.07 -23.0 16.8 24.2 28.2 14 0 Alarm State:  0
Sun Sep 25 06:47:12 PDT 2022 ON: 20.01 +20.0 20.05 -21.7 18.5 22.8 28.1 15 0 Alarm State:  0
Sun Sep 25 06:46:11 PDT 2022 ON: 20.00 +20.0 20.07 -22.6 17.3 23.8 28.2 16 0 Alarm State:  0
Sun Sep 25 06:45:09 PDT 2022 ON: 20.01 +20.0 20.06 -22.0 18.1 23.2 28.3 15 0 Alarm State:  0
Sun Sep 25 06:44:08 PDT 2022 ON: 20.00 +20.0 20.05 -22.2 17.9 23.3 28.2 14 0 Alarm State:  0
Sun Sep 25 06:43:06 PDT 2022 ON: 20.00 +20.0 20.04 -21.4 18.9 22.5 28.2 16 0 Alarm State:  0
Sun Sep 25 06:42:05 PDT 2022 ON: 20.01 +20.0 20.07 -22.8 17.1 23.9 28.1 16 0 Alarm State:  0
Sun Sep 25 06:41:03 PDT 2022 ON: 20.01 +20.0 20.05 -21.6 18.6 22.8 28.2 15 0 Alarm State:  0
Sun Sep 25 06:40:02 PDT 2022 ON: 20.01 +20.0 20.08 -23.2 16.6 24.3 28.1 16 0 Alarm State:  0
Sun Sep 25 06:39:00 PDT 2022 ON: 20.01 +20.0 20.06 -22.5 17.5 23.6 28.2 14 0 Alarm State:  0
Sun Sep 25 06:37:59 PDT 2022 ON: 20.00 +20.0 20.05 -21.8 18.3 23.0 28.3 16 0 Alarm State:  0
Sun Sep 25 06:36:57 PDT 2022 ON: 20.00 +20.0 20.05 -22.6 17.4 23.7 28.2 13 0 Alarm State:  0
Sun Sep 25 06:35:56 PDT 2022 ON: 19.98 +20.0 20.03 -21.4 18.9 22.5 28.4 15 0 Alarm State:  0
Sun Sep 25 06:34:54 PDT 2022 ON: 20.00 +20.0 20.04 -22.1 18.0 23.2 28.3 14 0 Alarm State:  0
Sun Sep 25 06:33:53 PDT 2022 ON: 20.00 +20.0 20.04 -21.6 18.6 22.8 28.2 14 0 Alarm State:  0
Sun Sep 25 06:32:51 PDT 2022 ON: 20.01 +20.0 20.07 -22.7 17.2 23.9 28.0 16 0 Alarm State:  0
Sun Sep 25 06:31:50 PDT 2022 ON: 20.00 +20.0 20.06 -22.3 17.7 23.5 28.3 14 0 Alarm State:  0
Sun Sep 25 06:30:48 PDT 2022 ON: 20.00 +20.0 20.04 -21.2 19.1 22.4 28.2 15 0 Alarm State:  0
Sun Sep 25 06:29:47 PDT 2022 ON: 20.01 +20.0 20.06 -22.3 17.8 23.4 28.1 16 0 Alarm State:  0
Sun Sep 25 06:28:45 PDT 2022 ON: 20.00 +20.0 20.05 -22.4 17.6 23.6 28.3 14 0 Alarm State:  0
Sun Sep 25 06:27:44 PDT 2022 ON: 20.01 +20.0 20.04 -21.5 18.8 22.6 28.2 16 0 Alarm State:  0
Sun Sep 25 06:26:42 PDT 2022 ON: 20.01 +20.0 20.08 -22.8 17.1 23.9 28.2 16 0 Alarm State:  0
Sun Sep 25 06:25:41 PDT 2022 ON: 20.00 +20.0 20.06 -22.8 17.1 23.9 28.2 14 0 Alarm State:  0
Sun Sep 25 06:24:39 PDT 2022 ON: 20.00 +20.0 20.03 -21.0 19.4 22.2 28.2 16 0 Alarm State:  0
Sun Sep 25 06:23:38 PDT 2022 ON: 20.02 +20.0 20.08 -21.9 18.2 23.1 28.1 17 0 Alarm State:  0
Sun Sep 25 06:22:36 PDT 2022 ON: 20.01 +20.0 20.08 -23.7 16.0 24.8 28.0 15 0 Alarm State:  0
Sun Sep 25 06:21:35 PDT 2022 ON: 20.00 +20.0 20.06 -22.6 17.3 23.8 28.3 15 0 Alarm State:  0
Sun Sep 25 06:20:33 PDT 2022 ON: 20.00 +20.0 20.05 -22.1 18.0 23.2 28.3 14 0 Alarm State:  0
Sun Sep 25 06:19:32 PDT 2022 ON: 20.01 +20.0 20.04 -21.2 19.2 22.3 28.2 15 0 Alarm State:  0
Sun Sep 25 06:18:30 PDT 2022 ON: 20.00 +20.0 20.05 -22.0 18.1 23.2 28.2 16 0 Alarm State:  0
Sun Sep 25 06:17:29 PDT 2022 ON: 20.00 +20.0 20.05 -22.7 17.2 23.9 28.2 14 0 Alarm State:  0
Sun Sep 25 06:16:27 PDT 2022 ON: 20.01 +20.0 20.04 -21.3 19.0 22.5 28.2 16 0 Alarm State:  0
Sun Sep 25 06:15:26 PDT 2022 ON: 20.01 +20.0 20.06 -22.1 18.0 23.2 28.1 17 0 Alarm State:  0
Sun Sep 25 06:14:24 PDT 2022 ON: 20.00 +20.0 20.05 -22.1 18.0 23.2 28.3 15 0 Alarm State:  0
Sun Sep 25 06:13:23 PDT 2022 ON: 20.02 +20.0 20.08 -23.4 16.3 24.6 28.1 15 0 Alarm State:  0
Sun Sep 25 06:12:21 PDT 2022 ON: 20.01 +20.0 20.07 -23.3 16.5 24.4 28.1 14 0 Alarm State:  0
Sun Sep 25 06:11:20 PDT 2022 ON: 19.99 +20.0 20.04 -21.2 19.2 22.3 28.2 15 0 Alarm State:  0
Sun Sep 25 06:10:18 PDT 2022 ON: 20.01 +20.0 20.05 -21.5 18.7 22.7 28.2 17 0 Alarm State:  0
Sun Sep 25 06:09:17 PDT 2022 ON: 20.01 +20.0 20.07 -22.9 16.9 24.1 28.2 15 0 Alarm State:  0
Sun Sep 25 06:08:15 PDT 2022 ON: 20.00 +20.0 20.05 -22.6 17.4 23.7 28.2 14 0 Alarm State:  0
Sun Sep 25 06:07:14 PDT 2022 ON: 20.01 +20.0 20.06 -21.8 18.4 22.9 28.1 16 0 Alarm State:  0
Sun Sep 25 06:06:12 PDT 2022 ON: 20.01 +20.0 20.05 -21.5 18.8 22.6 28.2 17 0 Alarm State:  0
Sun Sep 25 06:05:11 PDT 2022 ON: 20.02 +20.0 20.08 -22.6 17.4 23.7 28.0 16 0 Alarm State:  0
Sun Sep 25 06:04:09 PDT 2022 ON: 20.00 +20.0 20.07 -23.2 16.6 24.3 28.1 15 0 Alarm State:  0
Sun Sep 25 06:03:08 PDT 2022 ON: 20.00 +20.0 20.05 -21.2 19.2 22.3 28.3 15 0 Alarm State:  0
Sun Sep 25 06:02:06 PDT 2022 ON: 20.00 +20.0 20.04 -21.4 18.9 22.5 28.2 14 0 Alarm State:  0
Sun Sep 25 06:01:04 PDT 2022 ON: 20.01 +20.0 20.07 -22.8 17.1 23.9 28.1 16 0 Alarm State:  0
Sun Sep 25 06:00:03 PDT 2022 ON: 20.01 +20.0 20.07 -22.7 17.2 23.9 28.1 16 0 Alarm State:  0
Sun Sep 25 05:59:01 PDT 2022 ON: 20.01 +20.0 20.08 -23.3 16.5 24.4 28.1 15 0 Alarm State:  0
Sun Sep 25 05:58:00 PDT 2022 ON: 19.99 +20.0 20.05 -21.9 18.2 23.1 28.3 14 0 Alarm State:  0
Sun Sep 25 05:56:58 PDT 2022 ON: 20.00 +20.0 20.04 -21.5 18.7 22.7 28.2 15 0 Alarm State:  0
Sun Sep 25 05:55:57 PDT 2022 ON: 20.00 +20.0 20.06 -22.5 17.5 23.6 28.1 16 0 Alarm State:  0
Sun Sep 25 05:54:55 PDT 2022 ON: 20.00 +20.0 20.06 -22.4 17.6 23.6 28.3 15 0 Alarm State:  0
Sun Sep 25 05:53:54 PDT 2022 ON: 20.00 +20.0 20.04 -21.4 18.9 22.5 28.3 14 0 Alarm State:  0
Sun Sep 25 05:52:52 PDT 2022 ON: 20.01 +20.0 20.05 -21.6 18.6 22.8 28.1 16 0 Alarm State:  0
Sun Sep 25 05:51:51 PDT 2022 ON: 20.00 +20.0 20.03 -20.8 19.6 22.0 28.3 16 0 Alarm State:  0
Sun Sep 25 05:50:49 PDT 2022 ON: 20.01 +20.0 20.05 -21.3 19.0 22.5 28.2 16 0 Alarm State:  0
Sun Sep 25 05:49:48 PDT 2022 ON: 20.01 +20.0 20.07 -22.1 18.0 23.2 28.1 17 0 Alarm State:  0
Sun Sep 25 05:48:46 PDT 2022 ON: 20.01 +20.0 20.07 -22.9 16.9 24.1 28.2 15 0 Alarm State:  0
Sun Sep 25 05:47:45 PDT 2022 ON: 20.00 +20.0 20.04 -21.6 18.6 22.8 28.2 15 0 Alarm State:  0
Sun Sep 25 05:46:43 PDT 2022 ON: 20.00 +20.0 20.06 -22.3 17.8 23.4 28.2 17 0 Alarm State:  0
Sun Sep 25 05:45:42 PDT 2022 ON: 20.00 +20.0 20.07 -23.0 16.8 24.2 28.1 15 0 Alarm State:  0
Sun Sep 25 05:44:40 PDT 2022 ON: 20.00 +20.0 20.04 -21.7 18.5 22.8 28.2 15 0 Alarm State:  0
Sun Sep 25 05:43:39 PDT 2022 ON: 20.01 +20.0 20.06 -22.6 17.4 23.7 28.2 16 0 Alarm State:  0
Sun Sep 25 05:42:37 PDT 2022 ON: 20.00 +20.0 20.06 -22.6 17.3 23.8 28.2 14 0 Alarm State:  0
Sun Sep 25 05:41:36 PDT 2022 ON: 20.01 +20.0 20.06 -22.1 18.0 23.2 28.1 17 0 Alarm State:  0
Sun Sep 25 05:40:34 PDT 2022 ON: 20.01 +20.0 20.07 -22.7 17.2 23.9 28.2 16 0 Alarm State:  0
Sun Sep 25 05:39:33 PDT 2022 ON: 20.01 +20.0 20.05 -22.5 17.5 23.6 28.2 14 0 Alarm State:  0
Sun Sep 25 05:38:31 PDT 2022 ON: 20.00 +20.0 20.06 -21.5 18.8 22.6 28.2 16 0 Alarm State:  0
Sun Sep 25 05:37:30 PDT 2022 ON: 20.01 +20.0 20.07 -22.6 17.3 23.8 28.2 16 0 Alarm State:  0
Sun Sep 25 05:36:28 PDT 2022 ON: 20.01 +20.0 20.04 -21.5 18.7 22.7 28.2 14 0 Alarm State:  0
Sun Sep 25 05:35:27 PDT 2022 ON: 20.01 +20.0 20.06 -22.3 17.7 23.5 28.2 15 0 Alarm State:  0
Sun Sep 25 05:34:25 PDT 2022 ON: 20.00 +20.0 20.07 -23.1 16.7 24.2 28.2 15 0 Alarm State:  0
Sun Sep 25 05:33:24 PDT 2022 ON: 20.01 +20.0 20.05 -21.2 19.2 22.3 28.2 16 0 Alarm State:  0
Sun Sep 25 05:32:22 PDT 2022 ON: 20.01 +20.0 20.06 -22.2 17.9 23.3 28.0 17 0 Alarm State:  0
Sun Sep 25 05:31:21 PDT 2022 ON: 20.01 +20.0 20.07 -22.6 17.4 23.7 28.1 16 0 Alarm State:  0
Sun Sep 25 05:30:19 PDT 2022 ON: 20.01 +20.0 20.06 -21.5 18.8 22.6 28.2 15 0 Alarm State:  0
Sun Sep 25 05:29:18 PDT 2022 ON: 20.01 +20.0 20.05 -21.3 19.0 22.5 28.1 16 0 Alarm State:  0
Sun Sep 25 05:28:16 PDT 2022 ON: 20.01 +20.0 20.06 -22.3 17.7 23.5 28.1 16 0 Alarm State:  0
Sun Sep 25 05:27:15 PDT 2022 ON: 20.00 +20.0 20.06 -22.5 17.5 23.6 28.2 15 0 Alarm State:  0
Sun Sep 25 05:26:13 PDT 2022 ON: 20.01 +20.0 20.08 -23.0 16.8 24.2 28.1 16 0 Alarm State:  0
Sun Sep 25 05:25:12 PDT 2022 ON: 20.01 +20.0 20.07 -22.6 17.3 23.8 28.2 14 0 Alarm State:  0
Sun Sep 25 05:24:10 PDT 2022 ON: 20.00 +20.0 20.05 -21.5 18.7 22.7 28.2 14 0 Alarm State:  0
Sun Sep 25 05:23:09 PDT 2022 ON: 20.00 +20.0 20.05 -22.6 17.4 23.7 28.2 15 0 Alarm State:  0
Sun Sep 25 05:22:07 PDT 2022 ON: 20.01 +20.0 20.05 -21.7 18.5 22.8 28.1 15 0 Alarm State:  0
Sun Sep 25 05:21:06 PDT 2022 ON: 20.00 +20.0 20.06 -21.9 18.2 23.1 28.3 15 0 Alarm State:  0
Sun Sep 25 05:20:04 PDT 2022 ON: 20.02 +20.0 20.07 -22.3 17.7 23.5 28.1 17 0 Alarm State:  0
Sun Sep 25 05:19:03 PDT 2022 ON: 20.01 +20.0 20.07 -23.5 16.2 24.7 28.1 14 0 Alarm State:  0
Sun Sep 25 05:18:01 PDT 2022 ON: 20.00 +20.0 20.05 -22.6 17.3 23.8 28.3 14 0 Alarm State:  0
Sun Sep 25 05:16:59 PDT 2022 ON: 20.00 +20.0 20.05 -22.3 17.8 23.4 28.3 14 0 Alarm State:  0
Sun Sep 25 05:15:57 PDT 2022 ON: 20.01 +20.0 20.06 -22.0 18.1 23.2 28.2 14 0 Alarm State:  0
Sun Sep 25 05:14:56 PDT 2022 ON: 20.00 +20.0 20.05 -21.5 18.8 22.6 28.2 16 0 Alarm State:  0
Sun Sep 25 05:13:54 PDT 2022 ON: 20.01 +20.0 20.06 -22.6 17.4 23.7 28.1 16 0 Alarm State:  0
Sun Sep 25 05:12:53 PDT 2022 ON: 20.00 +20.0 20.06 -22.7 17.2 23.9 28.2 15 0 Alarm State:  0
Sun Sep 25 05:11:51 PDT 2022 ON: 20.00 +20.0 20.06 -22.7 17.2 23.9 28.2 14 0 Alarm State:  0
Sun Sep 25 05:10:50 PDT 2022 ON: 20.00 +20.0 20.03 -21.8 18.4 22.9 28.2 14 0 Alarm State:  0
Sun Sep 25 05:09:48 PDT 2022 ON: 20.01 +20.0 20.06 -21.7 18.5 22.8 28.2 17 0 Alarm State:  0
Sun Sep 25 05:08:47 PDT 2022 ON: 20.01 +20.0 20.07 -22.7 17.2 23.9 28.1 16 0 Alarm State:  0
Sun Sep 25 05:07:45 PDT 2022 ON: 20.00 +20.0 20.06 -23.0 16.8 24.2 28.2 15 0 Alarm State:  0
Sun Sep 25 05:06:44 PDT 2022 ON: 20.01 +20.0 20.05 -21.8 18.3 23.0 28.2 14 0 Alarm State:  0
Sun Sep 25 05:05:42 PDT 2022 ON: 20.00 +20.0 20.04 -22.2 17.9 23.3 28.1 16 0 Alarm State:  0
Sun Sep 25 05:04:41 PDT 2022 ON: 20.01 +20.0 20.06 -22.3 17.8 23.4 28.2 16 0 Alarm State:  0
Sun Sep 25 05:03:39 PDT 2022 ON: 20.00 +20.0 20.05 -22.4 17.6 23.6 28.2 14 0 Alarm State:  0
Sun Sep 25 05:02:38 PDT 2022 ON: 20.00 +20.0 20.05 -21.4 18.9 22.5 28.3 15 0 Alarm State:  0
Sun Sep 25 05:01:36 PDT 2022 ON: 20.00 +20.0 20.05 -22.6 17.4 23.7 28.2 13 0 Alarm State:  0
Sun Sep 25 05:00:35 PDT 2022 ON: 19.99 +20.0 20.02 -21.2 19.1 22.4 28.3 15 0 Alarm State:  0
Sun Sep 25 04:59:33 PDT 2022 ON: 20.01 +20.0 20.05 -21.1 19.3 22.2 28.2 15 0 Alarm State:  0
Sun Sep 25 04:58:32 PDT 2022 ON: 20.01 +20.0 20.05 -21.8 18.3 23.0 28.1 16 0 Alarm State:  0
Sun Sep 25 04:57:30 PDT 2022 ON: 20.01 +20.0 20.06 -22.5 17.5 23.6 28.1 17 0 Alarm State:  0
Sun Sep 25 04:56:29 PDT 2022 ON: 20.01 +20.0 20.06 -22.7 17.2 23.9 28.1 16 0 Alarm State:  0
Sun Sep 25 04:55:27 PDT 2022 ON: 20.00 +20.0 20.06 -22.7 17.2 23.9 28.2 15 0 Alarm State:  0
Sun Sep 25 04:54:26 PDT 2022 ON: 20.00 +20.0 20.04 -21.2 19.2 22.3 28.3 15 0 Alarm State:  0
Sun Sep 25 04:53:24 PDT 2022 ON: 20.01 +20.0 20.05 -21.2 19.1 22.4 28.2 16 0 Alarm State:  0
Sun Sep 25 04:52:23 PDT 2022 ON: 20.00 +20.0 20.05 -21.4 18.9 22.5 28.2 15 0 Alarm State:  0
Sun Sep 25 04:51:21 PDT 2022 ON: 20.01 +20.0 20.06 -22.6 17.4 23.7 28.1 16 0 Alarm State:  0
Sun Sep 25 04:50:20 PDT 2022 ON: 20.01 +20.0 20.07 -22.9 16.9 24.1 28.2 15 0 Alarm State:  0
Sun Sep 25 04:49:18 PDT 2022 ON: 20.00 +20.0 20.07 -23.3 16.5 24.4 28.2 14 0 Alarm State:  0
Sun Sep 25 04:48:17 PDT 2022 ON: 20.00 +20.0 20.06 -23.0 16.8 24.2 28.2 14 0 Alarm State:  0
Sun Sep 25 04:47:15 PDT 2022 ON: 20.00 +20.0 20.04 -21.5 18.8 22.6 28.2 14 0 Alarm State:  0
Sun Sep 25 04:46:14 PDT 2022 ON: 20.01 +20.0 20.06 -22.0 18.1 23.2 28.2 15 0 Alarm State:  0
Sun Sep 25 04:45:12 PDT 2022 ON: 20.02 +20.0 20.06 -21.3 19.0 22.5 28.2 16 0 Alarm State:  0
Sun Sep 25 04:44:11 PDT 2022 ON: 20.00 +20.0 20.05 -21.8 18.3 23.0 28.2 15 0 Alarm State:  0
Sun Sep 25 04:43:09 PDT 2022 ON: 20.01 +20.0 20.06 -22.3 17.8 23.4 28.2 15 0 Alarm State:  0
Sun Sep 25 04:42:08 PDT 2022 ON: 20.00 +20.0 20.04 -21.7 18.5 22.8 28.3 14 0 Alarm State:  0
Sun Sep 25 04:41:06 PDT 2022 ON: 20.01 +20.0 20.05 -21.2 19.2 22.3 28.2 15 0 Alarm State:  0
Sun Sep 25 04:40:04 PDT 2022 ON: 20.00 +20.0 20.04 -21.4 18.9 22.5 28.2 16 0 Alarm State:  0
Sun Sep 25 04:39:03 PDT 2022 ON: 20.01 +20.0 20.04 -21.8 18.3 23.0 28.1 16 0 Alarm State:  0
Sun Sep 25 04:38:01 PDT 2022 ON: 20.01 +20.0 20.07 -22.4 17.6 23.6 28.2 16 0 Alarm State:  0
Sun Sep 25 04:37:00 PDT 2022 ON: 20.01 +20.0 20.07 -22.5 17.5 23.6 28.2 14 0 Alarm State:  0
Sun Sep 25 04:35:58 PDT 2022 ON: 20.01 +20.0 20.04 -21.5 18.8 22.6 28.2 15 0 Alarm State:  0
Sun Sep 25 04:34:57 PDT 2022 ON: 20.01 +20.0 20.07 -22.8 17.1 23.9 28.1 16 0 Alarm State:  0
Sun Sep 25 04:33:55 PDT 2022 ON: 20.01 +20.0 20.07 -22.5 17.5 23.6 28.2 16 0 Alarm State:  0
Sun Sep 25 04:32:54 PDT 2022 ON: 20.01 +20.0 20.07 -22.6 17.3 23.8 28.2 14 0 Alarm State:  0
Sun Sep 25 04:31:52 PDT 2022 ON: 20.01 +20.0 20.04 -21.3 19.0 22.5 28.2 15 0 Alarm State:  0
Sun Sep 25 04:30:51 PDT 2022 ON: 20.01 +20.0 20.07 -22.3 17.7 23.5 28.1 16 0 Alarm State:  0
Sun Sep 25 04:29:49 PDT 2022 ON: 20.00 +20.0 20.05 -22.5 17.5 23.6 28.2 14 0 Alarm State:  0
Sun Sep 25 04:28:48 PDT 2022 ON: 20.00 +20.0 20.07 -22.6 17.3 23.8 28.1 16 0 Alarm State:  0
Sun Sep 25 04:27:46 PDT 2022 ON: 20.00 +20.0 20.05 -22.0 18.1 23.2 28.3 14 0 Alarm State:  0
Sun Sep 25 04:26:45 PDT 2022 ON: 20.00 +20.0 20.05 -22.1 18.0 23.2 28.3 14 0 Alarm State:  0
Sun Sep 25 04:25:43 PDT 2022 ON: 20.00 +20.0 20.04 -21.6 18.6 22.8 28.2 14 0 Alarm State:  0
Sun Sep 25 04:24:42 PDT 2022 ON: 20.01 +20.0 20.05 -21.5 18.8 22.6 28.2 16 0 Alarm State:  0
Sun Sep 25 04:23:40 PDT 2022 ON: 20.01 +20.0 20.08 -23.0 16.8 24.2 28.1 16 0 Alarm State:  0
Sun Sep 25 04:22:39 PDT 2022 ON: 20.00 +20.0 20.06 -22.8 17.1 23.9 28.2 15 0 Alarm State:  0
Sun Sep 25 04:21:37 PDT 2022 ON: 20.00 +20.0 20.06 -22.8 17.1 23.9 28.2 14 0 Alarm State:  0
Sun Sep 25 04:20:36 PDT 2022 ON: 20.00 +20.0 20.04 -21.5 18.7 22.7 28.3 15 0 Alarm State:  0
Sun Sep 25 04:19:34 PDT 2022 ON: 20.01 +20.0 20.06 -22.3 17.7 23.5 28.1 17 0 Alarm State:  0
Sun Sep 25 04:18:33 PDT 2022 ON: 20.00 +20.0 20.06 -22.3 17.7 23.5 28.3 14 0 Alarm State:  0
Sun Sep 25 04:17:31 PDT 2022 ON: 20.00 +20.0 20.05 -22.0 18.1 23.2 28.2 14 0 Alarm State:  0
Sun Sep 25 04:16:30 PDT 2022 ON: 20.00 +20.0 20.06 -21.8 18.4 22.9 28.2 17 0 Alarm State:  0
Sun Sep 25 04:15:28 PDT 2022 ON: 20.01 +20.0 20.07 -23.3 16.5 24.4 28.0 15 0 Alarm State:  0
Sun Sep 25 04:14:27 PDT 2022 ON: 20.00 +20.0 20.05 -21.8 18.4 22.9 28.3 15 0 Alarm State:  0
Sun Sep 25 04:13:25 PDT 2022 ON: 20.00 +20.0 20.06 -22.9 16.9 24.1 28.2 13 0 Alarm State:  0
Sun Sep 25 04:12:24 PDT 2022 ON: 20.00 +20.0 20.04 -21.3 19.0 22.5 28.2 15 0 Alarm State:  0
Sun Sep 25 04:11:22 PDT 2022 ON: 20.01 +20.0 20.06 -21.8 18.4 22.9 28.1 17 0 Alarm State:  0
Sun Sep 25 04:10:21 PDT 2022 ON: 20.00 +20.0 20.05 -22.4 17.6 23.6 28.2 15 0 Alarm State:  0
Sun Sep 25 04:09:19 PDT 2022 ON: 20.00 +20.0 20.07 -22.8 17.1 23.9 28.2 14 0 Alarm State:  0
Sun Sep 25 04:08:18 PDT 2022 ON: 20.00 +20.0 20.06 -22.0 18.1 23.2 28.2 14 0 Alarm State:  0
Sun Sep 25 04:07:16 PDT 2022 ON: 20.00 +20.0 20.03 -21.0 19.4 22.2 28.3 16 0 Alarm State:  0
Sun Sep 25 04:06:15 PDT 2022 ON: 20.01 +20.0 20.05 -21.6 18.6 22.8 28.1 17 0 Alarm State:  0
Sun Sep 25 04:05:13 PDT 2022 ON: 20.01 +20.0 20.07 -22.8 17.1 23.9 28.1 16 0 Alarm State:  0
Sun Sep 25 04:04:12 PDT 2022 ON: 20.00 +20.0 20.06 -22.8 17.1 23.9 28.2 14 0 Alarm State:  0
Sun Sep 25 04:03:10 PDT 2022 ON: 20.01 +20.0 20.05 -22.0 18.1 23.2 28.3 14 0 Alarm State:  0
Sun Sep 25 04:02:09 PDT 2022 ON: 20.00 +20.0 20.05 -22.4 17.6 23.6 28.2 14 0 Alarm State:  0
Sun Sep 25 04:01:07 PDT 2022 ON: 20.01 +20.0 20.04 -21.2 19.1 22.4 28.2 15 0 Alarm State:  0
Sun Sep 25 04:00:06 PDT 2022 ON: 20.01 +20.0 20.06 -21.4 18.9 22.5 28.1 16 0 Alarm State:  0
Sun Sep 25 03:59:04 PDT 2022 ON: 20.00 +20.0 20.04 -21.5 18.7 22.7 28.2 17 0 Alarm State:  0
Sun Sep 25 03:58:03 PDT 2022 ON: 20.01 +20.0 20.07 -22.9 17.0 24.0 28.1 16 0 Alarm State:  0
Sun Sep 25 03:57:01 PDT 2022 ON: 20.00 +20.0 20.07 -22.9 17.0 24.0 28.1 14 0 Alarm State:  0
Sun Sep 25 03:56:00 PDT 2022 ON: 20.00 +20.0 20.04 -21.4 18.9 22.5 28.2 15 0 Alarm State:  0
Sun Sep 25 03:54:58 PDT 2022 ON: 20.01 +20.0 20.06 -22.1 18.0 23.2 28.1 17 0 Alarm State:  0
Sun Sep 25 03:53:57 PDT 2022 ON: 20.01 +20.0 20.05 -21.8 18.4 22.9 28.2 17 0 Alarm State:  0
Sun Sep 25 03:52:55 PDT 2022 ON: 20.01 +20.0 20.08 -22.7 17.2 23.9 28.1 16 0 Alarm State:  0
Sun Sep 25 03:51:54 PDT 2022 ON: 20.00 +20.0 20.05 -21.9 18.2 23.1 28.2 14 0 Alarm State:  0
Sun Sep 25 03:50:52 PDT 2022 ON: 20.00 +20.0 20.06 -22.6 17.3 23.8 28.1 16 0 Alarm State:  0
Sun Sep 25 03:49:51 PDT 2022 ON: 20.00 +20.0 20.05 -22.3 17.8 23.4 28.2 15 0 Alarm State:  0
Sun Sep 25 03:48:49 PDT 2022 ON: 20.00 +20.0 20.04 -21.8 18.4 22.9 28.3 14 0 Alarm State:  0
Sun Sep 25 03:47:48 PDT 2022 ON: 20.01 +20.0 20.08 -23.3 16.5 24.4 28.1 15 0 Alarm State:  0
Sun Sep 25 03:46:46 PDT 2022 ON: 20.00 +20.0 20.05 -22.8 17.1 23.9 28.1 14 0 Alarm State:  0
Sun Sep 25 03:45:45 PDT 2022 ON: 20.00 +20.0 20.04 -21.3 19.0 22.5 28.2 16 0 Alarm State:  0
Sun Sep 25 03:44:43 PDT 2022 ON: 20.01 +20.0 20.05 -20.9 19.5 22.1 28.3 16 0 Alarm State:  0
Sun Sep 25 03:43:42 PDT 2022 ON: 20.01 +20.0 20.06 -22.0 18.1 23.2 28.2 17 0 Alarm State:  0
Sun Sep 25 03:42:40 PDT 2022 ON: 20.00 +20.0 20.06 -22.9 17.0 24.0 28.1 13 0 Alarm State:  0
Sun Sep 25 03:41:39 PDT 2022 ON: 20.00 +20.0 20.04 -21.7 18.5 22.8 28.2 16 0 Alarm State:  0
Sun Sep 25 03:40:37 PDT 2022 ON: 20.01 +20.0 20.07 -22.4 17.6 23.6 28.2 15 0 Alarm State:  0
Sun Sep 25 03:39:35 PDT 2022 ON: 20.00 +20.0 20.06 -22.7 17.2 23.9 28.2 14 0 Alarm State:  0
Sun Sep 25 03:38:34 PDT 2022 ON: 20.01 +20.0 20.05 -21.2 19.2 22.3 28.3 15 0 Alarm State:  0
Sun Sep 25 03:37:32 PDT 2022 ON: 20.00 +20.0 20.05 -22.1 18.0 23.2 28.2 15 0 Alarm State:  0
Sun Sep 25 03:36:31 PDT 2022 ON: 20.00 +20.0 20.06 -22.9 16.9 24.1 28.2 16 0 Alarm State:  0
Sun Sep 25 03:35:29 PDT 2022 ON: 20.01 +20.0 20.09 -22.9 17.0 24.0 28.2 15 0 Alarm State:  0
Sun Sep 25 03:34:28 PDT 2022 ON: 20.00 +20.0 20.06 -22.8 17.1 23.9 28.1 14 0 Alarm State:  0
Sun Sep 25 03:33:26 PDT 2022 ON: 20.01 +20.0 20.06 -22.1 18.0 23.2 28.0 16 0 Alarm State:  0
Sun Sep 25 03:32:25 PDT 2022 ON: 20.00 +20.0 20.06 -22.6 17.4 23.7 28.2 16 0 Alarm State:  0
Sun Sep 25 03:31:23 PDT 2022 ON: 20.00 +20.0 20.06 -22.3 17.8 23.4 28.3 14 0 Alarm State:  0
Sun Sep 25 03:30:22 PDT 2022 ON: 20.00 +20.0 20.04 -21.6 18.6 22.8 28.3 14 0 Alarm State:  0
Sun Sep 25 03:29:20 PDT 2022 ON: 20.01 +20.0 20.05 -21.6 18.6 22.8 28.2 16 0 Alarm State:  0
Sun Sep 25 03:28:19 PDT 2022 ON: 20.01 +20.0 20.06 -22.9 16.9 24.1 28.2 15 0 Alarm State:  0
Sun Sep 25 03:27:17 PDT 2022 ON: 20.00 +20.0 20.05 -22.6 17.4 23.7 28.2 13 0 Alarm State:  0
Sun Sep 25 03:26:16 PDT 2022 ON: 20.00 +20.0 20.06 -22.1 18.0 23.2 28.1 15 0 Alarm State:  0
Sun Sep 25 03:25:14 PDT 2022 ON: 20.01 +20.0 20.07 -22.7 17.2 23.9 28.1 16 0 Alarm State:  0
Sun Sep 25 03:24:13 PDT 2022 ON: 20.01 +20.0 20.08 -22.9 17.0 24.0 28.1 16 0 Alarm State:  0
Sun Sep 25 03:23:11 PDT 2022 ON: 20.01 +20.0 20.07 -22.8 17.1 23.9 28.2 14 0 Alarm State:  0
Sun Sep 25 03:22:10 PDT 2022 ON: 20.01 +20.0 20.07 -22.8 17.1 23.9 28.2 14 0 Alarm State:  0
Sun Sep 25 03:21:08 PDT 2022 ON: 20.00 +20.0 20.04 -21.6 18.6 22.8 28.2 14 0 Alarm State:  0
Sun Sep 25 03:20:07 PDT 2022 ON: 20.01 +20.0 20.06 -21.8 18.4 22.9 28.2 17 0 Alarm State:  0
Sun Sep 25 03:19:05 PDT 2022 ON: 20.00 +20.0 20.06 -22.9 17.0 24.0 28.2 15 0 Alarm State:  0
Sun Sep 25 03:18:04 PDT 2022 ON: 20.00 +20.0 20.04 -21.2 19.1 22.4 28.3 15 0 Alarm State:  0
Sun Sep 25 03:17:02 PDT 2022 ON: 20.00 +20.0 20.04 -21.4 18.9 22.5 28.2 15 0 Alarm State:  0
Sun Sep 25 03:16:01 PDT 2022 ON: 20.02 +20.0 20.06 -22.0 18.1 23.2 28.1 17 0 Alarm State:  0
Sun Sep 25 03:14:59 PDT 2022 ON: 20.02 +20.0 20.09 -23.1 16.7 24.2 28.0 16 0 Alarm State:  0
Sun Sep 25 03:13:58 PDT 2022 ON: 20.01 +20.0 20.08 -23.1 16.7 24.2 28.1 15 0 Alarm State:  0
Sun Sep 25 03:12:56 PDT 2022 ON: 20.00 +20.0 20.04 -22.1 18.0 23.2 28.3 14 0 Alarm State:  0
Sun Sep 25 03:11:55 PDT 2022 ON: 20.01 +20.0 20.05 -21.2 19.1 22.4 28.2 15 0 Alarm State:  0
Sun Sep 25 03:10:53 PDT 2022 ON: 20.01 +20.0 20.05 -21.9 18.2 23.1 28.2 15 0 Alarm State:  0
Sun Sep 25 03:09:52 PDT 2022 ON: 20.00 +20.0 20.06 -21.8 18.3 23.0 28.2 15 0 Alarm State:  0
Sun Sep 25 03:08:50 PDT 2022 ON: 20.01 +20.0 20.05 -21.5 18.7 22.7 28.1 16 0 Alarm State:  0
Sun Sep 25 03:07:49 PDT 2022 ON: 20.01 +20.0 20.06 -22.7 17.2 23.9 28.2 16 0 Alarm State:  0
Sun Sep 25 03:06:47 PDT 2022 ON: 20.00 +20.0 20.06 -22.7 17.2 23.9 28.2 14 0 Alarm State:  0
Sun Sep 25 03:05:46 PDT 2022 ON: 20.01 +20.0 20.05 -21.8 18.4 22.9 28.2 14 0 Alarm State:  0
Sun Sep 25 03:04:44 PDT 2022 ON: 20.01 +20.0 20.05 -21.4 18.9 22.5 28.2 15 0 Alarm State:  0
Sun Sep 25 03:03:43 PDT 2022 ON: 20.01 +20.0 20.06 -22.0 18.1 23.2 28.1 17 0 Alarm State:  0
Sun Sep 25 03:02:41 PDT 2022 ON: 20.01 +20.0 20.07 -22.3 17.8 23.4 28.1 16 0 Alarm State:  0
Sun Sep 25 03:01:40 PDT 2022 ON: 20.00 +20.0 20.08 -22.9 17.0 24.0 28.2 16 0 Alarm State:  0
Sun Sep 25 03:00:38 PDT 2022 ON: 20.01 +20.0 20.06 -22.6 17.4 23.7 28.2 16 0 Alarm State:  0
Sun Sep 25 02:59:37 PDT 2022 ON: 20.00 +20.0 20.05 -22.3 17.8 23.4 28.2 14 0 Alarm State:  0
Sun Sep 25 02:58:35 PDT 2022 ON: 20.00 +20.0 20.05 -21.5 18.8 22.6 28.2 15 0 Alarm State:  0
Sun Sep 25 02:57:34 PDT 2022 ON: 20.02 +20.0 20.07 -21.3 19.0 22.5 28.1 16 0 Alarm State:  0
Sun Sep 25 02:56:32 PDT 2022 ON: 20.01 +20.0 20.06 -22.0 18.1 23.2 28.1 17 0 Alarm State:  0
Sun Sep 25 02:55:31 PDT 2022 ON: 20.01 +20.0 20.06 -22.3 17.7 23.5 28.2 16 0 Alarm State:  0
Sun Sep 25 02:54:29 PDT 2022 ON: 20.00 +20.0 20.06 -22.5 17.5 23.6 28.2 13 0 Alarm State:  0
Sun Sep 25 02:53:28 PDT 2022 ON: 20.01 +20.0 20.07 -22.5 17.5 23.6 28.1 16 0 Alarm State:  0
Sun Sep 25 02:52:26 PDT 2022 ON: 20.01 +20.0 20.06 -22.3 17.7 23.5 28.2 15 0 Alarm State:  0
Sun Sep 25 02:51:25 PDT 2022 ON: 20.01 +20.0 20.05 -22.2 17.9 23.3 28.1 14 0 Alarm State:  0
Sun Sep 25 02:50:23 PDT 2022 ON: 20.01 +20.0 20.06 -21.7 18.5 22.8 28.2 17 0 Alarm State:  0
Sun Sep 25 02:49:22 PDT 2022 ON: 20.01 +20.0 20.07 -22.3 17.8 23.4 28.2 15 0 Alarm State:  0
Sun Sep 25 02:48:20 PDT 2022 ON: 20.00 +20.0 20.03 -21.0 19.4 22.2 28.3 15 0 Alarm State:  0
Sun Sep 25 02:47:19 PDT 2022 ON: 20.00 +20.0 20.04 -21.6 18.6 22.8 28.2 15 0 Alarm State:  0
Sun Sep 25 02:46:17 PDT 2022 ON: 20.00 +20.0 20.06 -22.4 17.6 23.6 28.1 15 0 Alarm State:  0
Sun Sep 25 02:45:16 PDT 2022 ON: 20.01 +20.0 20.08 -22.6 17.3 23.8 28.2 16 0 Alarm State:  0
Sun Sep 25 02:44:14 PDT 2022 ON: 20.00 +20.0 20.04 -21.8 18.4 22.9 28.3 14 0 Alarm State:  0
Sun Sep 25 02:43:13 PDT 2022 ON: 20.00 +20.0 20.04 -21.4 18.9 22.5 28.3 15 0 Alarm State:  0
Sun Sep 25 02:42:11 PDT 2022 ON: 20.01 +20.0 20.06 -21.7 18.5 22.8 28.1 16 0 Alarm State:  0
Sun Sep 25 02:41:09 PDT 2022 ON: 20.02 +20.0 20.09 -23.3 16.5 24.4 28.1 15 0 Alarm State:  0
Sun Sep 25 02:40:08 PDT 2022 ON: 20.00 +20.0 20.06 -22.3 17.7 23.5 28.3 15 0 Alarm State:  0
Sun Sep 25 02:39:06 PDT 2022 ON: 20.00 +20.0 20.05 -22.5 17.5 23.6 28.3 14 0 Alarm State:  0
Sun Sep 25 02:38:05 PDT 2022 ON: 20.00 +20.0 20.06 -22.2 17.9 23.3 28.3 14 0 Alarm State:  0
Sun Sep 25 02:37:03 PDT 2022 ON: 20.00 +20.0 20.05 -21.6 18.6 22.8 28.2 16 0 Alarm State:  0
Sun Sep 25 02:36:02 PDT 2022 ON: 20.01 +20.0 20.07 -23.0 16.8 24.2 28.2 16 0 Alarm State:  0
Sun Sep 25 02:35:00 PDT 2022 ON: 20.01 +20.0 20.06 -23.2 16.6 24.3 28.1 14 0 Alarm State:  0
Sun Sep 25 02:33:59 PDT 2022 ON: 20.00 +20.0 20.05 -21.7 18.5 22.8 28.1 17 0 Alarm State:  0
Sun Sep 25 02:32:57 PDT 2022 ON: 20.01 +20.0 20.08 -22.6 17.3 23.8 28.1 16 0 Alarm State:  0
Sun Sep 25 02:31:56 PDT 2022 ON: 20.01 +20.0 20.07 -22.6 17.4 23.7 28.2 16 0 Alarm State:  0
Sun Sep 25 02:30:54 PDT 2022 ON: 20.00 +20.0 20.04 -21.8 18.3 23.0 28.3 14 0 Alarm State:  0
Sun Sep 25 02:29:53 PDT 2022 ON: 20.00 +20.0 20.04 -21.6 18.6 22.8 28.2 14 0 Alarm State:  0
Sun Sep 25 02:28:51 PDT 2022 ON: 20.01 +20.0 20.06 -21.5 18.7 22.7 28.1 17 0 Alarm State:  0
Sun Sep 25 02:27:50 PDT 2022 ON: 20.01 +20.0 20.07 -22.7 17.2 23.9 28.2 14 0 Alarm State:  0
Sun Sep 25 02:26:48 PDT 2022 ON: 20.00 +20.0 20.05 -21.8 18.4 22.9 28.2 15 0 Alarm State:  0
Sun Sep 25 02:25:47 PDT 2022 ON: 20.00 +20.0 20.05 -21.9 18.2 23.1 28.2 16 0 Alarm State:  0
Sun Sep 25 02:24:45 PDT 2022 ON: 20.01 +20.0 20.08 -23.2 16.6 24.3 28.1 16 0 Alarm State:  0
Sun Sep 25 02:23:44 PDT 2022 ON: 20.01 +20.0 20.04 -21.2 19.2 22.3 28.2 16 0 Alarm State:  0
Sun Sep 25 02:22:42 PDT 2022 ON: 20.01 +20.0 20.06 -22.1 18.0 23.2 28.1 17 0 Alarm State:  0
Sun Sep 25 02:21:41 PDT 2022 ON: 20.01 +20.0 20.08 -23.0 16.8 24.2 28.1 16 0 Alarm State:  0
Sun Sep 25 02:20:39 PDT 2022 ON: 20.00 +20.0 20.05 -22.6 17.4 23.7 28.2 14 0 Alarm State:  0
Sun Sep 25 02:19:38 PDT 2022 ON: 20.01 +20.0 20.07 -21.8 18.4 22.9 28.2 17 0 Alarm State:  0
Sun Sep 25 02:18:36 PDT 2022 ON: 20.01 +20.0 20.07 -22.9 16.9 24.1 28.1 16 0 Alarm State:  0
Sun Sep 25 02:17:35 PDT 2022 ON: 20.01 +20.0 20.08 -23.0 16.8 24.2 28.1 16 0 Alarm State:  0
Sun Sep 25 02:16:33 PDT 2022 ON: 20.01 +20.0 20.08 -23.0 16.8 24.2 28.1 16 0 Alarm State:  0
Sun Sep 25 02:15:32 PDT 2022 ON: 20.01 +20.0 20.07 -22.7 17.2 23.9 28.2 14 0 Alarm State:  0
Sun Sep 25 02:14:30 PDT 2022 ON: 20.00 +20.0 20.04 -21.5 18.8 22.6 28.2 14 0 Alarm State:  0
Sun Sep 25 02:13:29 PDT 2022 ON: 20.01 +20.0 20.06 -22.3 17.7 23.5 28.2 16 0 Alarm State:  0
Sun Sep 25 02:12:27 PDT 2022 ON: 20.01 +20.0 20.07 -22.4 17.6 23.6 28.2 15 0 Alarm State:  0
Sun Sep 25 02:11:26 PDT 2022 ON: 20.00 +20.0 20.04 -21.4 18.9 22.5 28.2 14 0 Alarm State:  0
Sun Sep 25 02:10:24 PDT 2022 ON: 20.01 +20.0 20.06 -22.5 17.5 23.6 28.1 16 0 Alarm State:  0
Sun Sep 25 02:09:23 PDT 2022 ON: 20.00 +20.0 20.07 -23.3 16.4 24.5 28.2 14 0 Alarm State:  0
Sun Sep 25 02:08:21 PDT 2022 ON: 19.99 +20.0 20.05 -22.3 17.8 23.4 28.3 14 0 Alarm State:  0
Sun Sep 25 02:07:20 PDT 2022 ON: 20.00 +20.0 20.05 -20.8 19.7 21.9 28.4 16 0 Alarm State:  0
Sun Sep 25 02:06:18 PDT 2022 ON: 20.01 +20.0 20.04 -21.4 18.9 22.5 28.2 15 0 Alarm State:  0
Sun Sep 25 02:05:17 PDT 2022 ON: 20.01 +20.0 20.07 -22.6 17.3 23.8 28.1 16 0 Alarm State:  0
Sun Sep 25 02:04:15 PDT 2022 ON: 20.00 +20.0 20.08 -23.1 16.7 24.2 28.1 16 0 Alarm State:  0
Sun Sep 25 02:03:14 PDT 2022 ON: 20.00 +20.0 20.05 -21.8 18.3 23.0 28.3 14 0 Alarm State:  0
Sun Sep 25 02:02:12 PDT 2022 ON: 20.01 +20.0 20.05 -21.9 18.2 23.1 28.1 14 0 Alarm State:  0
Sun Sep 25 02:01:11 PDT 2022 ON: 20.00 +20.0 20.06 -22.3 17.8 23.4 28.2 17 0 Alarm State:  0
Sun Sep 25 02:00:09 PDT 2022 ON: 20.01 +20.0 20.07 -23.3 16.5 24.4 28.1 15 0 Alarm State:  0
Sun Sep 25 01:59:08 PDT 2022 ON: 20.00 +20.0 20.06 -22.6 17.4 23.7 28.3 15 0 Alarm State:  0
Sun Sep 25 01:58:06 PDT 2022 ON: 20.00 +20.0 20.05 -22.0 18.1 23.2 28.3 14 0 Alarm State:  0
Sun Sep 25 01:57:05 PDT 2022 ON: 20.01 +20.0 20.05 -21.4 18.9 22.5 28.1 15 0 Alarm State:  0
Sun Sep 25 01:56:03 PDT 2022 ON: 20.00 +20.0 20.06 -21.9 18.2 23.1 28.2 16 0 Alarm State:  0
Sun Sep 25 01:55:02 PDT 2022 ON: 19.99 +20.0 20.04 -22.1 18.0 23.2 28.2 14 0 Alarm State:  0
Sun Sep 25 01:54:00 PDT 2022 ON: 20.00 +20.0 20.04 -21.1 19.3 22.2 28.3 16 0 Alarm State:  0
Sun Sep 25 01:52:59 PDT 2022 ON: 20.02 +20.0 20.07 -22.4 17.6 23.6 28.0 16 0 Alarm State:  0
Sun Sep 25 01:51:57 PDT 2022 ON: 20.00 +20.0 20.07 -22.3 17.7 23.5 28.2 15 0 Alarm State:  0
Sun Sep 25 01:50:56 PDT 2022 ON: 20.01 +20.0 20.05 -21.4 18.9 22.5 28.2 15 0 Alarm State:  0
Sun Sep 25 01:49:54 PDT 2022 ON: 20.01 +20.0 20.06 -22.6 17.3 23.8 28.0 15 0 Alarm State:  0
Sun Sep 25 01:48:53 PDT 2022 ON: 20.00 +20.0 20.06 -22.5 17.5 23.6 28.2 15 0 Alarm State:  0
Sun Sep 25 01:47:51 PDT 2022 ON: 20.01 +20.0 20.08 -22.6 17.3 23.8 28.2 16 0 Alarm State:  0
Sun Sep 25 01:46:50 PDT 2022 ON: 20.01 +20.0 20.08 -22.9 16.9 24.1 28.1 14 0 Alarm State:  0
Sun Sep 25 01:45:48 PDT 2022 ON: 20.00 +20.0 20.04 -21.8 18.3 23.0 28.2 15 0 Alarm State:  0
Sun Sep 25 01:44:47 PDT 2022 ON: 20.01 +20.0 20.06 -22.3 17.7 23.5 28.1 17 0 Alarm State:  0
Sun Sep 25 01:43:45 PDT 2022 ON: 20.01 +20.0 20.08 -22.8 17.1 23.9 28.2 16 0 Alarm State:  0
Sun Sep 25 01:42:44 PDT 2022 ON: 20.01 +20.0 20.07 -22.6 17.3 23.8 28.2 14 0 Alarm State:  0
Sun Sep 25 01:41:42 PDT 2022 ON: 20.00 +20.0 20.05 -22.6 17.3 23.8 28.2 14 0 Alarm State:  0
Sun Sep 25 01:40:41 PDT 2022 ON: 20.00 +20.0 20.04 -21.5 18.8 22.6 28.2 15 0 Alarm State:  0
Sun Sep 25 01:39:39 PDT 2022 ON: 20.01 +20.0 20.06 -21.5 18.8 22.6 28.2 17 0 Alarm State:  0
Sun Sep 25 01:38:38 PDT 2022 ON: 20.01 +20.0 20.06 -21.6 18.6 22.8 28.2 17 0 Alarm State:  0
Sun Sep 25 01:37:36 PDT 2022 ON: 20.01 +20.0 20.08 -23.1 16.7 24.2 28.1 16 0 Alarm State:  0
Sun Sep 25 01:36:34 PDT 2022 ON: 20.01 +20.0 20.08 -23.2 16.6 24.3 28.1 14 0 Alarm State:  0
Sun Sep 25 01:35:33 PDT 2022 ON: 20.00 +20.0 20.06 -22.0 18.1 23.2 28.3 15 0 Alarm State:  0
Sun Sep 25 01:34:31 PDT 2022 ON: 20.00 +20.0 20.05 -22.1 18.0 23.2 28.3 14 0 Alarm State:  0
Sun Sep 25 01:33:30 PDT 2022 ON: 20.00 +20.0 20.04 -21.6 18.6 22.8 28.3 14 0 Alarm State:  0
Sun Sep 25 01:32:28 PDT 2022 ON: 20.00 +20.0 20.03 -21.5 18.7 22.7 28.2 14 0 Alarm State:  0
Sun Sep 25 01:31:27 PDT 2022 ON: 20.01 +20.0 20.06 -21.8 18.3 23.0 28.1 16 0 Alarm State:  0
Sun Sep 25 01:30:25 PDT 2022 ON: 20.01 +20.0 20.07 -22.5 17.5 23.6 28.2 15 0 Alarm State:  0
Sun Sep 25 01:29:24 PDT 2022 ON: 20.00 +20.0 20.04 -21.5 18.7 22.7 28.2 14 0 Alarm State:  0
Sun Sep 25 01:28:22 PDT 2022 ON: 20.01 +20.0 20.06 -22.4 17.6 23.6 28.1 16 0 Alarm State:  0
Sun Sep 25 01:27:21 PDT 2022 ON: 20.01 +20.0 20.06 -21.7 18.5 22.8 28.2 15 0 Alarm State:  0
Sun Sep 25 01:26:19 PDT 2022 ON: 20.01 +20.0 20.06 -21.8 18.3 23.0 28.1 17 0 Alarm State:  0
Sun Sep 25 01:25:18 PDT 2022 ON: 20.00 +20.0 20.04 -21.7 18.5 22.8 28.3 14 0 Alarm State:  0
Sun Sep 25 01:24:16 PDT 2022 ON: 20.00 +20.0 20.04 -21.3 19.0 22.5 28.3 15 0 Alarm State:  0
Sun Sep 25 01:23:15 PDT 2022 ON: 20.01 +20.0 20.04 -21.5 18.8 22.6 28.1 16 0 Alarm State:  0
Sun Sep 25 01:22:13 PDT 2022 ON: 20.01 +20.0 20.06 -21.8 18.4 22.9 28.1 16 0 Alarm State:  0
Sun Sep 25 01:21:12 PDT 2022 ON: 20.01 +20.0 20.06 -22.0 18.1 23.2 28.1 17 0 Alarm State:  0
Sun Sep 25 01:20:10 PDT 2022 ON: 20.02 +20.0 20.06 -22.0 18.1 23.2 28.1 17 0 Alarm State:  0
Sun Sep 25 01:19:09 PDT 2022 ON: 20.02 +20.0 20.08 -23.0 16.8 24.2 28.1 15 0 Alarm State:  0
Sun Sep 25 01:18:07 PDT 2022 ON: 19.99 +20.0 20.06 -22.2 17.9 23.3 28.2 14 0 Alarm State:  0
Sun Sep 25 01:17:06 PDT 2022 ON: 20.00 +20.0 20.06 -22.4 17.6 23.6 28.2 16 0 Alarm State:  0
Sun Sep 25 01:16:04 PDT 2022 ON: 20.00 +20.0 20.06 -23.0 16.8 24.2 28.2 13 0 Alarm State:  0
Sun Sep 25 01:15:03 PDT 2022 ON: 20.00 +20.0 20.06 -22.7 17.2 23.9 28.2 15 0 Alarm State:  0
Sun Sep 25 01:14:01 PDT 2022 ON: 20.01 +20.0 20.06 -21.9 18.2 23.1 28.2 14 0 Alarm State:  0
Sun Sep 25 01:13:00 PDT 2022 ON: 20.00 +20.0 20.04 -21.7 18.5 22.8 28.2 15 0 Alarm State:  0
Sun Sep 25 01:11:58 PDT 2022 ON: 20.00 +20.0 20.03 -21.2 19.2 22.3 28.3 15 0 Alarm State:  0
Sun Sep 25 01:10:57 PDT 2022 ON: 20.00 +20.0 20.04 -21.8 18.4 22.9 28.2 14 0 Alarm State:  0
Sun Sep 25 01:09:55 PDT 2022 ON: 20.01 +20.0 20.06 -21.8 18.4 22.9 28.1 16 0 Alarm State:  0
Sun Sep 25 01:08:54 PDT 2022 ON: 20.00 +20.0 20.06 -22.3 17.7 23.5 28.3 15 0 Alarm State:  0
Sun Sep 25 01:07:52 PDT 2022 ON: 20.00 +20.0 20.04 -21.4 18.9 22.5 28.3 14 0 Alarm State:  0
Sun Sep 25 01:06:51 PDT 2022 ON: 20.00 +20.0 20.05 -21.7 18.5 22.8 28.2 16 0 Alarm State:  0
Sun Sep 25 01:05:49 PDT 2022 ON: 20.01 +20.0 20.06 -21.4 18.9 22.5 28.2 17 0 Alarm State:  0
Sun Sep 25 01:04:48 PDT 2022 ON: 20.01 +20.0 20.08 -23.3 16.5 24.4 28.1 15 0 Alarm State:  0
Sun Sep 25 01:03:46 PDT 2022 ON: 20.00 +20.0 20.05 -22.0 18.1 23.2 28.3 14 0 Alarm State:  0
Sun Sep 25 01:02:45 PDT 2022 ON: 20.00 +20.0 20.04 -21.3 19.0 22.5 28.3 15 0 Alarm State:  0
Sun Sep 25 01:01:43 PDT 2022 ON: 20.01 +20.0 20.06 -21.5 18.7 22.7 28.1 16 0 Alarm State:  0
Sun Sep 25 01:00:42 PDT 2022 ON: 20.00 +20.0 20.04 -21.3 19.0 22.5 28.3 15 0 Alarm State:  0
Sun Sep 25 00:59:40 PDT 2022 ON: 20.01 +20.0 20.06 -22.2 17.9 23.3 28.1 16 0 Alarm State:  0
Sun Sep 25 00:58:39 PDT 2022 ON: 20.00 +20.0 20.06 -22.9 16.9 24.1 28.2 15 0 Alarm State:  0
Sun Sep 25 00:57:37 PDT 2022 ON: 20.00 +20.0 20.06 -22.1 18.0 23.2 28.3 14 0 Alarm State:  0
Sun Sep 25 00:56:36 PDT 2022 ON: 20.01 +20.0 20.07 -22.9 17.0 24.0 28.2 15 0 Alarm State:  0
Sun Sep 25 00:55:34 PDT 2022 ON: 20.01 +20.0 20.06 -22.6 17.4 23.7 28.1 14 0 Alarm State:  0
Sun Sep 25 00:54:33 PDT 2022 ON: 20.00 +20.0 20.04 -21.5 18.7 22.7 28.2 16 0 Alarm State:  0
Sun Sep 25 00:53:31 PDT 2022 ON: 20.01 +20.0 20.08 -22.5 17.5 23.6 28.1 16 0 Alarm State:  0
Sun Sep 25 00:52:30 PDT 2022 ON: 20.00 +20.0 20.05 -21.5 18.7 22.7 28.3 15 0 Alarm State:  0
Sun Sep 25 00:51:28 PDT 2022 ON: 20.00 +20.0 20.04 -21.2 19.1 22.4 28.2 16 0 Alarm State:  0
Sun Sep 25 00:50:27 PDT 2022 ON: 20.00 +20.0 20.04 -21.3 19.0 22.5 28.2 16 0 Alarm State:  0
Sun Sep 25 00:49:25 PDT 2022 ON: 20.01 +20.0 20.07 -22.8 17.1 23.9 28.1 16 0 Alarm State:  0
Sun Sep 25 00:48:24 PDT 2022 ON: 20.01 +20.0 20.07 -22.0 18.1 23.2 28.3 14 0 Alarm State:  0
Sun Sep 25 00:47:22 PDT 2022 ON: 20.01 +20.0 20.06 -22.5 17.5 23.6 28.2 13 0 Alarm State:  0
Sun Sep 25 00:46:21 PDT 2022 ON: 20.00 +20.0 20.04 -21.8 18.3 23.0 28.2 15 0 Alarm State:  0
Sun Sep 25 00:45:19 PDT 2022 ON: 20.01 +20.0 20.06 -21.5 18.8 22.6 28.1 17 0 Alarm State:  0
Sun Sep 25 00:44:18 PDT 2022 ON: 20.01 +20.0 20.07 -21.7 18.5 22.8 28.1 17 0 Alarm State:  0
Sun Sep 25 00:43:16 PDT 2022 ON: 20.01 +20.0 20.06 -22.8 17.1 23.9 28.0 16 0 Alarm State:  0
Sun Sep 25 00:42:14 PDT 2022 ON: 20.00 +20.0 20.04 -22.6 17.3 23.8 28.2 14 0 Alarm State:  0
Sun Sep 25 00:41:13 PDT 2022 ON: 20.00 +20.0 20.04 -21.2 19.2 22.3 28.3 15 0 Alarm State:  0
Sun Sep 25 00:40:11 PDT 2022 ON: 20.01 +20.0 20.05 -21.0 19.4 22.2 28.2 16 0 Alarm State:  0
Sun Sep 25 00:39:10 PDT 2022 ON: 20.02 +20.0 20.05 -21.4 18.9 22.5 28.1 15 0 Alarm State:  0
Sun Sep 25 00:38:08 PDT 2022 ON: 20.00 +20.0 20.05 -21.6 18.6 22.8 28.3 15 0 Alarm State:  0
Sun Sep 25 00:37:07 PDT 2022 ON: 20.01 +20.0 20.06 -22.0 18.1 23.2 28.2 16 0 Alarm State:  0
Sun Sep 25 00:36:05 PDT 2022 ON: 20.00 +20.0 20.07 -22.7 17.2 23.9 28.2 14 0 Alarm State:  0
Sun Sep 25 00:35:04 PDT 2022 ON: 19.99 +20.0 20.04 -21.8 18.3 23.0 28.3 14 0 Alarm State:  0
Sun Sep 25 00:34:02 PDT 2022 ON: 19.99 +20.0 20.04 -22.2 17.9 23.3 28.3 14 0 Alarm State:  0
Sun Sep 25 00:33:01 PDT 2022 ON: 20.00 +20.0 20.04 -21.2 19.2 22.3 28.3 15 0 Alarm State:  0
Sun Sep 25 00:31:59 PDT 2022 ON: 20.01 +20.0 20.09 -23.0 16.8 24.2 28.0 16 0 Alarm State:  0
Sun Sep 25 00:30:58 PDT 2022 ON: 20.00 +20.0 20.06 -22.5 17.5 23.6 28.1 15 0 Alarm State:  0
Sun Sep 25 00:29:56 PDT 2022 ON: 20.01 +20.0 20.07 -22.7 17.2 23.9 28.1 16 0 Alarm State:  0
Sun Sep 25 00:28:55 PDT 2022 ON: 20.01 +20.0 20.08 -22.6 17.3 23.8 28.2 16 0 Alarm State:  0
Sun Sep 25 00:27:53 PDT 2022 ON: 20.01 +20.0 20.08 -23.3 16.5 24.4 28.1 15 0 Alarm State:  0
Sun Sep 25 00:26:52 PDT 2022 ON: 20.00 +20.0 20.06 -22.5 17.5 23.6 28.3 15 0 Alarm State:  0
Sun Sep 25 00:25:50 PDT 2022 ON: 20.00 +20.0 20.03 -21.3 19.0 22.5 28.2 15 0 Alarm State:  0
Sun Sep 25 00:24:49 PDT 2022 ON: 20.00 +20.0 20.03 -20.9 19.5 22.1 28.3 15 0 Alarm State:  0
Sun Sep 25 00:23:47 PDT 2022 ON: 20.00 +20.0 20.04 -21.2 19.2 22.3 28.2 15 0 Alarm State:  0
Sun Sep 25 00:22:46 PDT 2022 ON: 20.00 +20.0 20.07 -23.1 16.7 24.2 28.1 16 0 Alarm State:  0
Sun Sep 25 00:21:44 PDT 2022 ON: 20.00 +20.0 20.05 -22.0 18.1 23.2 28.2 15 0 Alarm State:  0
Sun Sep 25 00:20:43 PDT 2022 ON: 20.01 +20.0 20.07 -22.2 17.9 23.3 28.3 15 0 Alarm State:  0
Sun Sep 25 00:19:41 PDT 2022 ON: 20.00 +20.0 20.05 -21.5 18.8 22.6 28.2 14 0 Alarm State:  0
Sun Sep 25 00:18:40 PDT 2022 ON: 19.99 +20.0 20.02 -21.0 19.4 22.2 28.3 15 0 Alarm State:  0
Sun Sep 25 00:17:38 PDT 2022 ON: 20.00 +20.0 20.03 -21.5 18.8 22.6 28.2 15 0 Alarm State:  0
Sun Sep 25 00:16:37 PDT 2022 ON: 20.00 +20.0 20.05 -21.2 19.1 22.4 28.3 15 0 Alarm State:  0
Sun Sep 25 00:15:35 PDT 2022 ON: 20.01 +20.0 20.06 -22.2 17.9 23.3 28.1 16 0 Alarm State:  0
Sun Sep 25 00:14:34 PDT 2022 ON: 20.02 +20.0 20.06 -22.3 17.8 23.4 28.0 16 0 Alarm State:  0
Sun Sep 25 00:13:32 PDT 2022 ON: 20.01 +20.0 20.07 -22.6 17.4 23.7 28.1 16 0 Alarm State:  0
Sun Sep 25 00:12:31 PDT 2022 ON: 20.01 +20.0 20.07 -22.8 17.1 23.9 28.2 16 0 Alarm State:  0
Sun Sep 25 00:11:29 PDT 2022 ON: 20.01 +20.0 20.05 -21.8 18.4 22.9 28.2 14 0 Alarm State:  0
Sun Sep 25 00:10:28 PDT 2022 ON: 20.01 +20.0 20.06 -22.5 17.5 23.6 28.2 15 0 Alarm State:  0
Sun Sep 25 00:09:26 PDT 2022 ON: 19.99 +20.0 20.03 -21.6 18.6 22.8 28.3 14 0 Alarm State:  0
Sun Sep 25 00:08:25 PDT 2022 ON: 20.00 +20.0 20.04 -21.0 19.4 22.2 28.2 15 0 Alarm State:  0
Sun Sep 25 00:07:23 PDT 2022 ON: 20.00 +20.0 20.05 -21.5 18.8 22.6 28.2 15 0 Alarm State:  0
Sun Sep 25 00:06:22 PDT 2022 ON: 20.00 +20.0 20.06 -22.6 17.3 23.8 28.2 16 0 Alarm State:  0
Sun Sep 25 00:05:20 PDT 2022 ON: 20.01 +20.0 20.05 -21.5 18.7 22.7 28.3 14 0 Alarm State:  0
Sun Sep 25 00:04:19 PDT 2022 ON: 20.01 +20.0 20.07 -23.0 16.8 24.2 28.1 16 0 Alarm State:  0
Sun Sep 25 00:03:17 PDT 2022 ON: 20.00 +20.0 20.07 -23.0 16.8 24.2 28.2 14 0 Alarm State:  0
Sun Sep 25 00:02:16 PDT 2022 ON: 20.00 +20.0 20.05 -21.8 18.4 22.9 28.2 15 0 Alarm State:  0
Sun Sep 25 00:01:14 PDT 2022 ON: 20.01 +20.0 20.08 -23.0 16.8 24.2 28.2 15 0 Alarm State:  0
Sun Sep 25 00:00:13 PDT 2022 ON: 20.00 +20.0 20.05 -22.0 18.1 23.2 28.3 14 0 Alarm State:  0
Sat Sep 24 23:59:11 PDT 2022 ON: 20.00 +20.0 20.06 -22.5 17.5 23.6 28.2 14 0 Alarm State:  0
Sat Sep 24 23:58:10 PDT 2022 ON: 20.00 +20.0 20.04 -20.7 19.8 21.8 28.3 16 0 Alarm State:  0
Sat Sep 24 23:57:08 PDT 2022 ON: 20.01 +20.0 20.06 -21.6 18.6 22.8 28.2 17 0 Alarm State:  0
Sat Sep 24 23:56:07 PDT 2022 ON: 20.02 +20.0 20.08 -23.0 16.8 24.2 28.0 16 0 Alarm State:  0
Sat Sep 24 23:55:05 PDT 2022 ON: 20.01 +20.0 20.08 -22.5 17.5 23.6 28.2 16 0 Alarm State:  0
Sat Sep 24 23:54:04 PDT 2022 ON: 20.00 +20.0 20.04 -21.2 19.1 22.4 28.3 15 0 Alarm State:  0
Sat Sep 24 23:53:02 PDT 2022 ON: 20.01 +20.0 20.05 -21.1 19.3 22.2 28.3 15 0 Alarm State:  0
Sat Sep 24 23:52:01 PDT 2022 ON: 20.00 +20.0 20.05 -21.8 18.4 22.9 28.2 16 0 Alarm State:  0
Sat Sep 24 23:50:59 PDT 2022 ON: 20.01 +20.0 20.08 -23.3 16.4 24.5 28.0 16 0 Alarm State:  0
Sat Sep 24 23:49:58 PDT 2022 ON: 20.00 +20.0 20.07 -22.9 16.9 24.1 28.2 15 0 Alarm State:  0
Sat Sep 24 23:48:56 PDT 2022 ON: 20.01 +20.0 20.05 -21.6 18.6 22.8 28.2 14 0 Alarm State:  0
Sat Sep 24 23:47:55 PDT 2022 ON: 20.00 +20.0 20.05 -21.5 18.7 22.7 28.2 16 0 Alarm State:  0
Sat Sep 24 23:46:53 PDT 2022 ON: 20.01 +20.0 20.07 -22.2 17.9 23.3 28.2 16 0 Alarm State:  0
Sat Sep 24 23:45:51 PDT 2022 ON: 20.00 +20.0 20.05 -21.5 18.8 22.6 28.3 15 0 Alarm State:  0
Sat Sep 24 23:44:50 PDT 2022 ON: 20.01 +20.0 20.05 -21.4 18.9 22.5 28.2 16 0 Alarm State:  0
Sat Sep 24 23:43:48 PDT 2022 ON: 20.01 +20.0 20.08 -22.8 17.1 23.9 28.1 16 0 Alarm State:  0
Sat Sep 24 23:42:47 PDT 2022 ON: 20.00 +20.0 20.07 -22.6 17.3 23.8 28.2 15 0 Alarm State:  0
Sat Sep 24 23:41:45 PDT 2022 ON: 19.99 +20.0 20.05 -22.0 18.1 23.2 28.3 14 0 Alarm State:  0
Sat Sep 24 23:40:44 PDT 2022 ON: 20.01 +20.0 20.05 -21.5 18.8 22.6 28.2 16 0 Alarm State:  0
Sat Sep 24 23:39:42 PDT 2022 ON: 20.01 +20.0 20.07 -21.9 18.2 23.1 28.2 17 0 Alarm State:  0
Sat Sep 24 23:38:41 PDT 2022 ON: 20.01 +20.0 20.05 -21.7 18.5 22.8 28.1 15 0 Alarm State:  0
Sat Sep 24 23:37:39 PDT 2022 ON: 19.99 +20.0 20.06 -22.4 17.6 23.6 28.3 15 0 Alarm State:  0
Sat Sep 24 23:36:38 PDT 2022 ON: 20.00 +20.0 20.06 -23.0 16.8 24.2 28.2 14 0 Alarm State:  0
Sat Sep 24 23:35:36 PDT 2022 ON: 20.01 +20.0 20.04 -21.2 19.2 22.3 28.3 15 0 Alarm State:  0
Sat Sep 24 23:34:35 PDT 2022 ON: 20.00 +20.0 20.05 -21.2 19.1 22.4 28.2 16 0 Alarm State:  0
Sat Sep 24 23:33:33 PDT 2022 ON: 20.01 +20.0 20.06 -21.8 18.3 23.0 28.1 17 0 Alarm State:  0
Sat Sep 24 23:32:32 PDT 2022 ON: 20.01 +20.0 20.06 -22.2 17.9 23.3 28.1 17 0 Alarm State:  0
Sat Sep 24 23:31:30 PDT 2022 ON: 20.01 +20.0 20.08 -23.6 16.1 24.7 28.0 15 0 Alarm State:  0
Sat Sep 24 23:30:29 PDT 2022 ON: 20.00 +20.0 20.08 -23.2 16.6 24.3 28.1 16 0 Alarm State:  0
Sat Sep 24 23:29:27 PDT 2022 ON: 20.01 +20.0 20.06 -22.1 18.0 23.2 28.2 16 0 Alarm State:  0
Sat Sep 24 23:28:26 PDT 2022 ON: 20.00 +20.0 20.08 -23.7 16.0 24.8 28.1 14 0 Alarm State:  0
Sat Sep 24 23:27:24 PDT 2022 ON: 20.00 +20.0 20.05 -21.6 18.6 22.8 28.4 14 0 Alarm State:  0
Sat Sep 24 23:26:23 PDT 2022 ON: 20.00 +20.0 20.04 -21.2 19.1 22.4 28.3 15 0 Alarm State:  0
Sat Sep 24 23:25:21 PDT 2022 ON: 20.00 +20.0 20.05 -21.5 18.8 22.6 28.3 14 0 Alarm State:  0
Sat Sep 24 23:24:20 PDT 2022 ON: 19.99 +20.0 20.04 -22.3 17.8 23.4 28.2 14 0 Alarm State:  0
Sat Sep 24 23:23:18 PDT 2022 ON: 20.01 +20.0 20.05 -21.2 19.2 22.3 28.2 17 0 Alarm State:  0
Sat Sep 24 23:22:17 PDT 2022 ON: 20.01 +20.0 20.06 -21.7 18.5 22.8 28.1 16 0 Alarm State:  0
Sat Sep 24 23:21:15 PDT 2022 ON: 20.00 +20.0 20.06 -22.6 17.4 23.7 28.2 15 0 Alarm State:  0
Sat Sep 24 23:20:14 PDT 2022 ON: 20.01 +20.0 20.04 -20.9 19.5 22.1 28.3 15 0 Alarm State:  0
Sat Sep 24 23:19:12 PDT 2022 ON: 20.01 +20.0 20.05 -21.6 18.6 22.8 28.1 16 0 Alarm State:  0
Sat Sep 24 23:18:11 PDT 2022 ON: 20.01 +20.0 20.08 -23.3 16.4 24.5 28.0 15 0 Alarm State:  0
Sat Sep 24 23:17:09 PDT 2022 ON: 20.00 +20.0 20.07 -22.6 17.4 23.7 28.2 15 0 Alarm State:  0
Sat Sep 24 23:16:08 PDT 2022 ON: 20.00 +20.0 20.04 -21.6 18.6 22.8 28.3 14 0 Alarm State:  0
Sat Sep 24 23:15:06 PDT 2022 ON: 20.00 +20.0 20.05 -21.6 18.6 22.8 28.2 14 0 Alarm State:  0
Sat Sep 24 23:14:05 PDT 2022 ON: 20.01 +20.0 20.08 -22.5 17.5 23.6 28.2 16 0 Alarm State:  0
Sat Sep 24 23:13:03 PDT 2022 ON: 20.00 +20.0 20.06 -22.4 17.6 23.6 28.3 14 0 Alarm State:  0
Sat Sep 24 23:12:02 PDT 2022 ON: 20.01 +20.0 20.05 -21.6 18.6 22.8 28.3 14 0 Alarm State:  0
Sat Sep 24 23:11:00 PDT 2022 ON: 20.01 +20.0 20.06 -22.4 17.6 23.6 28.1 15 0 Alarm State:  0
Sat Sep 24 23:09:59 PDT 2022 ON: 20.01 +20.0 20.08 -22.8 17.1 23.9 28.2 16 0 Alarm State:  0
Sat Sep 24 23:08:57 PDT 2022 ON: 20.00 +20.0 20.05 -22.0 18.1 23.2 28.2 14 0 Alarm State:  0
Sat Sep 24 23:07:56 PDT 2022 ON: 20.01 +20.0 20.05 -21.2 19.2 22.3 28.2 16 0 Alarm State:  0
Sat Sep 24 23:06:54 PDT 2022 ON: 20.00 +20.0 20.06 -23.1 16.7 24.2 28.2 13 0 Alarm State:  0
Sat Sep 24 23:05:53 PDT 2022 ON: 20.01 +20.0 20.08 -22.9 17.0 24.0 28.1 15 0 Alarm State:  0
Sat Sep 24 23:04:51 PDT 2022 ON: 20.01 +20.0 20.09 -23.4 16.3 24.6 28.0 15 0 Alarm State:  0
Sat Sep 24 23:03:50 PDT 2022 ON: 19.99 +20.0 20.02 -21.2 19.1 22.4 28.3 15 0 Alarm State:  0
Sat Sep 24 23:02:48 PDT 2022 ON: 20.01 +20.0 20.06 -22.1 18.0 23.2 28.2 17 0 Alarm State:  0
Sat Sep 24 23:01:47 PDT 2022 ON: 20.01 +20.0 20.06 -22.3 17.7 23.5 28.2 14 0 Alarm State:  0
Sat Sep 24 23:00:45 PDT 2022 ON: 20.00 +20.0 20.05 -21.6 18.6 22.8 28.2 15 0 Alarm State:  0
Sat Sep 24 22:59:44 PDT 2022 ON: 20.01 +20.0 20.08 -22.8 17.1 23.9 28.2 16 0 Alarm State:  0
Sat Sep 24 22:58:42 PDT 2022 ON: 20.01 +20.0 20.05 -21.4 18.9 22.5 28.2 15 0 Alarm State:  0
Sat Sep 24 22:57:41 PDT 2022 ON: 20.00 +20.0 20.06 -21.8 18.3 23.0 28.1 17 0 Alarm State:  0
Sat Sep 24 22:56:39 PDT 2022 ON: 20.01 +20.0 20.09 -23.3 16.4 24.5 28.0 16 0 Alarm State:  0
Sat Sep 24 22:55:38 PDT 2022 ON: 20.01 +20.0 20.07 -22.9 17.0 24.0 28.1 15 0 Alarm State:  0
Sat Sep 24 22:54:36 PDT 2022 ON: 20.00 +20.0 20.06 -22.9 17.0 24.0 28.2 15 0 Alarm State:  0
Sat Sep 24 22:53:35 PDT 2022 ON: 20.00 +20.0 20.03 -21.4 18.9 22.5 28.2 14 0 Alarm State:  0
Sat Sep 24 22:52:33 PDT 2022 ON: 20.01 +20.0 20.05 -21.4 18.9 22.5 28.2 16 0 Alarm State:  0
Sat Sep 24 22:51:32 PDT 2022 ON: 20.01 +20.0 20.05 -21.9 18.2 23.1 28.1 17 0 Alarm State:  0
Sat Sep 24 22:50:30 PDT 2022 ON: 20.01 +20.0 20.07 -22.9 16.9 24.1 28.1 16 0 Alarm State:  0
Sat Sep 24 22:49:29 PDT 2022 ON: 20.01 +20.0 20.04 -21.5 18.8 22.6 28.3 14 0 Alarm State:  0
Sat Sep 24 22:48:27 PDT 2022 ON: 20.01 +20.0 20.05 -21.2 19.1 22.4 28.2 16 0 Alarm State:  0
Sat Sep 24 22:47:26 PDT 2022 ON: 20.01 +20.0 20.06 -21.6 18.6 22.8 28.1 17 0 Alarm State:  0
Sat Sep 24 22:46:24 PDT 2022 ON: 20.01 +20.0 20.05 -22.3 17.7 23.5 28.1 16 0 Alarm State:  0
Sat Sep 24 22:45:23 PDT 2022 ON: 20.01 +20.0 20.05 -21.6 18.6 22.8 28.1 16 0 Alarm State:  0
Sat Sep 24 22:44:21 PDT 2022 ON: 20.01 +20.0 20.06 -22.1 18.0 23.2 28.2 16 0 Alarm State:  0
Sat Sep 24 22:43:19 PDT 2022 ON: 20.01 +20.0 20.06 -21.4 18.9 22.5 28.2 16 0 Alarm State:  0
Sat Sep 24 22:42:18 PDT 2022 ON: 20.01 +20.0 20.07 -22.3 17.7 23.5 28.1 16 0 Alarm State:  0
Sat Sep 24 22:41:16 PDT 2022 ON: 20.00 +20.0 20.04 -21.4 18.9 22.5 28.3 14 0 Alarm State:  0
Sat Sep 24 22:40:15 PDT 2022 ON: 20.01 +20.0 20.07 -22.7 17.2 23.9 28.1 16 0 Alarm State:  0
Sat Sep 24 22:39:13 PDT 2022 ON: 20.00 +20.0 20.05 -21.8 18.4 22.9 28.2 14 0 Alarm State:  0
Sat Sep 24 22:38:12 PDT 2022 ON: 20.00 +20.0 20.05 -22.1 18.0 23.2 28.1 16 0 Alarm State:  0
Sat Sep 24 22:37:10 PDT 2022 ON: 20.01 +20.0 20.08 -22.8 17.1 23.9 28.2 15 0 Alarm State:  0
Sat Sep 24 22:36:09 PDT 2022 ON: 20.01 +20.0 20.04 -21.3 19.0 22.5 28.2 15 0 Alarm State:  0
Sat Sep 24 22:35:07 PDT 2022 ON: 20.01 +20.0 20.06 -22.0 18.1 23.2 28.1 17 0 Alarm State:  0
Sat Sep 24 22:34:06 PDT 2022 ON: 20.00 +20.0 20.06 -23.1 16.7 24.2 28.1 15 0 Alarm State:  0
Sat Sep 24 22:33:04 PDT 2022 ON: 20.00 +20.0 20.04 -21.6 18.6 22.8 28.3 14 0 Alarm State:  0
Sat Sep 24 22:32:03 PDT 2022 ON: 20.00 +20.0 20.06 -21.2 19.2 22.3 28.3 16 0 Alarm State:  0
Sat Sep 24 22:31:01 PDT 2022 ON: 20.01 +20.0 20.08 -23.1 16.7 24.2 28.1 14 0 Alarm State:  0
Sat Sep 24 22:30:00 PDT 2022 ON: 20.01 +20.0 20.05 -21.8 18.4 22.9 28.1 15 0 Alarm State:  0
Sat Sep 24 22:28:58 PDT 2022 ON: 20.01 +20.0 20.06 -22.3 17.7 23.5 28.2 16 0 Alarm State:  0
Sat Sep 24 22:27:57 PDT 2022 ON: 20.00 +20.0 20.05 -21.4 18.9 22.5 28.3 14 0 Alarm State:  0
Sat Sep 24 22:26:55 PDT 2022 ON: 20.01 +20.0 20.04 -21.2 19.2 22.3 28.2 16 0 Alarm State:  0
Sat Sep 24 22:25:54 PDT 2022 ON: 20.01 +20.0 20.05 -21.4 18.9 22.5 28.2 16 0 Alarm State:  0
Sat Sep 24 22:24:52 PDT 2022 ON: 20.01 +20.0 20.07 -22.6 17.3 23.8 28.2 16 0 Alarm State:  0
Sat Sep 24 22:23:51 PDT 2022 ON: 19.99 +20.0 20.04 -21.7 18.5 22.8 28.3 14 0 Alarm State:  0
Sat Sep 24 22:22:49 PDT 2022 ON: 20.00 +20.0 20.03 -21.3 19.0 22.5 28.2 14 0 Alarm State:  0
Sat Sep 24 22:21:48 PDT 2022 ON: 20.00 +20.0 20.03 -20.5 20.0 21.7 28.4 16 0 Alarm State:  0
Sat Sep 24 22:20:46 PDT 2022 ON: 20.02 +20.0 20.05 -21.3 19.0 22.5 28.1 16 0 Alarm State:  0
Sat Sep 24 22:19:45 PDT 2022 ON: 20.01 +20.0 20.07 -22.5 17.5 23.6 28.0 16 0 Alarm State:  0
Sat Sep 24 22:18:43 PDT 2022 ON: 20.00 +20.0 20.07 -22.6 17.4 23.7 28.2 16 0 Alarm State:  0
Sat Sep 24 22:17:42 PDT 2022 ON: 20.02 +20.0 20.08 -22.8 17.1 23.9 28.1 16 0 Alarm State:  0
Sat Sep 24 22:16:40 PDT 2022 ON: 20.00 +20.0 20.05 -22.3 17.8 23.4 28.1 14 0 Alarm State:  0
Sat Sep 24 22:15:39 PDT 2022 ON: 20.01 +20.0 20.07 -21.9 18.2 23.1 28.0 17 0 Alarm State:  0
Sat Sep 24 22:14:37 PDT 2022 ON: 20.00 +20.0 20.06 -22.7 17.2 23.9 28.1 16 0 Alarm State:  0
Sat Sep 24 22:13:36 PDT 2022 ON: 20.01 +20.0 20.08 -23.2 16.6 24.3 28.1 15 0 Alarm State:  0
Sat Sep 24 22:12:34 PDT 2022 ON: 20.00 +20.0 20.06 -22.6 17.3 23.8 28.2 14 0 Alarm State:  0
Sat Sep 24 22:11:33 PDT 2022 ON: 19.99 +20.0 20.04 -21.5 18.7 22.7 28.2 14 0 Alarm State:  0
Sat Sep 24 22:10:31 PDT 2022 ON: 20.00 +20.0 20.05 -21.3 19.0 22.5 28.2 16 0 Alarm State:  0
Sat Sep 24 22:09:30 PDT 2022 ON: 20.00 +20.0 20.06 -22.8 17.1 23.9 28.2 15 0 Alarm State:  0
Sat Sep 24 22:08:28 PDT 2022 ON: 20.00 +20.0 20.05 -22.9 17.0 24.0 28.1 13 0 Alarm State:  0
Sat Sep 24 22:07:27 PDT 2022 ON: 20.00 +20.0 20.04 -21.2 19.1 22.4 28.2 15 0 Alarm State:  0
Sat Sep 24 22:06:25 PDT 2022 ON: 19.99 +20.0 20.03 -21.0 19.4 22.2 28.3 15 0 Alarm State:  0
Sat Sep 24 22:05:24 PDT 2022 ON: 20.01 +20.0 20.07 -22.6 17.3 23.8 28.2 16 0 Alarm State:  0
Sat Sep 24 22:04:22 PDT 2022 ON: 20.01 +20.0 20.05 -22.2 17.9 23.3 28.2 14 0 Alarm State:  0
Sat Sep 24 22:03:21 PDT 2022 ON: 19.99 +20.0 20.04 -21.3 19.0 22.5 28.2 15 0 Alarm State:  0
Sat Sep 24 22:02:19 PDT 2022 ON: 20.00 +20.0 20.06 -22.4 17.6 23.6 28.2 16 0 Alarm State:  0
Sat Sep 24 22:01:18 PDT 2022 ON: 20.01 +20.0 20.05 -21.2 19.2 22.3 28.3 16 0 Alarm State:  0
Sat Sep 24 22:00:16 PDT 2022 ON: 20.01 +20.0 20.05 -21.7 18.5 22.8 28.1 16 0 Alarm State:  0
Sat Sep 24 21:59:15 PDT 2022 ON: 20.01 +20.0 20.07 -22.9 17.0 24.0 28.1 16 0 Alarm State:  0
Sat Sep 24 21:58:13 PDT 2022 ON: 20.00 +20.0 20.06 -22.9 17.0 24.0 28.2 16 0 Alarm State:  0
Sat Sep 24 21:57:12 PDT 2022 ON: 20.01 +20.0 20.07 -22.6 17.4 23.7 28.3 16 0 Alarm State:  0
Sat Sep 24 21:56:10 PDT 2022 ON: 20.01 +20.0 20.07 -23.0 16.8 24.2 28.2 14 0 Alarm State:  0
Sat Sep 24 21:55:09 PDT 2022 ON: 20.00 +20.0 20.04 -21.7 18.5 22.8 28.3 14 0 Alarm State:  0
Sat Sep 24 21:54:07 PDT 2022 ON: 20.00 +20.0 20.04 -21.4 18.9 22.5 28.3 15 0 Alarm State:  0
Sat Sep 24 21:53:06 PDT 2022 ON: 20.01 +20.0 20.04 -21.0 19.4 22.2 28.2 16 0 Alarm State:  0
Sat Sep 24 21:52:04 PDT 2022 ON: 20.02 +20.0 20.07 -22.2 17.9 23.3 28.1 16 0 Alarm State:  0
Sat Sep 24 21:51:03 PDT 2022 ON: 20.02 +20.0 20.07 -21.9 18.2 23.1 28.1 17 0 Alarm State:  0
Sat Sep 24 21:50:01 PDT 2022 ON: 20.01 +20.0 20.08 -22.5 17.5 23.6 28.1 16 0 Alarm State:  0
Sat Sep 24 21:49:00 PDT 2022 ON: 20.01 +20.0 20.07 -23.2 16.6 24.3 28.1 15 0 Alarm State:  0
Sat Sep 24 21:47:58 PDT 2022 ON: 20.00 +20.0 20.04 -21.8 18.4 22.9 28.3 14 0 Alarm State:  0
Sat Sep 24 21:46:57 PDT 2022 ON: 20.00 +20.0 20.06 -22.0 18.1 23.2 28.2 16 0 Alarm State:  0
Sat Sep 24 21:45:55 PDT 2022 ON: 20.01 +20.0 20.07 -22.3 17.7 23.5 28.3 15 0 Alarm State:  0
Sat Sep 24 21:44:53 PDT 2022 ON: 20.00 +20.0 20.04 -21.6 18.6 22.8 28.3 14 0 Alarm State:  0
Sat Sep 24 21:43:52 PDT 2022 ON: 20.00 +20.0 20.04 -21.2 19.2 22.3 28.2 15 0 Alarm State:  0
Sat Sep 24 21:42:50 PDT 2022 ON: 20.01 +20.0 20.07 -22.7 17.2 23.9 28.1 16 0 Alarm State:  0
Sat Sep 24 21:41:49 PDT 2022 ON: 20.00 +20.0 20.07 -23.0 16.8 24.2 28.2 14 0 Alarm State:  0
Sat Sep 24 21:40:47 PDT 2022 ON: 20.01 +20.0 20.07 -22.6 17.3 23.8 28.2 15 0 Alarm State:  0
Sat Sep 24 21:39:46 PDT 2022 ON: 20.01 +20.0 20.04 -21.4 18.9 22.5 28.2 15 0 Alarm State:  0
Sat Sep 24 21:38:44 PDT 2022 ON: 20.01 +20.0 20.05 -21.6 18.6 22.8 28.2 16 0 Alarm State:  0
Sat Sep 24 21:37:43 PDT 2022 ON: 20.00 +20.0 20.07 -22.9 16.9 24.1 28.2 15 0 Alarm State:  0
Sat Sep 24 21:36:41 PDT 2022 ON: 20.00 +20.0 20.05 -21.5 18.7 22.7 28.3 14 0 Alarm State:  0
Sat Sep 24 21:35:40 PDT 2022 ON: 20.01 +20.0 20.06 -22.3 17.8 23.4 28.1 17 0 Alarm State:  0
Sat Sep 24 21:34:38 PDT 2022 ON: 20.01 +20.0 20.07 -22.7 17.2 23.9 28.2 16 0 Alarm State:  0
Sat Sep 24 21:33:37 PDT 2022 ON: 20.00 +20.0 20.04 -21.7 18.5 22.8 28.3 14 0 Alarm State:  0
Sat Sep 24 21:32:35 PDT 2022 ON: 20.00 +20.0 20.04 -21.2 19.2 22.3 28.3 15 0 Alarm State:  0
Sat Sep 24 21:31:34 PDT 2022 ON: 20.00 +20.0 20.04 -21.4 18.9 22.5 28.2 15 0 Alarm State:  0
Sat Sep 24 21:30:32 PDT 2022 ON: 20.00 +20.0 20.06 -22.6 17.3 23.8 28.1 16 0 Alarm State:  0
Sat Sep 24 21:29:31 PDT 2022 ON: 20.00 +20.0 20.05 -21.6 18.6 22.8 28.2 15 0 Alarm State:  0
Sat Sep 24 21:28:29 PDT 2022 ON: 20.01 +20.0 20.06 -21.7 18.5 22.8 28.1 17 0 Alarm State:  0
Sat Sep 24 21:27:28 PDT 2022 ON: 20.02 +20.0 20.06 -21.8 18.4 22.9 28.1 17 0 Alarm State:  0
Sat Sep 24 21:26:26 PDT 2022 ON: 20.02 +20.0 20.08 -23.0 16.8 24.2 28.0 16 0 Alarm State:  0
Sat Sep 24 21:25:25 PDT 2022 ON: 20.01 +20.0 20.09 -23.3 16.4 24.5 28.1 15 0 Alarm State:  0
Sat Sep 24 21:24:23 PDT 2022 ON: 19.99 +20.0 20.05 -21.8 18.3 23.0 28.2 14 0 Alarm State:  0
Sat Sep 24 21:23:22 PDT 2022 ON: 20.01 +20.0 20.05 -21.1 19.3 22.2 28.2 17 0 Alarm State:  0
Sat Sep 24 21:22:20 PDT 2022 ON: 20.02 +20.0 20.08 -23.2 16.6 24.3 28.1 16 0 Alarm State:  0
Sat Sep 24 21:21:19 PDT 2022 ON: 20.00 +20.0 20.08 -23.3 16.5 24.4 28.1 14 0 Alarm State:  0
Sat Sep 24 21:20:17 PDT 2022 ON: 20.00 +20.0 20.07 -22.6 17.4 23.7 28.3 14 0 Alarm State:  0
Sat Sep 24 21:19:16 PDT 2022 ON: 20.00 +20.0 20.04 -21.2 19.1 22.4 28.3 15 0 Alarm State:  0
Sat Sep 24 21:18:14 PDT 2022 ON: 20.01 +20.0 20.05 -22.2 17.9 23.3 28.1 16 0 Alarm State:  0
Sat Sep 24 21:17:13 PDT 2022 ON: 20.01 +20.0 20.07 -22.4 17.6 23.6 28.2 16 0 Alarm State:  0
Sat Sep 24 21:16:11 PDT 2022 ON: 20.00 +20.0 20.05 -21.8 18.4 22.9 28.2 14 0 Alarm State:  0
Sat Sep 24 21:15:10 PDT 2022 ON: 20.01 +20.0 20.06 -22.2 17.9 23.3 28.1 15 0 Alarm State:  0
Sat Sep 24 21:14:08 PDT 2022 ON: 20.01 +20.0 20.06 -21.7 18.5 22.8 28.1 17 0 Alarm State:  0
Sat Sep 24 21:13:07 PDT 2022 ON: 20.01 +20.0 20.06 -22.6 17.4 23.7 28.1 16 0 Alarm State:  0
Sat Sep 24 21:12:05 PDT 2022 ON: 20.01 +20.0 20.08 -22.6 17.4 23.7 28.1 15 0 Alarm State:  0
Sat Sep 24 21:11:04 PDT 2022 ON: 20.00 +20.0 20.03 -21.4 18.9 22.5 28.2 14 0 Alarm State:  0
Sat Sep 24 21:10:02 PDT 2022 ON: 20.01 +20.0 20.06 -21.5 18.8 22.6 28.2 17 0 Alarm State:  0
Sat Sep 24 21:09:01 PDT 2022 ON: 20.01 +20.0 20.08 -23.3 16.4 24.5 28.1 15 0 Alarm State:  0
Sat Sep 24 21:07:59 PDT 2022 ON: 20.00 +20.0 20.07 -22.7 17.2 23.9 28.2 14 0 Alarm State:  0
Sat Sep 24 21:06:58 PDT 2022 ON: 20.00 +20.0 20.06 -23.0 16.8 24.2 28.2 13 0 Alarm State:  0
Sat Sep 24 21:05:56 PDT 2022 ON: 20.00 +20.0 20.05 -22.7 17.2 23.9 28.2 13 0 Alarm State:  0
Sat Sep 24 21:04:55 PDT 2022 ON: 20.00 +20.0 20.03 -21.2 19.2 22.3 28.2 15 0 Alarm State:  0
Sat Sep 24 21:03:53 PDT 2022 ON: 20.01 +20.0 20.07 -22.2 17.9 23.3 28.2 16 0 Alarm State:  0
Sat Sep 24 21:02:52 PDT 2022 ON: 20.01 +20.0 20.06 -22.3 17.7 23.5 28.1 15 0 Alarm State:  0
Sat Sep 24 21:01:50 PDT 2022 ON: 20.00 +20.0 20.06 -22.8 17.1 23.9 28.2 15 0 Alarm State:  0
Sat Sep 24 21:00:49 PDT 2022 ON: 20.00 +20.0 20.05 -22.4 17.6 23.6 28.2 13 0 Alarm State:  0
Sat Sep 24 20:59:47 PDT 2022 ON: 20.01 +20.0 20.06 -22.4 17.6 23.6 28.2 16 0 Alarm State:  0
Sat Sep 24 20:58:46 PDT 2022 ON: 20.00 +20.0 20.05 -22.0 18.1 23.2 28.3 14 0 Alarm State:  0
Sat Sep 24 20:57:44 PDT 2022 ON: 20.00 +20.0 20.03 -21.2 19.2 22.3 28.4 15 0 Alarm State:  0
Sat Sep 24 20:56:43 PDT 2022 ON: 20.02 +20.0 20.06 -21.5 18.8 22.6 28.2 16 0 Alarm State:  0
Sat Sep 24 20:55:41 PDT 2022 ON: 20.01 +20.0 20.08 -22.5 17.5 23.6 28.2 16 0 Alarm State:  0
Sat Sep 24 20:54:40 PDT 2022 ON: 20.01 +20.0 20.07 -22.7 17.2 23.9 28.2 15 0 Alarm State:  0
Sat Sep 24 20:53:38 PDT 2022 ON: 20.00 +20.0 20.04 -21.1 19.3 22.2 28.3 15 0 Alarm State:  0
Sat Sep 24 20:52:37 PDT 2022 ON: 20.01 +20.0 20.06 -21.6 18.6 22.8 28.2 16 0 Alarm State:  0
Sat Sep 24 20:51:35 PDT 2022 ON: 20.00 +20.0 20.08 -23.6 16.1 24.7 28.2 14 0 Alarm State:  0
Sat Sep 24 20:50:34 PDT 2022 ON: 20.01 +20.0 20.06 -22.4 17.6 23.6 28.2 14 0 Alarm State:  0
Sat Sep 24 20:49:32 PDT 2022 ON: 20.01 +20.0 20.07 -22.7 17.2 23.9 28.2 16 0 Alarm State:  0
Sat Sep 24 20:48:31 PDT 2022 ON: 20.00 +20.0 20.05 -22.0 18.1 23.2 28.3 14 0 Alarm State:  0
Sat Sep 24 20:47:29 PDT 2022 ON: 20.00 +20.0 20.04 -21.4 18.9 22.5 28.2 15 0 Alarm State:  0
Sat Sep 24 20:46:28 PDT 2022 ON: 20.01 +20.0 20.06 -22.6 17.4 23.7 28.2 16 0 Alarm State:  0
Sat Sep 24 20:45:26 PDT 2022 ON: 20.01 +20.0 20.05 -22.3 17.8 23.4 28.2 14 0 Alarm State:  0
Sat Sep 24 20:44:24 PDT 2022 ON: 19.99 +20.0 20.05 -21.7 18.5 22.8 28.3 14 0 Alarm State:  0
Sat Sep 24 20:43:23 PDT 2022 ON: 20.00 +20.0 20.04 -22.0 18.1 23.2 28.3 14 0 Alarm State:  0
Sat Sep 24 20:42:21 PDT 2022 ON: 20.00 +20.0 20.04 -21.5 18.7 22.7 28.3 14 0 Alarm State:  0
Sat Sep 24 20:41:20 PDT 2022 ON: 20.00 +20.0 20.03 -20.8 19.6 22.0 28.3 16 0 Alarm State:  0
Sat Sep 24 20:40:18 PDT 2022 ON: 20.01 +20.0 20.05 -21.9 18.2 23.1 28.1 16 0 Alarm State:  0
Sat Sep 24 20:39:17 PDT 2022 ON: 20.01 +20.0 20.07 -21.9 18.2 23.1 28.1 15 0 Alarm State:  0
Sat Sep 24 20:38:15 PDT 2022 ON: 20.00 +20.0 20.04 -21.4 18.9 22.5 28.3 15 0 Alarm State:  0
Sat Sep 24 20:37:14 PDT 2022 ON: 20.01 +20.0 20.06 -22.4 17.6 23.6 28.1 17 0 Alarm State:  0
Sat Sep 24 20:36:12 PDT 2022 ON: 20.01 +20.0 20.07 -22.6 17.4 23.7 28.2 16 0 Alarm State:  0
Sat Sep 24 20:35:11 PDT 2022 ON: 20.01 +20.0 20.07 -22.7 17.2 23.9 28.2 15 0 Alarm State:  0
Sat Sep 24 20:34:09 PDT 2022 ON: 20.00 +20.0 20.04 -22.3 17.7 23.5 28.3 14 0 Alarm State:  0
Sat Sep 24 20:33:08 PDT 2022 ON: 19.99 +20.0 20.04 -21.8 18.4 22.9 28.3 14 0 Alarm State:  0
Sat Sep 24 20:32:06 PDT 2022 ON: 20.00 +20.0 20.04 -21.6 18.6 22.8 28.3 14 0 Alarm State:  0
Sat Sep 24 20:31:05 PDT 2022 ON: 20.00 +20.0 20.05 -21.2 19.1 22.4 28.3 14 0 Alarm State:  0
Sat Sep 24 20:30:03 PDT 2022 ON: 20.00 +20.0 20.05 -21.5 18.7 22.7 28.2 14 0 Alarm State:  0
Sat Sep 24 20:29:02 PDT 2022 ON: 20.01 +20.0 20.05 -21.5 18.8 22.6 28.2 17 0 Alarm State:  0
Sat Sep 24 20:28:00 PDT 2022 ON: 20.02 +20.0 20.10 -22.9 16.9 24.1 28.1 16 0 Alarm State:  0
Sat Sep 24 20:26:59 PDT 2022 ON: 20.00 +20.0 20.05 -22.1 18.0 23.2 28.3 14 0 Alarm State:  0
Sat Sep 24 20:25:57 PDT 2022 ON: 20.01 +20.0 20.04 -21.5 18.7 22.7 28.2 15 0 Alarm State:  0
Sat Sep 24 20:24:56 PDT 2022 ON: 20.00 +20.0 20.05 -21.8 18.3 23.0 28.3 14 0 Alarm State:  0
Sat Sep 24 20:23:54 PDT 2022 ON: 20.01 +20.0 20.07 -22.1 18.0 23.2 28.2 17 0 Alarm State:  0
Sat Sep 24 20:22:53 PDT 2022 ON: 20.00 +20.0 20.06 -22.2 17.9 23.3 28.2 15 0 Alarm State:  0
Sat Sep 24 20:21:51 PDT 2022 ON: 19.99 +20.0 20.04 -21.1 19.3 22.2 28.3 15 0 Alarm State:  0
Sat Sep 24 20:20:50 PDT 2022 ON: 20.00 +20.0 20.04 -21.3 19.0 22.5 28.3 14 0 Alarm State:  0
Sat Sep 24 20:19:48 PDT 2022 ON: 20.01 +20.0 20.04 -21.6 18.6 22.8 28.2 16 0 Alarm State:  0
Sat Sep 24 20:18:47 PDT 2022 ON: 20.01 +20.0 20.07 -22.3 17.7 23.5 28.2 15 0 Alarm State:  0
Sat Sep 24 20:17:45 PDT 2022 ON: 20.00 +20.0 20.05 -21.5 18.7 22.7 28.3 14 0 Alarm State:  0
Sat Sep 24 20:16:44 PDT 2022 ON: 19.99 +20.0 20.02 -20.7 19.8 21.8 28.4 16 0 Alarm State:  0
Sat Sep 24 20:15:42 PDT 2022 ON: 20.01 +20.0 20.05 -21.3 19.0 22.5 28.2 15 0 Alarm State:  0
Sat Sep 24 20:14:41 PDT 2022 ON: 20.00 +20.0 20.05 -21.6 18.6 22.8 28.1 15 0 Alarm State:  0
Sat Sep 24 20:13:39 PDT 2022 ON: 20.00 +20.0 20.06 -22.1 18.0 23.2 28.2 17 0 Alarm State:  0
Sat Sep 24 20:12:38 PDT 2022 ON: 20.01 +20.0 20.09 -23.5 16.2 24.7 28.1 15 0 Alarm State:  0
Sat Sep 24 20:11:36 PDT 2022 ON: 20.00 +20.0 20.05 -21.5 18.7 22.7 28.3 14 0 Alarm State:  0
Sat Sep 24 20:10:35 PDT 2022 ON: 20.02 +20.0 20.07 -22.0 18.1 23.2 28.1 17 0 Alarm State:  0
Sat Sep 24 20:09:33 PDT 2022 ON: 20.00 +20.0 20.07 -22.2 17.9 23.3 28.3 14 0 Alarm State:  0
Sat Sep 24 20:08:32 PDT 2022 ON: 20.00 +20.0 20.04 -21.5 18.8 22.6 28.3 14 0 Alarm State:  0
Sat Sep 24 20:07:30 PDT 2022 ON: 20.02 +20.0 20.06 -21.7 18.5 22.8 28.1 17 0 Alarm State:  0
Sat Sep 24 20:06:29 PDT 2022 ON: 20.00 +20.0 20.06 -22.0 18.1 23.2 28.2 16 0 Alarm State:  0
Sat Sep 24 20:05:27 PDT 2022 ON: 20.00 +20.0 20.07 -22.8 17.1 23.9 28.2 15 0 Alarm State:  0
Sat Sep 24 20:04:26 PDT 2022 ON: 20.00 +20.0 20.03 -21.1 19.3 22.2 28.3 15 0 Alarm State:  0
Sat Sep 24 20:03:24 PDT 2022 ON: 20.01 +20.0 20.05 -21.7 18.5 22.8 28.2 15 0 Alarm State:  0
Sat Sep 24 20:02:23 PDT 2022 ON: 20.01 +20.0 20.07 -22.9 16.9 24.1 28.1 16 0 Alarm State:  0
Sat Sep 24 20:01:21 PDT 2022 ON: 20.00 +20.0 20.06 -22.3 17.8 23.4 28.2 15 0 Alarm State:  0
Sat Sep 24 20:00:20 PDT 2022 ON: 20.00 +20.0 20.04 -21.2 19.1 22.4 28.3 15 0 Alarm State:  0
Sat Sep 24 19:59:18 PDT 2022 ON: 20.00 +20.0 20.04 -21.3 19.0 22.5 28.2 16 0 Alarm State:  0
Sat Sep 24 19:58:17 PDT 2022 ON: 20.01 +20.0 20.06 -21.8 18.4 22.9 28.1 17 0 Alarm State:  0
Sat Sep 24 19:57:15 PDT 2022 ON: 20.01 +20.0 20.07 -22.1 18.0 23.2 28.1 16 0 Alarm State:  0
Sat Sep 24 19:56:14 PDT 2022 ON: 20.01 +20.0 20.06 -22.3 17.8 23.4 28.1 17 0 Alarm State:  0
Sat Sep 24 19:55:12 PDT 2022 ON: 20.01 +20.0 20.07 -22.9 16.9 24.1 28.2 16 0 Alarm State:  0
Sat Sep 24 19:54:11 PDT 2022 ON: 20.00 +20.0 20.07 -22.9 16.9 24.1 28.2 15 0 Alarm State:  0
Sat Sep 24 19:53:09 PDT 2022 ON: 20.01 +20.0 20.06 -21.9 18.2 23.1 28.2 14 0 Alarm State:  0
Sat Sep 24 19:52:08 PDT 2022 ON: 20.00 +20.0 20.06 -22.0 18.1 23.2 28.2 16 0 Alarm State:  0
Sat Sep 24 19:51:06 PDT 2022 ON: 20.00 +20.0 20.05 -22.1 18.0 23.2 28.3 15 0 Alarm State:  0
Sat Sep 24 19:50:05 PDT 2022 ON: 20.01 +20.0 20.06 -22.2 17.9 23.3 28.1 17 0 Alarm State:  0
Sat Sep 24 19:49:03 PDT 2022 ON: 20.01 +20.0 20.09 -23.1 16.7 24.2 28.1 16 0 Alarm State:  0
Sat Sep 24 19:48:02 PDT 2022 ON: 20.01 +20.0 20.06 -22.6 17.3 23.8 28.2 16 0 Alarm State:  0
Sat Sep 24 19:47:00 PDT 2022 ON: 20.00 +20.0 20.06 -22.5 17.5 23.6 28.3 14 0 Alarm State:  0
Sat Sep 24 19:45:59 PDT 2022 ON: 20.00 +20.0 20.05 -21.5 18.8 22.6 28.3 15 0 Alarm State:  0
Sat Sep 24 19:44:57 PDT 2022 ON: 20.01 +20.0 20.06 -21.1 19.3 22.2 28.3 16 0 Alarm State:  0
Sat Sep 24 19:43:55 PDT 2022 ON: 20.00 +20.0 20.05 -21.5 18.8 22.6 28.3 16 0 Alarm State:  0
Sat Sep 24 19:42:54 PDT 2022 ON: 20.00 +20.0 20.04 -21.5 18.8 22.6 28.3 14 0 Alarm State:  0
Sat Sep 24 19:41:52 PDT 2022 ON: 20.00 +20.0 20.05 -21.2 19.1 22.4 28.3 15 0 Alarm State:  0
Sat Sep 24 19:40:51 PDT 2022 ON: 20.01 +20.0 20.07 -22.5 17.5 23.6 28.2 16 0 Alarm State:  0
Sat Sep 24 19:39:49 PDT 2022 ON: 20.00 +20.0 20.05 -22.2 17.9 23.3 28.3 14 0 Alarm State:  0
Sat Sep 24 19:38:48 PDT 2022 ON: 19.99 +20.0 20.03 -21.6 18.6 22.8 28.3 14 0 Alarm State:  0
Sat Sep 24 19:37:46 PDT 2022 ON: 20.01 +20.0 20.06 -21.3 19.0 22.5 28.2 16 0 Alarm State:  0
Sat Sep 24 19:36:45 PDT 2022 ON: 20.00 +20.0 20.07 -22.7 17.2 23.9 28.2 15 0 Alarm State:  0
Sat Sep 24 19:35:43 PDT 2022 ON: 20.00 +20.0 20.04 -21.6 18.6 22.8 28.2 15 0 Alarm State:  0
Sat Sep 24 19:34:42 PDT 2022 ON: 20.01 +20.0 20.07 -22.9 17.0 24.0 28.1 16 0 Alarm State:  0
Sat Sep 24 19:33:40 PDT 2022 ON: 20.01 +20.0 20.08 -22.6 17.3 23.8 28.2 16 0 Alarm State:  0
Sat Sep 24 19:32:39 PDT 2022 ON: 20.00 +20.0 20.06 -21.8 18.4 22.9 28.2 14 0 Alarm State:  0
Sat Sep 24 19:31:37 PDT 2022 ON: 20.00 +20.0 20.06 -22.5 17.5 23.6 28.2 16 0 Alarm State:  0
Sat Sep 24 19:30:36 PDT 2022 ON: 20.00 +20.0 20.04 -21.5 18.7 22.7 28.3 14 0 Alarm State:  0
Sat Sep 24 19:29:34 PDT 2022 ON: 20.00 +20.0 20.06 -21.7 18.5 22.8 28.2 16 0 Alarm State:  0
Sat Sep 24 19:28:33 PDT 2022 ON: 20.00 +20.0 20.07 -23.0 16.8 24.2 28.2 15 0 Alarm State:  0
Sat Sep 24 19:27:31 PDT 2022 ON: 20.01 +20.0 20.05 -21.4 18.9 22.5 28.3 15 0 Alarm State:  0
Sat Sep 24 19:26:30 PDT 2022 ON: 20.00 +20.0 20.06 -22.7 17.2 23.9 28.2 16 0 Alarm State:  0
Sat Sep 24 19:25:28 PDT 2022 ON: 20.00 +20.0 20.07 -22.3 17.7 23.5 28.3 15 0 Alarm State:  0
Sat Sep 24 19:24:27 PDT 2022 ON: 20.00 +20.0 20.03 -21.2 19.2 22.3 28.3 15 0 Alarm State:  0
Sat Sep 24 19:23:25 PDT 2022 ON: 20.00 +20.0 20.07 -22.4 17.6 23.6 28.2 16 0 Alarm State:  0
Sat Sep 24 19:22:24 PDT 2022 ON: 19.99 +20.0 20.04 -22.3 17.7 23.5 28.3 14 0 Alarm State:  0
Sat Sep 24 19:21:22 PDT 2022 ON: 20.00 +20.0 20.05 -21.5 18.8 22.6 28.2 16 0 Alarm State:  0
Sat Sep 24 19:20:21 PDT 2022 ON: 20.02 +20.0 20.09 -22.9 17.0 24.0 28.1 16 0 Alarm State:  0
Sat Sep 24 19:19:19 PDT 2022 ON: 20.00 +20.0 20.06 -22.3 17.7 23.5 28.3 14 0 Alarm State:  0
Sat Sep 24 19:18:18 PDT 2022 ON: 20.00 +20.0 20.04 -21.5 18.7 22.7 28.3 15 0 Alarm State:  0
Sat Sep 24 19:17:16 PDT 2022 ON: 20.01 +20.0 20.06 -22.1 18.0 23.2 28.1 16 0 Alarm State:  0
Sat Sep 24 19:16:15 PDT 2022 ON: 20.01 +20.0 20.09 -23.0 16.8 24.2 28.1 16 0 Alarm State:  0
Sat Sep 24 19:15:13 PDT 2022 ON: 20.00 +20.0 20.04 -22.2 17.9 23.3 28.3 14 0 Alarm State:  0
Sat Sep 24 19:14:12 PDT 2022 ON: 20.00 +20.0 20.04 -21.2 19.2 22.3 28.3 15 0 Alarm State:  0
Sat Sep 24 19:13:10 PDT 2022 ON: 20.01 +20.0 20.08 -23.2 16.6 24.3 28.1 16 0 Alarm State:  0
Sat Sep 24 19:12:09 PDT 2022 ON: 20.01 +20.0 20.07 -22.9 17.0 24.0 28.2 16 0 Alarm State:  0
Sat Sep 24 19:11:07 PDT 2022 ON: 19.99 +20.0 20.05 -22.2 17.9 23.3 28.3 14 0 Alarm State:  0
Sat Sep 24 19:10:06 PDT 2022 ON: 20.00 +20.0 20.04 -21.2 19.2 22.3 28.3 15 0 Alarm State:  0
Sat Sep 24 19:09:04 PDT 2022 ON: 20.01 +20.0 20.06 -21.8 18.3 23.0 28.1 17 0 Alarm State:  0
Sat Sep 24 19:08:03 PDT 2022 ON: 20.01 +20.0 20.07 -22.0 18.1 23.2 28.1 17 0 Alarm State:  0
Sat Sep 24 19:07:01 PDT 2022 ON: 20.01 +20.0 20.07 -21.8 18.3 23.0 28.2 17 0 Alarm State:  0
Sat Sep 24 19:06:00 PDT 2022 ON: 20.01 +20.0 20.07 -22.7 17.2 23.9 28.1 16 0 Alarm State:  0
Sat Sep 24 19:04:58 PDT 2022 ON: 20.01 +20.0 20.07 -23.2 16.6 24.3 28.1 15 0 Alarm State:  0
Sat Sep 24 19:03:57 PDT 2022 ON: 20.01 +20.0 20.07 -22.6 17.3 23.8 28.1 16 0 Alarm State:  0
Sat Sep 24 19:02:55 PDT 2022 ON: 20.01 +20.0 20.08 -22.7 17.2 23.9 28.2 15 0 Alarm State:  0
Sat Sep 24 19:01:54 PDT 2022 ON: 20.00 +20.0 20.05 -22.6 17.3 23.8 28.3 14 0 Alarm State:  0
Sat Sep 24 19:00:52 PDT 2022 ON: 20.00 +20.0 20.04 -21.2 19.2 22.3 28.2 16 0 Alarm State:  0
Sat Sep 24 18:59:51 PDT 2022 ON: 20.01 +20.0 20.07 -22.0 18.1 23.2 28.2 17 0 Alarm State:  0
Sat Sep 24 18:58:49 PDT 2022 ON: 20.00 +20.0 20.04 -21.7 18.5 22.8 28.3 14 0 Alarm State:  0
Sat Sep 24 18:57:48 PDT 2022 ON: 20.01 +20.0 20.03 -21.2 19.2 22.3 28.2 15 0 Alarm State:  0
Sat Sep 24 18:56:46 PDT 2022 ON: 20.01 +20.0 20.05 -21.5 18.7 22.7 28.2 16 0 Alarm State:  0
Sat Sep 24 18:55:45 PDT 2022 ON: 20.00 +20.0 20.05 -21.5 18.7 22.7 28.4 14 0 Alarm State:  0
Sat Sep 24 18:54:43 PDT 2022 ON: 20.00 +20.0 20.05 -21.7 18.5 22.8 28.3 14 0 Alarm State:  0
Sat Sep 24 18:53:42 PDT 2022 ON: 20.00 +20.0 20.04 -21.2 19.2 22.3 28.3 15 0 Alarm State:  0
Sat Sep 24 18:52:40 PDT 2022 ON: 20.01 +20.0 20.05 -21.1 19.3 22.2 28.3 16 0 Alarm State:  0
Sat Sep 24 18:51:39 PDT 2022 ON: 20.02 +20.0 20.08 -22.0 18.1 23.2 28.1 17 0 Alarm State:  0
Sat Sep 24 18:50:37 PDT 2022 ON: 20.01 +20.0 20.07 -22.1 18.0 23.2 28.1 16 0 Alarm State:  0
Sat Sep 24 18:49:36 PDT 2022 ON: 20.01 +20.0 20.07 -22.6 17.3 23.8 28.2 16 0 Alarm State:  0
Sat Sep 24 18:48:34 PDT 2022 ON: 20.00 +20.0 20.05 -21.7 18.5 22.8 28.3 14 0 Alarm State:  0
Sat Sep 24 18:47:33 PDT 2022 ON: 20.00 +20.0 20.05 -21.4 18.9 22.5 28.3 14 0 Alarm State:  0
Sat Sep 24 18:46:31 PDT 2022 ON: 20.00 +20.0 20.05 -21.5 18.7 22.7 28.3 17 0 Alarm State:  0
Sat Sep 24 18:45:30 PDT 2022 ON: 20.00 +20.0 20.05 -22.3 17.8 23.4 28.2 14 0 Alarm State:  0
Sat Sep 24 18:44:28 PDT 2022 ON: 20.01 +20.0 20.06 -21.8 18.3 23.0 28.3 16 0 Alarm State:  0
Sat Sep 24 18:43:26 PDT 2022 ON: 20.00 +20.0 20.06 -21.8 18.3 23.0 28.2 15 0 Alarm State:  0
Sat Sep 24 18:42:25 PDT 2022 ON: 20.01 +20.0 20.07 -22.4 17.6 23.6 28.3 15 0 Alarm State:  0
Sat Sep 24 18:41:23 PDT 2022 ON: 20.01 +20.0 20.05 -21.3 19.0 22.5 28.3 15 0 Alarm State:  0
Sat Sep 24 18:40:22 PDT 2022 ON: 20.00 +20.0 20.03 -21.1 19.3 22.2 28.3 15 0 Alarm State:  0
Sat Sep 24 18:39:20 PDT 2022 ON: 20.01 +20.0 20.04 -21.0 19.4 22.2 28.3 15 0 Alarm State:  0
Sat Sep 24 18:38:19 PDT 2022 ON: 20.00 +20.0 20.06 -21.9 18.2 23.1 28.1 16 0 Alarm State:  0
Sat Sep 24 18:37:17 PDT 2022 ON: 20.00 +20.0 20.06 -22.4 17.6 23.6 28.2 16 0 Alarm State:  0
Sat Sep 24 18:36:16 PDT 2022 ON: 20.01 +20.0 20.07 -22.9 16.9 24.1 28.2 15 0 Alarm State:  0
Sat Sep 24 18:35:14 PDT 2022 ON: 20.00 +20.0 20.05 -21.3 19.0 22.5 28.3 15 0 Alarm State:  0
Sat Sep 24 18:34:13 PDT 2022 ON: 20.01 +20.0 20.07 -22.0 18.1 23.2 28.1 17 0 Alarm State:  0
Sat Sep 24 18:33:11 PDT 2022 ON: 20.01 +20.0 20.08 -22.9 17.0 24.0 28.1 16 0 Alarm State:  0
Sat Sep 24 18:32:10 PDT 2022 ON: 20.01 +20.0 20.06 -23.0 16.8 24.2 28.2 14 0 Alarm State:  0
Sat Sep 24 18:31:08 PDT 2022 ON: 20.00 +20.0 20.06 -22.4 17.6 23.6 28.2 14 0 Alarm State:  0
Sat Sep 24 18:30:07 PDT 2022 ON: 20.00 +20.0 20.07 -22.7 17.2 23.9 28.2 16 0 Alarm State:  0
Sat Sep 24 18:29:05 PDT 2022 ON: 20.00 +20.0 20.06 -22.8 17.1 23.9 28.2 14 0 Alarm State:  0
Sat Sep 24 18:28:04 PDT 2022 ON: 20.00 +20.0 20.04 -21.8 18.4 22.9 28.3 14 0 Alarm State:  0
Sat Sep 24 18:27:02 PDT 2022 ON: 20.01 +20.0 20.06 -21.9 18.2 23.1 28.2 17 0 Alarm State:  0
Sat Sep 24 18:26:01 PDT 2022 ON: 20.00 +20.0 20.06 -22.0 18.1 23.2 28.3 14 0 Alarm State:  0
Sat Sep 24 18:24:59 PDT 2022 ON: 20.00 +20.0 20.06 -21.8 18.3 23.0 28.3 15 0 Alarm State:  0
Sat Sep 24 18:23:58 PDT 2022 ON: 20.01 +20.0 20.05 -21.1 19.3 22.2 28.2 16 0 Alarm State:  0
Sat Sep 24 18:22:56 PDT 2022 ON: 20.01 +20.0 20.05 -21.5 18.7 22.7 28.1 15 0 Alarm State:  0
Sat Sep 24 18:21:55 PDT 2022 ON: 20.01 +20.0 20.06 -21.8 18.3 23.0 28.1 17 0 Alarm State:  0
Sat Sep 24 18:20:53 PDT 2022 ON: 20.00 +20.0 20.06 -22.6 17.4 23.7 28.3 15 0 Alarm State:  0
Sat Sep 24 18:19:52 PDT 2022 ON: 20.00 +20.0 20.03 -21.2 19.1 22.4 28.3 15 0 Alarm State:  0
Sat Sep 24 18:18:50 PDT 2022 ON: 20.01 +20.0 20.08 -22.4 17.6 23.6 28.2 16 0 Alarm State:  0
Sat Sep 24 18:17:49 PDT 2022 ON: 20.01 +20.0 20.08 -22.8 17.1 23.9 28.2 14 0 Alarm State:  0
Sat Sep 24 18:16:47 PDT 2022 ON: 20.01 +20.0 20.05 -21.4 18.9 22.5 28.2 16 0 Alarm State:  0
Sat Sep 24 18:15:46 PDT 2022 ON: 20.01 +20.0 20.05 -21.7 18.5 22.8 28.1 16 0 Alarm State:  0
Sat Sep 24 18:14:44 PDT 2022 ON: 20.01 +20.0 20.06 -21.9 18.2 23.1 28.1 17 0 Alarm State:  0
Sat Sep 24 18:13:43 PDT 2022 ON: 20.01 +20.0 20.07 -22.3 17.7 23.5 28.1 17 0 Alarm State:  0
Sat Sep 24 18:12:41 PDT 2022 ON: 20.01 +20.0 20.09 -22.7 17.2 23.9 28.2 16 0 Alarm State:  0
Sat Sep 24 18:11:40 PDT 2022 ON: 20.00 +20.0 20.05 -21.5 18.8 22.6 28.3 14 0 Alarm State:  0
Sat Sep 24 18:10:38 PDT 2022 ON: 20.01 +20.0 20.05 -21.2 19.2 22.3 28.2 16 0 Alarm State:  0
Sat Sep 24 18:09:37 PDT 2022 ON: 20.01 +20.0 20.07 -22.3 17.8 23.4 28.0 16 0 Alarm State:  0
Sat Sep 24 18:08:35 PDT 2022 ON: 20.01 +20.0 20.07 -22.6 17.4 23.7 28.1 16 0 Alarm State:  0
Sat Sep 24 18:07:34 PDT 2022 ON: 20.00 +20.0 20.06 -22.7 17.2 23.9 28.2 16 0 Alarm State:  0
Sat Sep 24 18:06:32 PDT 2022 ON: 20.01 +20.0 20.07 -22.8 17.1 23.9 28.1 14 0 Alarm State:  0
Sat Sep 24 18:05:31 PDT 2022 ON: 20.00 +20.0 20.05 -21.5 18.7 22.7 28.3 15 0 Alarm State:  0
Sat Sep 24 18:04:29 PDT 2022 ON: 20.00 +20.0 20.04 -21.0 19.4 22.2 28.3 15 0 Alarm State:  0
Sat Sep 24 18:03:28 PDT 2022 ON: 20.01 +20.0 20.05 -21.7 18.5 22.8 28.2 16 0 Alarm State:  0
Sat Sep 24 18:02:26 PDT 2022 ON: 20.00 +20.0 20.06 -22.6 17.3 23.8 28.2 16 0 Alarm State:  0
Sat Sep 24 18:01:24 PDT 2022 ON: 20.01 +20.0 20.07 -23.1 16.7 24.2 28.1 14 0 Alarm State:  0
Sat Sep 24 18:00:23 PDT 2022 ON: 20.00 +20.0 20.03 -21.4 18.9 22.5 28.2 15 0 Alarm State:  0
Sat Sep 24 17:59:21 PDT 2022 ON: 20.01 +20.0 20.07 -22.2 17.9 23.3 28.1 17 0 Alarm State:  0
Sat Sep 24 17:58:20 PDT 2022 ON: 20.01 +20.0 20.08 -22.8 17.1 23.9 28.2 16 0 Alarm State:  0
Sat Sep 24 17:57:18 PDT 2022 ON: 20.00 +20.0 20.09 -23.3 16.5 24.4 28.1 15 0 Alarm State:  0
Sat Sep 24 17:56:17 PDT 2022 ON: 20.00 +20.0 20.06 -22.6 17.3 23.8 28.2 13 0 Alarm State:  0
Sat Sep 24 17:55:15 PDT 2022 ON: 20.01 +20.0 20.07 -22.6 17.4 23.7 28.2 16 0 Alarm State:  0
Sat Sep 24 17:54:14 PDT 2022 ON: 20.00 +20.0 20.07 -23.3 16.4 24.5 28.2 15 0 Alarm State:  0
Sat Sep 24 17:53:12 PDT 2022 ON: 19.99 +20.0 20.06 -22.3 17.7 23.5 28.3 14 0 Alarm State:  0
Sat Sep 24 17:52:11 PDT 2022 ON: 20.01 +20.0 20.05 -21.0 19.4 22.2 28.2 16 0 Alarm State:  0
Sat Sep 24 17:51:09 PDT 2022 ON: 20.01 +20.0 20.08 -23.0 16.8 24.2 28.0 16 0 Alarm State:  0
Sat Sep 24 17:50:08 PDT 2022 ON: 20.01 +20.0 20.07 -22.2 17.9 23.3 28.1 16 0 Alarm State:  0
Sat Sep 24 17:49:06 PDT 2022 ON: 20.01 +20.0 20.07 -22.3 17.7 23.5 28.1 17 0 Alarm State:  0
Sat Sep 24 17:48:05 PDT 2022 ON: 20.02 +20.0 20.08 -22.6 17.3 23.8 28.0 16 0 Alarm State:  0
Sat Sep 24 17:47:03 PDT 2022 ON: 20.01 +20.0 20.08 -23.1 16.7 24.2 28.1 16 0 Alarm State:  0
Sat Sep 24 17:46:02 PDT 2022 ON: 20.01 +20.0 20.06 -22.5 17.5 23.6 28.2 15 0 Alarm State:  0
Sat Sep 24 17:45:00 PDT 2022 ON: 20.00 +20.0 20.06 -22.8 17.1 23.9 28.2 13 0 Alarm State:  0
Sat Sep 24 17:43:59 PDT 2022 ON: 19.99 +20.0 20.05 -21.8 18.3 23.0 28.3 15 0 Alarm State:  0
Sat Sep 24 17:42:57 PDT 2022 ON: 20.00 +20.0 20.06 -22.4 17.6 23.6 28.3 14 0 Alarm State:  0
Sat Sep 24 17:41:56 PDT 2022 ON: 20.01 +20.0 20.05 -22.0 18.1 23.2 28.1 14 0 Alarm State:  0
Sat Sep 24 17:40:54 PDT 2022 ON: 20.01 +20.0 20.06 -22.0 18.1 23.2 28.1 16 0 Alarm State:  0
Sat Sep 24 17:39:53 PDT 2022 ON: 20.00 +20.0 20.07 -22.9 16.9 24.1 28.1 16 0 Alarm State:  0
Sat Sep 24 17:38:51 PDT 2022 ON: 20.00 +20.0 20.06 -22.3 17.7 23.5 28.3 15 0 Alarm State:  0
Sat Sep 24 17:37:50 PDT 2022 ON: 20.00 +20.0 20.04 -22.0 18.1 23.2 28.3 14 0 Alarm State:  0
Sat Sep 24 17:36:48 PDT 2022 ON: 20.00 +20.0 20.06 -22.0 18.1 23.2 28.1 14 0 Alarm State:  0
Sat Sep 24 17:35:47 PDT 2022 ON: 20.00 +20.0 20.06 -21.8 18.4 22.9 28.2 16 0 Alarm State:  0
Sat Sep 24 17:34:45 PDT 2022 ON: 20.01 +20.0 20.04 -21.3 19.0 22.5 28.2 15 0 Alarm State:  0
Sat Sep 24 17:33:44 PDT 2022 ON: 20.01 +20.0 20.05 -21.4 18.9 22.5 28.2 15 0 Alarm State:  0
Sat Sep 24 17:32:42 PDT 2022 ON: 20.01 +20.0 20.06 -22.0 18.1 23.2 28.2 16 0 Alarm State:  0
Sat Sep 24 17:31:41 PDT 2022 ON: 20.00 +20.0 20.06 -22.9 16.9 24.1 28.1 13 0 Alarm State:  0
Sat Sep 24 17:30:39 PDT 2022 ON: 20.00 +20.0 20.05 -21.3 19.0 22.5 28.2 16 0 Alarm State:  0
Sat Sep 24 17:29:38 PDT 2022 ON: 20.01 +20.0 20.07 -22.6 17.4 23.7 28.1 16 0 Alarm State:  0
Sat Sep 24 17:28:36 PDT 2022 ON: 20.01 +20.0 20.07 -22.6 17.4 23.7 28.2 16 0 Alarm State:  0
Sat Sep 24 17:27:35 PDT 2022 ON: 20.01 +20.0 20.06 -22.7 17.2 23.9 28.2 14 0 Alarm State:  0
Sat Sep 24 17:26:33 PDT 2022 ON: 20.00 +20.0 20.05 -21.5 18.7 22.7 28.2 14 0 Alarm State:  0
Sat Sep 24 17:25:31 PDT 2022 ON: 20.01 +20.0 20.05 -21.8 18.4 22.9 28.1 16 0 Alarm State:  0
Sat Sep 24 17:24:30 PDT 2022 ON: 20.01 +20.0 20.07 -23.2 16.6 24.3 28.0 16 0 Alarm State:  0
Sat Sep 24 17:23:28 PDT 2022 ON: 20.00 +20.0 20.06 -23.1 16.7 24.2 28.2 14 0 Alarm State:  0
Sat Sep 24 17:22:27 PDT 2022 ON: 20.00 +20.0 20.07 -22.6 17.4 23.7 28.2 15 0 Alarm State:  0
Sat Sep 24 17:21:25 PDT 2022 ON: 20.00 +20.0 20.04 -21.7 18.5 22.8 28.1 16 0 Alarm State:  0
Sat Sep 24 17:20:24 PDT 2022 ON: 20.01 +20.0 20.08 -23.1 16.7 24.2 28.1 15 0 Alarm State:  0
Sat Sep 24 17:19:22 PDT 2022 ON: 20.01 +20.0 20.05 -21.8 18.3 23.0 28.2 14 0 Alarm State:  0
Sat Sep 24 17:18:21 PDT 2022 ON: 20.00 +20.0 20.05 -21.5 18.7 22.7 28.1 16 0 Alarm State:  0
Sat Sep 24 17:17:19 PDT 2022 ON: 20.01 +20.0 20.06 -21.6 18.6 22.8 28.1 16 0 Alarm State:  0
Sat Sep 24 17:16:18 PDT 2022 ON: 20.01 +20.0 20.07 -22.9 17.0 24.0 28.2 16 0 Alarm State:  0
Sat Sep 24 17:15:16 PDT 2022 ON: 20.00 +20.0 20.05 -22.9 17.0 24.0 28.2 13 0 Alarm State:  0
Sat Sep 24 17:14:15 PDT 2022 ON: 20.00 +20.0 20.06 -22.0 18.1 23.2 28.3 14 0 Alarm State:  0
Sat Sep 24 17:13:13 PDT 2022 ON: 20.00 +20.0 20.05 -22.3 17.7 23.5 28.2 14 0 Alarm State:  0
Sat Sep 24 17:12:12 PDT 2022 ON: 20.01 +20.0 20.05 -21.9 18.2 23.1 28.1 16 0 Alarm State:  0
Sat Sep 24 17:11:10 PDT 2022 ON: 20.01 +20.0 20.08 -22.7 17.2 23.9 28.0 16 0 Alarm State:  0
Sat Sep 24 17:10:09 PDT 2022 ON: 20.01 +20.0 20.08 -23.3 16.4 24.5 28.1 15 0 Alarm State:  0
Sat Sep 24 17:09:07 PDT 2022 ON: 20.00 +20.0 20.06 -23.3 16.5 24.4 28.1 14 0 Alarm State:  0
Sat Sep 24 17:08:06 PDT 2022 ON: 20.00 +20.0 20.05 -22.9 17.0 24.0 28.2 15 0 Alarm State:  0
Sat Sep 24 17:07:04 PDT 2022 ON: 19.99 +20.0 20.05 -21.8 18.3 23.0 28.3 14 0 Alarm State:  0
Sat Sep 24 17:06:03 PDT 2022 ON: 20.00 +20.0 20.05 -21.2 19.1 22.4 28.2 15 0 Alarm State:  0
Sat Sep 24 17:05:01 PDT 2022 ON: 20.01 +20.0 20.04 -21.2 19.1 22.4 28.2 15 0 Alarm State:  0
Sat Sep 24 17:04:00 PDT 2022 ON: 20.01 +20.0 20.08 -23.7 15.9 24.9 28.0 15 0 Alarm State:  0
Sat Sep 24 17:02:58 PDT 2022 ON: 20.00 +20.0 20.06 -23.3 16.5 24.4 28.1 15 0 Alarm State:  0
Sat Sep 24 17:01:46 PDT 2022 ON: 20.00 +20.0 20.04 -21.4 18.9 22.5 28.2 16 0 Alarm State:  0
Sat Sep 24 17:00:44 PDT 2022 ON: 20.01 +20.0 20.07 -22.3 17.8 23.4 28.1 17 0 Alarm State:  0
Sat Sep 24 16:59:43 PDT 2022 ON: 20.01 +20.0 20.07 -22.9 17.0 24.0 28.1 15 0 Alarm State:  0
Sat Sep 24 16:58:41 PDT 2022 ON: 20.00 +20.0 20.03 -21.9 18.2 23.1 28.3 14 0 Alarm State:  0
Sat Sep 24 16:57:40 PDT 2022 ON: 20.00 +20.0 20.04 -21.5 18.8 22.6 28.2 14 0 Alarm State:  0
Sat Sep 24 16:56:38 PDT 2022 ON: 20.01 +20.0 20.05 -21.7 18.5 22.8 28.1 16 0 Alarm State:  0
Sat Sep 24 16:55:37 PDT 2022 ON: 20.01 +20.0 20.08 -22.9 16.9 24.1 28.1 16 0 Alarm State:  0
Sat Sep 24 16:54:35 PDT 2022 ON: 20.01 +20.0 20.06 -22.3 17.7 23.5 28.2 14 0 Alarm State:  0
Sat Sep 24 16:53:34 PDT 2022 ON: 20.01 +20.0 20.03 -21.4 18.9 22.5 28.1 15 0 Alarm State:  0
Sat Sep 24 16:52:32 PDT 2022 ON: 20.01 +20.0 20.06 -21.5 18.7 22.7 28.1 16 0 Alarm State:  0
Sat Sep 24 16:51:31 PDT 2022 ON: 20.00 +20.0 20.07 -22.3 17.8 23.4 28.0 16 0 Alarm State:  0
Sat Sep 24 16:50:29 PDT 2022 ON: 20.01 +20.0 20.06 -22.5 17.5 23.6 28.0 16 0 Alarm State:  0
Sat Sep 24 16:49:28 PDT 2022 ON: 20.01 +20.0 20.07 -23.2 16.6 24.3 28.0 16 0 Alarm State:  0
Sat Sep 24 16:48:26 PDT 2022 ON: 20.00 +20.0 20.06 -22.6 17.3 23.8 28.2 14 0 Alarm State:  0
Sat Sep 24 16:47:25 PDT 2022 ON: 20.00 +20.0 20.06 -22.0 18.1 23.2 28.1 16 0 Alarm State:  0
Sat Sep 24 16:46:23 PDT 2022 ON: 20.01 +20.0 20.07 -22.9 17.0 24.0 28.1 16 0 Alarm State:  0
Sat Sep 24 16:45:22 PDT 2022 ON: 20.00 +20.0 20.04 -22.0 18.1 23.2 28.2 14 0 Alarm State:  0
Sat Sep 24 16:44:20 PDT 2022 ON: 20.00 +20.0 20.04 -21.0 19.4 22.2 28.2 15 0 Alarm State:  0
Sat Sep 24 16:43:19 PDT 2022 ON: 20.00 +20.0 20.05 -21.5 18.7 22.7 28.2 16 0 Alarm State:  0
Sat Sep 24 16:42:17 PDT 2022 ON: 20.01 +20.0 20.08 -23.3 16.4 24.5 28.1 15 0 Alarm State:  0
Sat Sep 24 16:41:16 PDT 2022 ON: 20.00 +20.0 20.05 -22.4 17.6 23.6 28.1 14 0 Alarm State:  0
Sat Sep 24 16:40:14 PDT 2022 ON: 19.99 +20.0 20.04 -21.2 19.2 22.3 28.2 15 0 Alarm State:  0
Sat Sep 24 16:39:13 PDT 2022 ON: 20.00 +20.0 20.04 -21.2 19.2 22.3 28.2 15 0 Alarm State:  0
Sat Sep 24 16:38:11 PDT 2022 ON: 20.00 +20.0 20.03 -21.3 19.0 22.5 28.2 15 0 Alarm State:  0
Sat Sep 24 16:37:10 PDT 2022 ON: 20.01 +20.0 20.08 -23.4 16.3 24.6 28.1 15 0 Alarm State:  0
Sat Sep 24 16:36:08 PDT 2022 ON: 20.00 +20.0 20.06 -22.0 18.1 23.2 28.3 15 0 Alarm State:  0
Sat Sep 24 16:35:07 PDT 2022 ON: 20.01 +20.0 20.05 -22.3 17.8 23.4 28.1 14 0 Alarm State:  0
Sat Sep 24 16:34:05 PDT 2022 ON: 20.00 +20.0 20.05 -21.9 18.2 23.1 28.1 15 0 Alarm State:  0
Sat Sep 24 16:33:04 PDT 2022 ON: 20.01 +20.0 20.07 -22.7 17.2 23.9 28.1 16 0 Alarm State:  0
Sat Sep 24 16:32:02 PDT 2022 ON: 20.01 +20.0 20.08 -23.6 16.1 24.7 28.1 15 0 Alarm State:  0
Sat Sep 24 16:31:01 PDT 2022 ON: 20.00 +20.0 20.07 -22.9 16.9 24.1 28.1 14 0 Alarm State:  0
Sat Sep 24 16:29:59 PDT 2022 ON: 20.02 +20.0 20.06 -22.3 17.8 23.4 28.0 16 0 Alarm State:  0
Sat Sep 24 16:28:57 PDT 2022 ON: 20.01 +20.0 20.06 -22.6 17.4 23.7 28.1 16 0 Alarm State:  0
Sat Sep 24 16:27:56 PDT 2022 ON: 20.00 +20.0 20.06 -22.3 17.8 23.4 28.3 14 0 Alarm State:  0
Sat Sep 24 16:26:54 PDT 2022 ON: 20.00 +20.0 20.05 -21.8 18.4 22.9 28.2 14 0 Alarm State:  0
Sat Sep 24 16:25:53 PDT 2022 ON: 20.01 +20.0 20.06 -21.7 18.5 22.8 28.1 16 0 Alarm State:  0
Sat Sep 24 16:24:51 PDT 2022 ON: 20.01 +20.0 20.08 -23.4 16.3 24.6 28.1 15 0 Alarm State:  0
Sat Sep 24 16:23:50 PDT 2022 ON: 20.00 +20.0 20.07 -22.8 17.1 23.9 28.2 14 0 Alarm State:  0
Sat Sep 24 16:22:48 PDT 2022 ON: 20.00 +20.0 20.05 -21.7 18.5 22.8 28.3 14 0 Alarm State:  0
Sat Sep 24 16:21:47 PDT 2022 ON: 20.01 +20.0 20.05 -21.4 18.9 22.5 28.1 16 0 Alarm State:  0
Sat Sep 24 16:20:45 PDT 2022 ON: 20.00 +20.0 20.04 -21.4 18.9 22.5 28.2 16 0 Alarm State:  0
Sat Sep 24 16:19:44 PDT 2022 ON: 20.02 +20.0 20.08 -22.9 17.0 24.0 28.0 16 0 Alarm State:  0
Sat Sep 24 16:18:42 PDT 2022 ON: 20.01 +20.0 20.08 -22.9 16.9 24.1 28.1 16 0 Alarm State:  0
Sat Sep 24 16:17:41 PDT 2022 ON: 20.00 +20.0 20.07 -23.3 16.5 24.4 28.1 14 0 Alarm State:  0
Sat Sep 24 16:16:39 PDT 2022 ON: 20.00 +20.0 20.06 -22.7 17.2 23.9 28.2 14 0 Alarm State:  0
Sat Sep 24 16:15:38 PDT 2022 ON: 19.99 +20.0 20.03 -21.7 18.5 22.8 28.3 14 0 Alarm State:  0
Sat Sep 24 16:14:36 PDT 2022 ON: 20.02 +20.0 20.06 -21.7 18.5 22.8 28.1 17 0 Alarm State:  0
Sat Sep 24 16:13:35 PDT 2022 ON: 20.01 +20.0 20.09 -23.1 16.7 24.2 28.0 16 0 Alarm State:  0
Sat Sep 24 16:12:33 PDT 2022 ON: 20.00 +20.0 20.05 -22.3 17.8 23.4 28.3 15 0 Alarm State:  0
Sat Sep 24 16:11:32 PDT 2022 ON: 20.01 +20.0 20.06 -22.1 18.0 23.2 28.1 15 0 Alarm State:  0
Sat Sep 24 16:10:30 PDT 2022 ON: 20.01 +20.0 20.06 -21.2 19.1 22.4 28.3 17 0 Alarm State:  0
Sat Sep 24 16:09:29 PDT 2022 ON: 19.99 +20.0 20.04 -21.6 18.6 22.8 28.3 14 0 Alarm State:  0
Sat Sep 24 16:08:27 PDT 2022 ON: 19.99 +20.0 20.04 -22.2 17.9 23.3 28.2 14 0 Alarm State:  0
Sat Sep 24 16:07:26 PDT 2022 ON: 20.00 +20.0 20.04 -21.5 18.8 22.6 28.2 16 0 Alarm State:  0
Sat Sep 24 16:06:24 PDT 2022 ON: 20.01 +20.0 20.07 -22.3 17.7 23.5 28.2 16 0 Alarm State:  0
Sat Sep 24 16:05:23 PDT 2022 ON: 20.01 +20.0 20.06 -22.5 17.5 23.6 28.2 14 0 Alarm State:  0
Sat Sep 24 16:04:21 PDT 2022 ON: 19.99 +20.0 20.03 -21.6 18.6 22.8 28.2 14 0 Alarm State:  0
Sat Sep 24 16:03:20 PDT 2022 ON: 20.00 +20.0 20.03 -21.0 19.4 22.2 28.3 16 0 Alarm State:  0
Sat Sep 24 16:02:18 PDT 2022 ON: 20.01 +20.0 20.06 -21.7 18.5 22.8 28.1 17 0 Alarm State:  0
Sat Sep 24 16:01:17 PDT 2022 ON: 20.01 +20.0 20.06 -22.3 17.7 23.5 28.0 16 0 Alarm State:  0
Sat Sep 24 16:00:15 PDT 2022 ON: 20.01 +20.0 20.07 -22.3 17.7 23.5 28.1 16 0 Alarm State:  0
Sat Sep 24 15:59:14 PDT 2022 ON: 20.01 +20.0 20.08 -22.8 17.1 23.9 28.1 16 0 Alarm State:  0
Sat Sep 24 15:58:12 PDT 2022 ON: 20.01 +20.0 20.07 -22.9 17.0 24.0 28.2 15 0 Alarm State:  0
Sat Sep 24 15:57:11 PDT 2022 ON: 20.00 +20.0 20.06 -23.1 16.7 24.2 28.2 14 0 Alarm State:  0
Sat Sep 24 15:56:09 PDT 2022 ON: 20.00 +20.0 20.05 -22.1 18.0 23.2 28.3 14 0 Alarm State:  0
Sat Sep 24 15:55:08 PDT 2022 ON: 19.99 +20.0 20.03 -21.7 18.5 22.8 28.3 14 0 Alarm State:  0
Sat Sep 24 15:54:06 PDT 2022 ON: 20.01 +20.0 20.07 -21.8 18.4 22.9 28.1 17 0 Alarm State:  0
Sat Sep 24 15:53:05 PDT 2022 ON: 20.01 +20.0 20.08 -22.9 16.9 24.1 28.1 16 0 Alarm State:  0
Sat Sep 24 15:52:03 PDT 2022 ON: 20.01 +20.0 20.08 -23.5 16.2 24.7 28.1 15 0 Alarm State:  0
Sat Sep 24 15:51:02 PDT 2022 ON: 20.00 +20.0 20.06 -22.5 17.5 23.6 28.3 15 0 Alarm State:  0
Sat Sep 24 15:50:00 PDT 2022 ON: 20.00 +20.0 20.07 -22.8 17.1 23.9 28.3 15 0 Alarm State:  0
Sat Sep 24 15:48:59 PDT 2022 ON: 20.00 +20.0 20.06 -22.4 17.6 23.6 28.2 14 0 Alarm State:  0
Sat Sep 24 15:47:57 PDT 2022 ON: 20.01 +20.0 20.06 -22.1 18.0 23.2 28.2 17 0 Alarm State:  0
Sat Sep 24 15:46:56 PDT 2022 ON: 20.01 +20.0 20.09 -23.3 16.4 24.5 28.1 16 0 Alarm State:  0
Sat Sep 24 15:45:54 PDT 2022 ON: 20.01 +20.0 20.07 -22.9 17.0 24.0 28.2 14 0 Alarm State:  0
Sat Sep 24 15:44:53 PDT 2022 ON: 20.00 +20.0 20.05 -21.6 18.6 22.8 28.1 14 0 Alarm State:  0
Sat Sep 24 15:43:51 PDT 2022 ON: 20.00 +20.0 20.06 -22.0 18.1 23.2 28.2 17 0 Alarm State:  0
Sat Sep 24 15:42:50 PDT 2022 ON: 20.01 +20.0 20.07 -22.9 17.0 24.0 28.2 15 0 Alarm State:  0
Sat Sep 24 15:41:48 PDT 2022 ON: 20.00 +20.0 20.04 -21.3 19.0 22.5 28.3 14 0 Alarm State:  0
Sat Sep 24 15:40:47 PDT 2022 ON: 20.00 +20.0 20.05 -22.0 18.1 23.2 28.1 15 0 Alarm State:  0
Sat Sep 24 15:39:45 PDT 2022 ON: 20.01 +20.0 20.06 -21.9 18.2 23.1 28.1 17 0 Alarm State:  0
Sat Sep 24 15:38:44 PDT 2022 ON: 20.01 +20.0 20.07 -22.7 17.2 23.9 28.2 16 0 Alarm State:  0
Sat Sep 24 15:37:42 PDT 2022 ON: 20.01 +20.0 20.09 -23.3 16.5 24.4 28.1 15 0 Alarm State:  0
Sat Sep 24 15:36:41 PDT 2022 ON: 19.99 +20.0 20.05 -22.3 17.7 23.5 28.3 13 0 Alarm State:  0
Sat Sep 24 15:35:39 PDT 2022 ON: 20.00 +20.0 20.05 -22.3 17.8 23.4 28.3 14 0 Alarm State:  0
Sat Sep 24 15:34:38 PDT 2022 ON: 20.00 +20.0 20.05 -21.9 18.2 23.1 28.3 14 0 Alarm State:  0
Sat Sep 24 15:33:36 PDT 2022 ON: 20.00 +20.0 20.04 -21.3 19.0 22.5 28.2 14 0 Alarm State:  0
Sat Sep 24 15:32:34 PDT 2022 ON: 20.00 +20.0 20.07 -22.7 17.2 23.9 28.1 16 0 Alarm State:  0
Sat Sep 24 15:31:33 PDT 2022 ON: 20.01 +20.0 20.06 -21.9 18.2 23.1 28.1 15 0 Alarm State:  0
Sat Sep 24 15:30:31 PDT 2022 ON: 20.01 +20.0 20.07 -22.7 17.2 23.9 28.1 16 0 Alarm State:  0
Sat Sep 24 15:29:30 PDT 2022 ON: 20.00 +20.0 20.08 -22.7 17.2 23.9 28.1 16 0 Alarm State:  0
Sat Sep 24 15:28:28 PDT 2022 ON: 20.01 +20.0 20.09 -23.1 16.7 24.2 28.0 16 0 Alarm State:  0
Sat Sep 24 15:27:27 PDT 2022 ON: 20.01 +20.0 20.07 -22.5 17.5 23.6 28.1 16 0 Alarm State:  0
Sat Sep 24 15:26:25 PDT 2022 ON: 20.01 +20.0 20.09 -23.4 16.3 24.6 28.1 16 0 Alarm State:  0
Sat Sep 24 15:25:24 PDT 2022 ON: 20.00 +20.0 20.08 -22.9 16.9 24.1 28.2 15 0 Alarm State:  0
Sat Sep 24 15:24:22 PDT 2022 ON: 20.00 +20.0 20.05 -22.0 18.1 23.2 28.2 14 0 Alarm State:  0
Sat Sep 24 15:23:21 PDT 2022 ON: 20.01 +20.0 20.05 -21.5 18.8 22.6 28.2 16 0 Alarm State:  0
Sat Sep 24 15:22:19 PDT 2022 ON: 20.01 +20.0 20.07 -22.4 17.6 23.6 28.2 16 0 Alarm State:  0
Sat Sep 24 15:21:18 PDT 2022 ON: 20.01 +20.0 20.08 -23.4 16.3 24.6 28.1 15 0 Alarm State:  0
Sat Sep 24 15:20:16 PDT 2022 ON: 20.00 +20.0 20.04 -21.5 18.7 22.7 28.3 14 0 Alarm State:  0
Sat Sep 24 15:19:15 PDT 2022 ON: 20.00 +20.0 20.03 -21.4 18.9 22.5 28.3 14 0 Alarm State:  0
Sat Sep 24 15:18:13 PDT 2022 ON: 20.01 +20.0 20.04 -21.7 18.5 22.8 28.2 16 0 Alarm State:  0
Sat Sep 24 15:17:12 PDT 2022 ON: 20.02 +20.0 20.08 -22.8 17.1 23.9 28.1 16 0 Alarm State:  0
Sat Sep 24 15:16:10 PDT 2022 ON: 20.01 +20.0 20.08 -22.6 17.3 23.8 28.1 16 0 Alarm State:  0
Sat Sep 24 15:15:09 PDT 2022 ON: 20.01 +20.0 20.08 -23.5 16.2 24.7 28.1 15 0 Alarm State:  0
Sat Sep 24 15:14:07 PDT 2022 ON: 20.00 +20.0 20.05 -22.5 17.5 23.6 28.3 14 0 Alarm State:  0
Sat Sep 24 15:13:06 PDT 2022 ON: 20.00 +20.0 20.04 -22.0 18.1 23.2 28.3 14 0 Alarm State:  0
Sat Sep 24 15:12:04 PDT 2022 ON: 20.01 +20.0 20.05 -21.2 19.1 22.4 28.2 15 0 Alarm State:  0
Sat Sep 24 15:11:03 PDT 2022 ON: 20.01 +20.0 20.06 -21.4 18.9 22.5 28.2 16 0 Alarm State:  0
Sat Sep 24 15:10:01 PDT 2022 ON: 20.01 +20.0 20.08 -23.3 16.5 24.4 28.1 16 0 Alarm State:  0
Sat Sep 24 15:09:00 PDT 2022 ON: 20.00 +20.0 20.04 -21.7 18.5 22.8 28.3 14 0 Alarm State:  0
Sat Sep 24 15:07:58 PDT 2022 ON: 20.01 +20.0 20.07 -22.9 17.0 24.0 28.1 16 0 Alarm State:  0
Sat Sep 24 15:06:57 PDT 2022 ON: 20.01 +20.0 20.09 -23.3 16.4 24.5 28.0 16 0 Alarm State:  0
Sat Sep 24 15:05:55 PDT 2022 ON: 20.02 +20.0 20.08 -23.1 16.7 24.2 28.0 16 0 Alarm State:  0
Sat Sep 24 15:04:54 PDT 2022 ON: 20.01 +20.0 20.08 -22.9 17.0 24.0 28.2 16 0 Alarm State:  0
Sat Sep 24 15:03:52 PDT 2022 ON: 20.00 +20.0 20.04 -21.2 19.2 22.3 28.3 14 0 Alarm State:  0
Sat Sep 24 15:02:51 PDT 2022 ON: 20.00 +20.0 20.05 -21.9 18.2 23.1 28.2 14 0 Alarm State:  0
Sat Sep 24 15:01:49 PDT 2022 ON: 20.01 +20.0 20.06 -21.8 18.3 23.0 28.1 17 0 Alarm State:  0
Sat Sep 24 15:00:48 PDT 2022 ON: 20.00 +20.0 20.06 -23.0 16.8 24.2 28.2 14 0 Alarm State:  0
Sat Sep 24 14:59:46 PDT 2022 ON: 20.00 +20.0 20.06 -22.2 17.9 23.3 28.2 14 0 Alarm State:  0
Sat Sep 24 14:58:45 PDT 2022 ON: 19.99 +20.0 20.04 -21.1 19.3 22.2 28.3 15 0 Alarm State:  0
Sat Sep 24 14:57:43 PDT 2022 ON: 20.01 +20.0 20.06 -22.5 17.5 23.6 28.2 16 0 Alarm State:  0
Sat Sep 24 14:56:42 PDT 2022 ON: 20.00 +20.0 20.05 -21.8 18.3 23.0 28.3 14 0 Alarm State:  0
Sat Sep 24 14:55:40 PDT 2022 ON: 20.01 +20.0 20.07 -22.7 17.2 23.9 28.1 15 0 Alarm State:  0
Sat Sep 24 14:54:39 PDT 2022 ON: 20.01 +20.0 20.08 -23.0 16.8 24.2 28.1 16 0 Alarm State:  0
Sat Sep 24 14:53:37 PDT 2022 ON: 20.00 +20.0 20.07 -23.4 16.3 24.6 28.1 15 0 Alarm State:  0
Sat Sep 24 14:52:36 PDT 2022 ON: 20.00 +20.0 20.05 -22.3 17.8 23.4 28.3 14 0 Alarm State:  0
Sat Sep 24 14:51:34 PDT 2022 ON: 20.01 +20.0 20.05 -21.8 18.3 23.0 28.1 17 0 Alarm State:  0
Sat Sep 24 14:50:33 PDT 2022 ON: 20.01 +20.0 20.07 -21.8 18.4 22.9 28.2 17 0 Alarm State:  0
Sat Sep 24 14:49:31 PDT 2022 ON: 20.01 +20.0 20.08 -23.3 16.4 24.5 28.1 16 0 Alarm State:  0
Sat Sep 24 14:48:30 PDT 2022 ON: 20.00 +20.0 20.05 -22.1 18.0 23.2 28.3 14 0 Alarm State:  0
Sat Sep 24 14:47:28 PDT 2022 ON: 19.99 +20.0 20.05 -21.6 18.6 22.8 28.3 14 0 Alarm State:  0
Sat Sep 24 14:46:27 PDT 2022 ON: 20.00 +20.0 20.04 -21.5 18.8 22.6 28.3 15 0 Alarm State:  0
Sat Sep 24 14:45:25 PDT 2022 ON: 20.01 +20.0 20.06 -22.2 17.9 23.3 28.1 17 0 Alarm State:  0
Sat Sep 24 14:44:24 PDT 2022 ON: 20.01 +20.0 20.07 -22.6 17.4 23.7 28.2 15 0 Alarm State:  0
Sat Sep 24 14:43:22 PDT 2022 ON: 19.99 +20.0 20.05 -21.7 18.5 22.8 28.3 15 0 Alarm State:  0
Sat Sep 24 14:42:21 PDT 2022 ON: 20.00 +20.0 20.05 -22.2 17.9 23.3 28.3 14 0 Alarm State:  0
Sat Sep 24 14:41:19 PDT 2022 ON: 20.00 +20.0 20.04 -21.2 19.1 22.4 28.3 15 0 Alarm State:  0
Sat Sep 24 14:40:18 PDT 2022 ON: 20.00 +20.0 20.06 -23.0 16.8 24.2 28.1 15 0 Alarm State:  0
Sat Sep 24 14:39:16 PDT 2022 ON: 19.99 +20.0 20.06 -22.4 17.6 23.6 28.3 14 0 Alarm State:  0
Sat Sep 24 14:38:14 PDT 2022 ON: 20.00 +20.0 20.05 -22.0 18.1 23.2 28.3 14 0 Alarm State:  0
Sat Sep 24 14:37:13 PDT 2022 ON: 20.01 +20.0 20.06 -22.2 17.9 23.3 28.1 16 0 Alarm State:  0
Sat Sep 24 14:36:11 PDT 2022 ON: 20.01 +20.0 20.06 -22.9 17.0 24.0 28.2 13 0 Alarm State:  0
Sat Sep 24 14:35:10 PDT 2022 ON: 19.99 +20.0 20.05 -21.9 18.2 23.1 28.3 14 0 Alarm State:  0
Sat Sep 24 14:34:08 PDT 2022 ON: 20.00 +20.0 20.04 -21.1 19.3 22.2 28.3 15 0 Alarm State:  0
Sat Sep 24 14:33:07 PDT 2022 ON: 20.01 +20.0 20.05 -21.2 19.1 22.4 28.2 17 0 Alarm State:  0
Sat Sep 24 14:32:05 PDT 2022 ON: 20.01 +20.0 20.06 -22.8 17.1 23.9 28.2 14 0 Alarm State:  0
Sat Sep 24 14:31:04 PDT 2022 ON: 20.00 +20.0 20.06 -22.3 17.7 23.5 28.2 14 0 Alarm State:  0
Sat Sep 24 14:30:02 PDT 2022 ON: 20.01 +20.0 20.07 -22.4 17.6 23.6 28.2 17 0 Alarm State:  0
Sat Sep 24 14:29:01 PDT 2022 ON: 20.00 +20.0 20.06 -22.8 17.1 23.9 28.2 15 0 Alarm State:  0
Sat Sep 24 14:27:59 PDT 2022 ON: 20.00 +20.0 20.04 -22.2 17.9 23.3 28.3 14 0 Alarm State:  0
Sat Sep 24 14:26:58 PDT 2022 ON: 20.00 +20.0 20.05 -22.3 17.8 23.4 28.3 14 0 Alarm State:  0
Sat Sep 24 14:25:56 PDT 2022 ON: 20.00 +20.0 20.04 -21.3 19.0 22.5 28.3 15 0 Alarm State:  0
Sat Sep 24 14:24:55 PDT 2022 ON: 20.01 +20.0 20.05 -21.3 19.0 22.5 28.1 16 0 Alarm State:  0
Sat Sep 24 14:23:53 PDT 2022 ON: 20.01 +20.0 20.05 -21.9 18.2 23.1 28.2 16 0 Alarm State:  0
Sat Sep 24 14:22:52 PDT 2022 ON: 20.02 +20.0 20.08 -22.6 17.4 23.7 28.1 16 0 Alarm State:  0
Sat Sep 24 14:21:50 PDT 2022 ON: 20.00 +20.0 20.08 -22.6 17.3 23.8 28.2 16 0 Alarm State:  0
Sat Sep 24 14:20:49 PDT 2022 ON: 20.01 +20.0 20.07 -22.7 17.2 23.9 28.3 14 0 Alarm State:  0
Sat Sep 24 14:19:47 PDT 2022 ON: 20.00 +20.0 20.06 -22.9 17.0 24.0 28.2 13 0 Alarm State:  0
Sat Sep 24 14:18:46 PDT 2022 ON: 20.00 +20.0 20.04 -21.3 19.0 22.5 28.3 15 0 Alarm State:  0
Sat Sep 24 14:17:44 PDT 2022 ON: 20.01 +20.0 20.07 -21.6 18.6 22.8 28.1 17 0 Alarm State:  0
Sat Sep 24 14:16:43 PDT 2022 ON: 20.02 +20.0 20.06 -21.8 18.3 23.0 28.1 16 0 Alarm State:  0
Sat Sep 24 14:15:41 PDT 2022 ON: 20.02 +20.0 20.09 -23.2 16.6 24.3 28.0 16 0 Alarm State:  0
Sat Sep 24 14:14:40 PDT 2022 ON: 20.00 +20.0 20.07 -22.6 17.3 23.8 28.3 14 0 Alarm State:  0
Sat Sep 24 14:13:38 PDT 2022 ON: 20.00 +20.0 20.04 -21.4 18.9 22.5 28.3 15 0 Alarm State:  0
Sat Sep 24 14:12:37 PDT 2022 ON: 20.01 +20.0 20.05 -21.5 18.8 22.6 28.1 16 0 Alarm State:  0
Sat Sep 24 14:11:35 PDT 2022 ON: 20.01 +20.0 20.05 -21.5 18.8 22.6 28.2 16 0 Alarm State:  0
Sat Sep 24 14:10:34 PDT 2022 ON: 20.01 +20.0 20.07 -22.3 17.8 23.4 28.1 16 0 Alarm State:  0
Sat Sep 24 14:09:32 PDT 2022 ON: 20.01 +20.0 20.06 -21.5 18.7 22.7 28.2 16 0 Alarm State:  0
Sat Sep 24 14:08:31 PDT 2022 ON: 20.01 +20.0 20.08 -22.6 17.3 23.8 28.1 16 0 Alarm State:  0
Sat Sep 24 14:07:29 PDT 2022 ON: 20.02 +20.0 20.08 -22.8 17.1 23.9 28.1 16 0 Alarm State:  0
Sat Sep 24 14:06:28 PDT 2022 ON: 20.02 +20.0 20.08 -23.1 16.7 24.2 28.1 16 0 Alarm State:  0
Sat Sep 24 14:05:26 PDT 2022 ON: 20.01 +20.0 20.05 -21.6 18.6 22.8 28.2 15 0 Alarm State:  0
Sat Sep 24 14:04:25 PDT 2022 ON: 20.00 +20.0 20.05 -21.1 19.3 22.2 28.3 15 0 Alarm State:  0
Sat Sep 24 14:03:23 PDT 2022 ON: 20.01 +20.0 20.07 -22.8 17.1 23.9 28.2 16 0 Alarm State:  0
Sat Sep 24 14:02:22 PDT 2022 ON: 20.00 +20.0 20.07 -23.3 16.4 24.5 28.2 15 0 Alarm State:  0
Sat Sep 24 14:01:20 PDT 2022 ON: 20.01 +20.0 20.07 -22.9 17.0 24.0 28.1 15 0 Alarm State:  0
Sat Sep 24 14:00:19 PDT 2022 ON: 20.00 +20.0 20.05 -21.9 18.2 23.1 28.3 14 0 Alarm State:  0
Sat Sep 24 13:59:17 PDT 2022 ON: 19.99 +20.0 20.03 -21.2 19.1 22.4 28.3 15 0 Alarm State:  0
Sat Sep 24 13:58:16 PDT 2022 ON: 20.01 +20.0 20.05 -21.1 19.3 22.2 28.3 16 0 Alarm State:  0
Sat Sep 24 13:57:14 PDT 2022 ON: 20.01 +20.0 20.07 -22.2 17.9 23.3 28.1 17 0 Alarm State:  0
Sat Sep 24 13:56:13 PDT 2022 ON: 20.00 +20.0 20.08 -23.3 16.4 24.5 28.1 15 0 Alarm State:  0
Sat Sep 24 13:55:11 PDT 2022 ON: 20.00 +20.0 20.05 -21.5 18.7 22.7 28.3 14 0 Alarm State:  0
Sat Sep 24 13:54:10 PDT 2022 ON: 20.01 +20.0 20.05 -21.5 18.7 22.7 28.3 16 0 Alarm State:  0
Sat Sep 24 13:53:08 PDT 2022 ON: 19.99 +20.0 20.05 -22.3 17.8 23.4 28.2 14 0 Alarm State:  0
Sat Sep 24 13:52:07 PDT 2022 ON: 20.01 +20.0 20.06 -21.8 18.3 23.0 28.1 15 0 Alarm State:  0
Sat Sep 24 13:51:05 PDT 2022 ON: 20.00 +20.0 20.05 -21.8 18.4 22.9 28.2 16 0 Alarm State:  0
Sat Sep 24 13:50:04 PDT 2022 ON: 20.01 +20.0 20.07 -22.8 17.1 23.9 28.2 15 0 Alarm State:  0
Sat Sep 24 13:49:02 PDT 2022 ON: 20.00 +20.0 20.08 -22.9 16.9 24.1 28.2 15 0 Alarm State:  0
Sat Sep 24 13:48:01 PDT 2022 ON: 20.00 +20.0 20.05 -21.5 18.7 22.7 28.3 14 0 Alarm State:  0
Sat Sep 24 13:46:59 PDT 2022 ON: 20.00 +20.0 20.05 -21.9 18.2 23.1 28.1 15 0 Alarm State:  0
Sat Sep 24 13:45:58 PDT 2022 ON: 20.01 +20.0 20.06 -22.1 18.0 23.2 28.2 17 0 Alarm State:  0
Sat Sep 24 13:44:56 PDT 2022 ON: 20.01 +20.0 20.07 -22.9 17.0 24.0 28.2 15 0 Alarm State:  0
Sat Sep 24 13:43:55 PDT 2022 ON: 20.00 +20.0 20.05 -22.1 18.0 23.2 28.2 14 0 Alarm State:  0
Sat Sep 24 13:42:53 PDT 2022 ON: 20.00 +20.0 20.03 -21.1 19.3 22.2 28.3 15 0 Alarm State:  0
Sat Sep 24 13:41:52 PDT 2022 ON: 20.00 +20.0 20.06 -22.6 17.4 23.7 28.1 16 0 Alarm State:  0
Sat Sep 24 13:40:50 PDT 2022 ON: 20.01 +20.0 20.07 -23.2 16.6 24.3 28.2 15 0 Alarm State:  0
Sat Sep 24 13:39:48 PDT 2022 ON: 20.00 +20.0 20.07 -22.3 17.7 23.5 28.3 15 0 Alarm State:  0
Sat Sep 24 13:38:47 PDT 2022 ON: 20.00 +20.0 20.03 -21.3 19.0 22.5 28.2 15 0 Alarm State:  0
Sat Sep 24 13:37:45 PDT 2022 ON: 20.01 +20.0 20.05 -22.3 17.8 23.4 28.0 16 0 Alarm State:  0
Sat Sep 24 13:36:44 PDT 2022 ON: 20.00 +20.0 20.07 -22.8 17.1 23.9 28.2 16 0 Alarm State:  0
Sat Sep 24 13:35:42 PDT 2022 ON: 20.00 +20.0 20.05 -22.0 18.1 23.2 28.3 14 0 Alarm State:  0
Sat Sep 24 13:34:41 PDT 2022 ON: 20.00 +20.0 20.03 -21.3 19.0 22.5 28.3 15 0 Alarm State:  0
Sat Sep 24 13:33:39 PDT 2022 ON: 20.00 +20.0 20.05 -21.9 18.2 23.1 28.1 15 0 Alarm State:  0
Sat Sep 24 13:32:38 PDT 2022 ON: 20.00 +20.0 20.06 -22.7 17.2 23.9 28.3 16 0 Alarm State:  0
Sat Sep 24 13:31:36 PDT 2022 ON: 20.00 +20.0 20.05 -21.5 18.7 22.7 28.3 14 0 Alarm State:  0
Sat Sep 24 13:30:35 PDT 2022 ON: 20.01 +20.0 20.04 -21.0 19.4 22.2 28.3 15 0 Alarm State:  0
Sat Sep 24 13:29:33 PDT 2022 ON: 20.00 +20.0 20.04 -21.5 18.7 22.7 28.2 15 0 Alarm State:  0
Sat Sep 24 13:28:32 PDT 2022 ON: 20.00 +20.0 20.07 -22.3 17.7 23.5 28.1 17 0 Alarm State:  0
Sat Sep 24 13:27:30 PDT 2022 ON: 20.01 +20.0 20.08 -22.9 16.9 24.1 28.1 16 0 Alarm State:  0
Sat Sep 24 13:26:29 PDT 2022 ON: 20.01 +20.0 20.07 -22.6 17.3 23.8 28.3 16 0 Alarm State:  0
Sat Sep 24 13:25:27 PDT 2022 ON: 20.00 +20.0 20.06 -23.1 16.7 24.2 28.2 14 0 Alarm State:  0
Sat Sep 24 13:24:26 PDT 2022 ON: 20.00 +20.0 20.06 -22.6 17.4 23.7 28.2 14 0 Alarm State:  0
Sat Sep 24 13:23:24 PDT 2022 ON: 20.01 +20.0 20.05 -21.0 19.4 22.2 28.3 15 0 Alarm State:  0
Sat Sep 24 13:22:23 PDT 2022 ON: 20.00 +20.0 20.05 -22.4 17.6 23.6 28.1 15 0 Alarm State:  0
Sat Sep 24 13:21:21 PDT 2022 ON: 20.00 +20.0 20.04 -21.8 18.3 23.0 28.3 16 0 Alarm State:  0
Sat Sep 24 13:20:20 PDT 2022 ON: 20.00 +20.0 20.07 -22.9 17.0 24.0 28.2 14 0 Alarm State:  0
Sat Sep 24 13:19:18 PDT 2022 ON: 20.00 +20.0 20.05 -21.5 18.8 22.6 28.3 15 0 Alarm State:  0
Sat Sep 24 13:18:17 PDT 2022 ON: 20.01 +20.0 20.05 -21.2 19.1 22.4 28.2 15 0 Alarm State:  0
Sat Sep 24 13:17:15 PDT 2022 ON: 20.00 +20.0 20.06 -22.3 17.7 23.5 28.1 17 0 Alarm State:  0
Sat Sep 24 13:16:14 PDT 2022 ON: 20.01 +20.0 20.06 -21.9 18.2 23.1 28.1 16 0 Alarm State:  0
Sat Sep 24 13:15:12 PDT 2022 ON: 20.01 +20.0 20.07 -21.8 18.4 22.9 28.1 17 0 Alarm State:  0
Sat Sep 24 13:14:11 PDT 2022 ON: 20.02 +20.0 20.07 -22.2 17.9 23.3 28.2 16 0 Alarm State:  0
Sat Sep 24 13:13:09 PDT 2022 ON: 20.01 +20.0 20.04 -21.7 18.5 22.8 28.2 14 0 Alarm State:  0
Sat Sep 24 13:12:08 PDT 2022 ON: 20.00 +20.0 20.07 -22.5 17.5 23.6 28.2 16 0 Alarm State:  0
Sat Sep 24 13:11:06 PDT 2022 ON: 20.00 +20.0 20.05 -21.8 18.4 22.9 28.3 15 0 Alarm State:  0
Sat Sep 24 13:10:05 PDT 2022 ON: 20.01 +20.0 20.05 -21.8 18.3 23.0 28.1 15 0 Alarm State:  0
Sat Sep 24 13:09:03 PDT 2022 ON: 20.00 +20.0 20.06 -22.6 17.3 23.8 28.3 15 0 Alarm State:  0
Sat Sep 24 13:08:02 PDT 2022 ON: 20.01 +20.0 20.05 -21.8 18.4 22.9 28.1 15 0 Alarm State:  0
Sat Sep 24 13:07:00 PDT 2022 ON: 20.01 +20.0 20.06 -21.5 18.7 22.7 28.2 17 0 Alarm State:  0
Sat Sep 24 13:05:59 PDT 2022 ON: 20.02 +20.0 20.08 -23.3 16.5 24.4 28.1 15 0 Alarm State:  0
Sat Sep 24 13:04:57 PDT 2022 ON: 20.01 +20.0 20.09 -23.6 16.1 24.7 28.1 15 0 Alarm State:  0
Sat Sep 24 13:03:56 PDT 2022 ON: 20.01 +20.0 20.08 -23.1 16.7 24.2 28.1 15 0 Alarm State:  0
Sat Sep 24 13:02:54 PDT 2022 ON: 20.00 +20.0 20.05 -21.3 19.0 22.5 28.3 15 0 Alarm State:  0
Sat Sep 24 13:01:53 PDT 2022 ON: 20.01 +20.0 20.05 -21.6 18.6 22.8 28.1 17 0 Alarm State:  0
Sat Sep 24 13:00:51 PDT 2022 ON: 20.01 +20.0 20.07 -22.3 17.7 23.5 28.1 16 0 Alarm State:  0
Sat Sep 24 12:59:50 PDT 2022 ON: 20.01 +20.0 20.07 -22.8 17.1 23.9 28.2 15 0 Alarm State:  0
Sat Sep 24 12:58:48 PDT 2022 ON: 20.00 +20.0 20.07 -22.9 17.0 24.0 28.2 14 0 Alarm State:  0
Sat Sep 24 12:57:47 PDT 2022 ON: 19.99 +20.0 20.05 -22.5 17.5 23.6 28.3 14 0 Alarm State:  0
Sat Sep 24 12:56:45 PDT 2022 ON: 20.00 +20.0 20.05 -21.8 18.3 23.0 28.2 14 0 Alarm State:  0
Sat Sep 24 12:55:44 PDT 2022 ON: 20.01 +20.0 20.05 -21.5 18.8 22.6 28.2 16 0 Alarm State:  0
Sat Sep 24 12:54:42 PDT 2022 ON: 20.01 +20.0 20.07 -22.5 17.5 23.6 28.1 17 0 Alarm State:  0
Sat Sep 24 12:53:40 PDT 2022 ON: 20.00 +20.0 20.06 -21.8 18.3 23.0 28.3 14 0 Alarm State:  0
Sat Sep 24 12:52:38 PDT 2022 ON: 20.00 +20.0 20.05 -21.9 18.2 23.1 28.1 14 0 Alarm State:  0
Sat Sep 24 12:51:37 PDT 2022 ON: 20.00 +20.0 20.04 -21.7 18.5 22.8 28.2 16 0 Alarm State:  0
Sat Sep 24 12:50:35 PDT 2022 ON: 20.01 +20.0 20.05 -21.1 19.3 22.2 28.3 17 0 Alarm State:  0
Sat Sep 24 12:49:34 PDT 2022 ON: 20.01 +20.0 20.07 -22.6 17.4 23.7 28.2 16 0 Alarm State:  0
Sat Sep 24 12:48:32 PDT 2022 ON: 20.02 +20.0 20.08 -23.1 16.7 24.2 28.1 15 0 Alarm State:  0
Sat Sep 24 12:47:31 PDT 2022 ON: 20.00 +20.0 20.06 -22.6 17.3 23.8 28.1 14 0 Alarm State:  0
Sat Sep 24 12:46:29 PDT 2022 ON: 20.01 +20.0 20.07 -22.8 17.1 23.9 28.2 15 0 Alarm State:  0
Sat Sep 24 12:45:28 PDT 2022 ON: 19.99 +20.0 20.05 -21.8 18.3 23.0 28.3 14 0 Alarm State:  0
Sat Sep 24 12:44:26 PDT 2022 ON: 20.02 +20.0 20.08 -22.6 17.4 23.7 28.1 16 0 Alarm State:  0
Sat Sep 24 12:43:25 PDT 2022 ON: 20.00 +20.0 20.05 -21.8 18.4 22.9 28.3 14 0 Alarm State:  0
Sat Sep 24 12:42:23 PDT 2022 ON: 20.01 +20.0 20.05 -21.5 18.8 22.6 28.2 16 0 Alarm State:  0
Sat Sep 24 12:41:22 PDT 2022 ON: 20.01 +20.0 20.07 -22.6 17.4 23.7 28.1 16 0 Alarm State:  0
Sat Sep 24 12:40:20 PDT 2022 ON: 20.00 +20.0 20.08 -23.5 16.2 24.7 28.2 15 0 Alarm State:  0
Sat Sep 24 12:39:19 PDT 2022 ON: 20.00 +20.0 20.05 -22.0 18.1 23.2 28.2 14 0 Alarm State:  0
Sat Sep 24 12:38:17 PDT 2022 ON: 20.02 +20.0 20.06 -22.1 18.0 23.2 28.1 17 0 Alarm State:  0
Sat Sep 24 12:37:16 PDT 2022 ON: 20.01 +20.0 20.07 -22.6 17.3 23.8 28.1 16 0 Alarm State:  0
Sat Sep 24 12:36:14 PDT 2022 ON: 20.01 +20.0 20.08 -23.4 16.3 24.6 28.1 15 0 Alarm State:  0
Sat Sep 24 12:35:13 PDT 2022 ON: 20.00 +20.0 20.05 -22.2 17.9 23.3 28.3 14 0 Alarm State:  0
Sat Sep 24 12:34:11 PDT 2022 ON: 20.00 +20.0 20.03 -21.1 19.3 22.2 28.3 16 0 Alarm State:  0
Sat Sep 24 12:33:10 PDT 2022 ON: 20.01 +20.0 20.06 -22.0 18.1 23.2 28.1 17 0 Alarm State:  0
Sat Sep 24 12:32:08 PDT 2022 ON: 20.00 +20.0 20.07 -23.0 16.8 24.2 28.2 15 0 Alarm State:  0
Sat Sep 24 12:31:07 PDT 2022 ON: 20.01 +20.0 20.07 -23.0 16.8 24.2 28.2 14 0 Alarm State:  0
Sat Sep 24 12:29:55 PDT 2022 ON: 20.00 +20.0 20.04 -21.5 18.8 22.6 28.3 14 0 Alarm State:  0
Sat Sep 24 12:28:54 PDT 2022 ON: 20.00 +20.0 20.05 -21.1 19.3 22.2 28.3 15 0 Alarm State:  0
Sat Sep 24 12:27:52 PDT 2022 ON: 20.00 +20.0 20.08 -23.1 16.7 24.2 28.1 16 0 Alarm State:  0
Sat Sep 24 12:26:51 PDT 2022 ON: 20.00 +20.0 20.07 -23.0 16.8 24.2 28.2 14 0 Alarm State:  0
Sat Sep 24 12:25:49 PDT 2022 ON: 19.99 +20.0 20.04 -21.8 18.3 23.0 28.3 14 0 Alarm State:  0
Sat Sep 24 12:24:48 PDT 2022 ON: 20.01 +20.0 20.07 -22.5 17.5 23.6 28.1 16 0 Alarm State:  0
Sat Sep 24 12:23:46 PDT 2022 ON: 20.00 +20.0 20.07 -23.1 16.7 24.2 28.2 14 0 Alarm State:  0
Sat Sep 24 12:22:45 PDT 2022 ON: 20.00 +20.0 20.03 -21.2 19.2 22.3 28.3 15 0 Alarm State:  0
Sat Sep 24 12:21:43 PDT 2022 ON: 20.01 +20.0 20.05 -21.7 18.5 22.8 28.2 16 0 Alarm State:  0
Sat Sep 24 12:20:42 PDT 2022 ON: 20.01 +20.0 20.06 -22.0 18.1 23.2 28.2 15 0 Alarm State:  0
Sat Sep 24 12:19:40 PDT 2022 ON: 20.01 +20.0 20.07 -22.7 17.2 23.9 28.0 16 0 Alarm State:  0
Sat Sep 24 12:18:39 PDT 2022 ON: 20.01 +20.0 20.07 -22.9 17.0 24.0 28.1 16 0 Alarm State:  0
Sat Sep 24 12:17:37 PDT 2022 ON: 20.01 +20.0 20.07 -22.8 17.1 23.9 28.2 15 0 Alarm State:  0
Sat Sep 24 12:16:36 PDT 2022 ON: 20.00 +20.0 20.06 -22.4 17.6 23.6 28.3 13 0 Alarm State:  0
Sat Sep 24 12:15:34 PDT 2022 ON: 20.00 +20.0 20.04 -21.7 18.5 22.8 28.3 14 0 Alarm State:  0
Sat Sep 24 12:14:33 PDT 2022 ON: 20.00 +20.0 20.04 -21.3 19.0 22.5 28.2 15 0 Alarm State:  0
Sat Sep 24 12:13:31 PDT 2022 ON: 20.01 +20.0 20.06 -22.0 18.1 23.2 28.1 17 0 Alarm State:  0
Sat Sep 24 12:12:30 PDT 2022 ON: 20.01 +20.0 20.08 -23.0 16.8 24.2 28.1 16 0 Alarm State:  0
Sat Sep 24 12:11:28 PDT 2022 ON: 20.01 +20.0 20.07 -22.7 17.2 23.9 28.3 15 0 Alarm State:  0
Sat Sep 24 12:10:27 PDT 2022 ON: 20.00 +20.0 20.05 -22.3 17.7 23.5 28.3 14 0 Alarm State:  0
Sat Sep 24 12:09:25 PDT 2022 ON: 20.01 +20.0 20.04 -21.2 19.2 22.3 28.3 15 0 Alarm State:  0
Sat Sep 24 12:08:24 PDT 2022 ON: 20.01 +20.0 20.06 -22.3 17.7 23.5 28.1 15 0 Alarm State:  0
Sat Sep 24 12:07:22 PDT 2022 ON: 20.01 +20.0 20.07 -22.4 17.6 23.6 28.1 16 0 Alarm State:  0
Sat Sep 24 12:06:21 PDT 2022 ON: 19.99 +20.0 20.05 -22.3 17.8 23.4 28.3 14 0 Alarm State:  0
Sat Sep 24 12:05:19 PDT 2022 ON: 20.00 +20.0 20.04 -21.2 19.1 22.4 28.3 15 0 Alarm State:  0
Sat Sep 24 12:04:18 PDT 2022 ON: 20.01 +20.0 20.05 -21.7 18.5 22.8 28.1 16 0 Alarm State:  0
Sat Sep 24 12:03:16 PDT 2022 ON: 20.01 +20.0 20.06 -21.5 18.7 22.7 28.2 17 0 Alarm State:  0
Sat Sep 24 12:02:15 PDT 2022 ON: 20.01 +20.0 20.07 -22.6 17.4 23.7 28.1 16 0 Alarm State:  0
Sat Sep 24 12:01:13 PDT 2022 ON: 20.01 +20.0 20.07 -22.7 17.2 23.9 28.2 16 0 Alarm State:  0
Sat Sep 24 12:00:11 PDT 2022 ON: 20.01 +20.0 20.08 -23.3 16.5 24.4 28.1 15 0 Alarm State:  0
Sat Sep 24 11:59:10 PDT 2022 ON: 20.00 +20.0 20.06 -22.6 17.4 23.7 28.2 14 0 Alarm State:  0
Sat Sep 24 11:58:08 PDT 2022 ON: 19.99 +20.0 20.04 -21.2 19.1 22.4 28.3 15 0 Alarm State:  0
Sat Sep 24 11:57:07 PDT 2022 ON: 20.01 +20.0 20.06 -22.3 17.8 23.4 28.1 16 0 Alarm State:  0
Sat Sep 24 11:56:05 PDT 2022 ON: 20.01 +20.0 20.07 -22.9 17.0 24.0 28.1 16 0 Alarm State:  0
Sat Sep 24 11:55:04 PDT 2022 ON: 20.00 +20.0 20.06 -22.8 17.1 23.9 28.2 15 0 Alarm State:  0
Sat Sep 24 11:54:02 PDT 2022 ON: 20.00 +20.0 20.04 -21.3 19.0 22.5 28.3 15 0 Alarm State:  0
Sat Sep 24 11:53:01 PDT 2022 ON: 20.01 +20.0 20.06 -22.9 17.0 24.0 28.2 15 0 Alarm State:  0
Sat Sep 24 11:51:59 PDT 2022 ON: 20.00 +20.0 20.04 -21.5 18.8 22.6 28.3 15 0 Alarm State:  0
Sat Sep 24 11:50:58 PDT 2022 ON: 20.01 +20.0 20.06 -21.8 18.3 23.0 28.2 17 0 Alarm State:  0
Sat Sep 24 11:49:56 PDT 2022 ON: 20.00 +20.0 20.06 -22.8 17.1 23.9 28.2 13 0 Alarm State:  0
Sat Sep 24 11:48:55 PDT 2022 ON: 20.01 +20.0 20.06 -21.9 18.2 23.1 28.2 17 0 Alarm State:  0
Sat Sep 24 11:47:53 PDT 2022 ON: 20.00 +20.0 20.07 -23.0 16.8 24.2 28.2 15 0 Alarm State:  0
Sat Sep 24 11:46:52 PDT 2022 ON: 20.00 +20.0 20.04 -21.5 18.8 22.6 28.4 14 0 Alarm State:  0
Sat Sep 24 11:45:50 PDT 2022 ON: 20.01 +20.0 20.05 -21.4 18.9 22.5 28.3 15 0 Alarm State:  0
Sat Sep 24 11:44:49 PDT 2022 ON: 19.99 +20.0 20.03 -21.5 18.7 22.7 28.2 15 0 Alarm State:  0
Sat Sep 24 11:43:47 PDT 2022 ON: 20.00 +20.0 20.05 -21.5 18.8 22.6 28.3 17 0 Alarm State:  0
Sat Sep 24 11:42:46 PDT 2022 ON: 20.01 +20.0 20.07 -22.4 17.6 23.6 28.2 16 0 Alarm State:  0
Sat Sep 24 11:41:44 PDT 2022 ON: 20.01 +20.0 20.08 -23.7 15.9 24.9 28.1 15 0 Alarm State:  0
Sat Sep 24 11:40:43 PDT 2022 ON: 20.01 +20.0 20.08 -23.2 16.6 24.3 28.1 16 0 Alarm State:  0
Sat Sep 24 11:39:41 PDT 2022 ON: 20.02 +20.0 20.07 -22.9 16.9 24.1 28.0 16 0 Alarm State:  0
Sat Sep 24 11:38:40 PDT 2022 ON: 20.01 +20.0 20.06 -21.8 18.3 23.0 28.1 17 0 Alarm State:  0
Sat Sep 24 11:37:38 PDT 2022 ON: 20.01 +20.0 20.06 -21.8 18.3 23.0 28.1 16 0 Alarm State:  0
Sat Sep 24 11:36:37 PDT 2022 ON: 20.01 +20.0 20.06 -22.3 17.8 23.4 28.2 16 0 Alarm State:  0
Sat Sep 24 11:35:35 PDT 2022 ON: 20.01 +20.0 20.07 -23.3 16.5 24.4 28.2 15 0 Alarm State:  0
Sat Sep 24 11:34:34 PDT 2022 ON: 20.00 +20.0 20.06 -22.6 17.3 23.8 28.3 14 0 Alarm State:  0
Sat Sep 24 11:33:32 PDT 2022 ON: 20.01 +20.0 20.05 -21.8 18.4 22.9 28.2 15 0 Alarm State:  0
Sat Sep 24 11:32:31 PDT 2022 ON: 20.01 +20.0 20.07 -23.1 16.7 24.2 28.1 16 0 Alarm State:  0
Sat Sep 24 11:31:29 PDT 2022 ON: 20.01 +20.0 20.06 -22.9 17.0 24.0 28.2 16 0 Alarm State:  0
Sat Sep 24 11:30:28 PDT 2022 ON: 20.01 +20.0 20.08 -23.1 16.7 24.2 28.2 15 0 Alarm State:  0
Sat Sep 24 11:29:26 PDT 2022 ON: 20.00 +20.0 20.05 -21.9 18.2 23.1 28.2 14 0 Alarm State:  0
Sat Sep 24 11:28:25 PDT 2022 ON: 20.01 +20.0 20.07 -22.4 17.6 23.6 28.1 17 0 Alarm State:  0
Sat Sep 24 11:27:23 PDT 2022 ON: 20.02 +20.0 20.07 -22.5 17.5 23.6 28.0 16 0 Alarm State:  0
Sat Sep 24 11:26:22 PDT 2022 ON: 20.01 +20.0 20.07 -22.7 17.2 23.9 28.1 16 0 Alarm State:  0
Sat Sep 24 11:25:20 PDT 2022 ON: 20.01 +20.0 20.07 -22.9 16.9 24.1 28.2 16 0 Alarm State:  0
Sat Sep 24 11:24:19 PDT 2022 ON: 19.99 +20.0 20.04 -22.5 17.5 23.6 28.3 14 0 Alarm State:  0
Sat Sep 24 11:23:17 PDT 2022 ON: 20.01 +20.0 20.05 -21.8 18.4 22.9 28.2 14 0 Alarm State:  0
Sat Sep 24 11:22:16 PDT 2022 ON: 20.01 +20.0 20.06 -21.2 19.1 22.4 28.2 16 0 Alarm State:  0
Sat Sep 24 11:21:14 PDT 2022 ON: 20.00 +20.0 20.05 -21.7 18.5 22.8 28.2 16 0 Alarm State:  0
Sat Sep 24 11:20:13 PDT 2022 ON: 20.02 +20.0 20.07 -22.2 17.9 23.3 28.1 17 0 Alarm State:  0
Sat Sep 24 11:19:11 PDT 2022 ON: 20.01 +20.0 20.07 -22.6 17.4 23.7 28.2 14 0 Alarm State:  0
Sat Sep 24 11:18:10 PDT 2022 ON: 20.01 +20.0 20.05 -21.6 18.6 22.8 28.1 17 0 Alarm State:  0
Sat Sep 24 11:17:08 PDT 2022 ON: 20.02 +20.0 20.07 -21.8 18.4 22.9 28.1 17 0 Alarm State:  0
Sat Sep 24 11:16:07 PDT 2022 ON: 20.00 +20.0 20.04 -21.5 18.7 22.7 28.3 14 0 Alarm State:  0
Sat Sep 24 11:15:05 PDT 2022 ON: 20.00 +20.0 20.03 -21.2 19.1 22.4 28.3 16 0 Alarm State:  0
Sat Sep 24 11:14:04 PDT 2022 ON: 20.02 +20.0 20.06 -21.5 18.8 22.6 28.1 16 0 Alarm State:  0
Sat Sep 24 11:13:02 PDT 2022 ON: 20.02 +20.0 20.07 -21.9 18.2 23.1 28.1 16 0 Alarm State:  0
Sat Sep 24 11:12:01 PDT 2022 ON: 20.01 +20.0 20.05 -21.8 18.3 23.0 28.1 16 0 Alarm State:  0
Sat Sep 24 11:10:59 PDT 2022 ON: 20.00 +20.0 20.06 -22.1 18.0 23.2 28.2 17 0 Alarm State:  0
Sat Sep 24 11:09:58 PDT 2022 ON: 20.01 +20.0 20.07 -22.3 17.8 23.4 28.2 17 0 Alarm State:  0
Sat Sep 24 11:08:56 PDT 2022 ON: 20.00 +20.0 20.06 -22.6 17.4 23.7 28.3 13 0 Alarm State:  0
Sat Sep 24 11:07:55 PDT 2022 ON: 20.00 +20.0 20.03 -21.1 19.3 22.2 28.3 15 0 Alarm State:  0
Sat Sep 24 11:06:53 PDT 2022 ON: 20.00 +20.0 20.03 -21.2 19.1 22.4 28.2 16 0 Alarm State:  0
Sat Sep 24 11:05:52 PDT 2022 ON: 20.01 +20.0 20.08 -22.5 17.5 23.6 28.1 16 0 Alarm State:  0
Sat Sep 24 11:04:50 PDT 2022 ON: 20.00 +20.0 20.07 -22.6 17.4 23.7 28.3 15 0 Alarm State:  0
Sat Sep 24 11:03:49 PDT 2022 ON: 20.00 +20.0 20.05 -21.8 18.3 23.0 28.2 14 0 Alarm State:  0
Sat Sep 24 11:02:47 PDT 2022 ON: 20.01 +20.0 20.06 -22.5 17.5 23.6 28.1 16 0 Alarm State:  0
Sat Sep 24 11:01:46 PDT 2022 ON: 20.00 +20.0 20.07 -22.8 17.1 23.9 28.2 15 0 Alarm State:  0
Sat Sep 24 11:00:44 PDT 2022 ON: 19.99 +20.0 20.03 -21.3 19.0 22.5 28.3 14 0 Alarm State:  0
Sat Sep 24 10:59:42 PDT 2022 ON: 20.01 +20.0 20.04 -21.5 18.7 22.7 28.2 16 0 Alarm State:  0
Sat Sep 24 10:58:41 PDT 2022 ON: 20.01 +20.0 20.08 -23.7 16.0 24.8 28.1 15 0 Alarm State:  0
Sat Sep 24 10:57:39 PDT 2022 ON: 20.00 +20.0 20.08 -23.0 16.8 24.2 28.2 15 0 Alarm State:  0
Sat Sep 24 10:56:38 PDT 2022 ON: 20.00 +20.0 20.06 -21.8 18.4 22.9 28.2 14 0 Alarm State:  0
Sat Sep 24 10:55:36 PDT 2022 ON: 20.01 +20.0 20.07 -22.3 17.7 23.5 28.1 16 0 Alarm State:  0
Sat Sep 24 10:54:35 PDT 2022 ON: 20.00 +20.0 20.06 -22.6 17.4 23.7 28.3 15 0 Alarm State:  0
Sat Sep 24 10:53:33 PDT 2022 ON: 20.00 +20.0 20.06 -22.6 17.3 23.8 28.3 15 0 Alarm State:  0
Sat Sep 24 10:52:32 PDT 2022 ON: 20.00 +20.0 20.05 -22.3 17.7 23.5 28.3 13 0 Alarm State:  0
Sat Sep 24 10:51:30 PDT 2022 ON: 20.00 +20.0 20.04 -22.1 18.0 23.2 28.3 14 0 Alarm State:  0
Sat Sep 24 10:50:29 PDT 2022 ON: 20.00 +20.0 20.04 -22.3 17.8 23.4 28.3 14 0 Alarm State:  0
Sat Sep 24 10:49:27 PDT 2022 ON: 20.01 +20.0 20.04 -21.4 18.9 22.5 28.2 15 0 Alarm State:  0
Sat Sep 24 10:48:26 PDT 2022 ON: 20.01 +20.0 20.07 -22.5 17.5 23.6 28.0 17 0 Alarm State:  0
Sat Sep 24 10:47:24 PDT 2022 ON: 20.02 +20.0 20.08 -22.6 17.4 23.7 28.0 16 0 Alarm State:  0
Sat Sep 24 10:46:23 PDT 2022 ON: 20.01 +20.0 20.07 -22.4 17.6 23.6 28.1 17 0 Alarm State:  0
Sat Sep 24 10:45:21 PDT 2022 ON: 20.01 +20.0 20.07 -22.8 17.1 23.9 28.2 16 0 Alarm State:  0
Sat Sep 24 10:44:20 PDT 2022 ON: 20.00 +20.0 20.06 -22.0 18.1 23.2 28.3 14 0 Alarm State:  0
Sat Sep 24 10:43:18 PDT 2022 ON: 20.00 +20.0 20.05 -22.4 17.6 23.6 28.3 14 0 Alarm State:  0
Sat Sep 24 10:42:17 PDT 2022 ON: 20.00 +20.0 20.05 -22.8 17.1 23.9 28.2 14 0 Alarm State:  0
Sat Sep 24 10:41:15 PDT 2022 ON: 20.00 +20.0 20.03 -21.6 18.6 22.8 28.3 14 0 Alarm State:  0
Sat Sep 24 10:40:14 PDT 2022 ON: 20.01 +20.0 20.05 -21.2 19.2 22.3 28.2 16 0 Alarm State:  0
Sat Sep 24 10:39:12 PDT 2022 ON: 20.01 +20.0 20.07 -22.6 17.4 23.7 28.1 16 0 Alarm State:  0
Sat Sep 24 10:38:11 PDT 2022 ON: 20.01 +20.0 20.07 -22.9 16.9 24.1 28.2 16 0 Alarm State:  0
Sat Sep 24 10:37:09 PDT 2022 ON: 20.01 +20.0 20.07 -22.8 17.1 23.9 28.2 15 0 Alarm State:  0
Sat Sep 24 10:36:08 PDT 2022 ON: 20.02 +20.0 20.07 -22.1 18.0 23.2 28.1 16 0 Alarm State:  0
Sat Sep 24 10:35:06 PDT 2022 ON: 20.01 +20.0 20.08 -22.7 17.2 23.9 28.1 16 0 Alarm State:  0
Sat Sep 24 10:34:05 PDT 2022 ON: 20.01 +20.0 20.06 -21.9 18.2 23.1 28.2 17 0 Alarm State:  0
Sat Sep 24 10:33:03 PDT 2022 ON: 20.01 +20.0 20.06 -22.6 17.4 23.7 28.3 15 0 Alarm State:  0
Sat Sep 24 10:32:02 PDT 2022 ON: 20.00 +20.0 20.07 -22.9 17.0 24.0 28.2 14 0 Alarm State:  0
Sat Sep 24 10:31:00 PDT 2022 ON: 20.00 +20.0 20.05 -21.9 18.2 23.1 28.3 14 0 Alarm State:  0
Sat Sep 24 10:29:59 PDT 2022 ON: 20.01 +20.0 20.06 -22.4 17.6 23.6 28.2 16 0 Alarm State:  0
Sat Sep 24 10:28:57 PDT 2022 ON: 20.00 +20.0 20.06 -22.7 17.2 23.9 28.2 15 0 Alarm State:  0
Sat Sep 24 10:27:56 PDT 2022 ON: 20.01 +20.0 20.07 -22.5 17.5 23.6 28.1 16 0 Alarm State:  0
Sat Sep 24 10:26:54 PDT 2022 ON: 20.01 +20.0 20.09 -23.0 16.8 24.2 28.2 15 0 Alarm State:  0
Sat Sep 24 10:25:53 PDT 2022 ON: 20.01 +20.0 20.04 -21.6 18.6 22.8 28.2 14 0 Alarm State:  0
Sat Sep 24 10:24:51 PDT 2022 ON: 20.01 +20.0 20.06 -22.6 17.4 23.7 28.1 15 0 Alarm State:  0
Sat Sep 24 10:23:50 PDT 2022 ON: 20.00 +20.0 20.07 -22.5 17.5 23.6 28.3 16 0 Alarm State:  0
Sat Sep 24 10:22:48 PDT 2022 ON: 20.00 +20.0 20.05 -22.3 17.7 23.5 28.3 14 0 Alarm State:  0
Sat Sep 24 10:21:47 PDT 2022 ON: 20.00 +20.0 20.04 -21.5 18.8 22.6 28.3 14 0 Alarm State:  0
Sat Sep 24 10:20:45 PDT 2022 ON: 20.01 +20.0 20.07 -22.6 17.3 23.8 28.0 16 0 Alarm State:  0
Sat Sep 24 10:19:44 PDT 2022 ON: 20.00 +20.0 20.08 -23.4 16.3 24.6 28.2 15 0 Alarm State:  0
Sat Sep 24 10:18:42 PDT 2022 ON: 20.00 +20.0 20.05 -21.4 18.9 22.5 28.2 15 0 Alarm State:  0
Sat Sep 24 10:17:41 PDT 2022 ON: 20.01 +20.0 20.07 -22.7 17.2 23.9 28.2 16 0 Alarm State:  0
Sat Sep 24 10:16:39 PDT 2022 ON: 20.01 +20.0 20.07 -22.9 17.0 24.0 28.2 14 0 Alarm State:  0
Sat Sep 24 10:15:38 PDT 2022 ON: 20.00 +20.0 20.06 -22.7 17.2 23.9 28.2 14 0 Alarm State:  0
Sat Sep 24 10:14:36 PDT 2022 ON: 20.00 +20.0 20.05 -22.0 18.1 23.2 28.1 14 0 Alarm State:  0
Sat Sep 24 10:13:35 PDT 2022 ON: 20.00 +20.0 20.06 -22.6 17.3 23.8 28.2 16 0 Alarm State:  0
Sat Sep 24 10:12:33 PDT 2022 ON: 20.00 +20.0 20.05 -21.6 18.6 22.8 28.3 15 0 Alarm State:  0
Sat Sep 24 10:11:32 PDT 2022 ON: 20.00 +20.0 20.04 -21.2 19.2 22.3 28.2 14 0 Alarm State:  0
Sat Sep 24 10:10:30 PDT 2022 ON: 20.01 +20.0 20.05 -21.5 18.8 22.6 28.1 16 0 Alarm State:  0
Sat Sep 24 10:09:29 PDT 2022 ON: 20.02 +20.0 20.08 -22.6 17.4 23.7 28.0 16 0 Alarm State:  0
Sat Sep 24 10:08:27 PDT 2022 ON: 20.01 +20.0 20.08 -23.2 16.6 24.3 28.1 16 0 Alarm State:  0
Sat Sep 24 10:07:26 PDT 2022 ON: 20.00 +20.0 20.07 -23.0 16.8 24.2 28.2 15 0 Alarm State:  0
Sat Sep 24 10:06:24 PDT 2022 ON: 19.99 +20.0 20.05 -21.8 18.3 23.0 28.3 14 0 Alarm State:  0
Sat Sep 24 10:05:23 PDT 2022 ON: 20.01 +20.0 20.04 -21.4 18.9 22.5 28.2 15 0 Alarm State:  0
Sat Sep 24 10:04:21 PDT 2022 ON: 20.01 +20.0 20.06 -21.9 18.2 23.1 28.2 17 0 Alarm State:  0
Sat Sep 24 10:03:20 PDT 2022 ON: 20.02 +20.0 20.08 -22.9 16.9 24.1 28.0 16 0 Alarm State:  0
Sat Sep 24 10:02:18 PDT 2022 ON: 20.00 +20.0 20.05 -21.7 18.5 22.8 28.3 15 0 Alarm State:  0
Sat Sep 24 10:01:16 PDT 2022 ON: 20.01 +20.0 20.06 -22.6 17.3 23.8 28.2 13 0 Alarm State:  0
Sat Sep 24 10:00:15 PDT 2022 ON: 20.00 +20.0 20.05 -22.3 17.8 23.4 28.3 14 0 Alarm State:  0
Sat Sep 24 09:59:13 PDT 2022 ON: 20.01 +20.0 20.06 -21.4 18.9 22.5 28.2 15 0 Alarm State:  0
Sat Sep 24 09:58:12 PDT 2022 ON: 20.00 +20.0 20.06 -21.8 18.3 23.0 28.1 17 0 Alarm State:  0
Sat Sep 24 09:57:10 PDT 2022 ON: 20.01 +20.0 20.06 -21.8 18.4 22.9 28.2 17 0 Alarm State:  0
Sat Sep 24 09:56:09 PDT 2022 ON: 20.01 +20.0 20.07 -23.2 16.6 24.3 28.1 15 0 Alarm State:  0
Sat Sep 24 09:55:07 PDT 2022 ON: 19.99 +20.0 20.04 -21.9 18.2 23.1 28.2 14 0 Alarm State:  0
Sat Sep 24 09:54:06 PDT 2022 ON: 20.02 +20.0 20.08 -22.9 16.9 24.1 28.1 16 0 Alarm State:  0
Sat Sep 24 09:53:04 PDT 2022 ON: 20.00 +20.0 20.06 -23.0 16.8 24.2 28.2 15 0 Alarm State:  0
Sat Sep 24 09:52:03 PDT 2022 ON: 20.00 +20.0 20.03 -21.0 19.4 22.2 28.4 16 0 Alarm State:  0
Sat Sep 24 09:51:01 PDT 2022 ON: 20.01 +20.0 20.04 -21.3 19.0 22.5 28.2 15 0 Alarm State:  0
Sat Sep 24 09:50:00 PDT 2022 ON: 20.01 +20.0 20.08 -23.3 16.4 24.5 28.1 15 0 Alarm State:  0
Sat Sep 24 09:48:58 PDT 2022 ON: 20.00 +20.0 20.05 -21.5 18.7 22.7 28.2 14 0 Alarm State:  0
Sat Sep 24 09:47:57 PDT 2022 ON: 20.00 +20.0 20.06 -22.3 17.8 23.4 28.3 15 0 Alarm State:  0
Sat Sep 24 09:46:55 PDT 2022 ON: 20.00 +20.0 20.07 -23.3 16.5 24.4 28.2 14 0 Alarm State:  0
Sat Sep 24 09:45:54 PDT 2022 ON: 20.00 +20.0 20.07 -22.3 17.7 23.5 28.3 14 0 Alarm State:  0
Sat Sep 24 09:44:52 PDT 2022 ON: 20.00 +20.0 20.04 -21.4 18.9 22.5 28.4 14 0 Alarm State:  0
Sat Sep 24 09:43:51 PDT 2022 ON: 19.99 +20.0 20.03 -21.7 18.5 22.8 28.3 14 0 Alarm State:  0
Sat Sep 24 09:42:49 PDT 2022 ON: 20.00 +20.0 20.04 -21.7 18.5 22.8 28.3 14 0 Alarm State:  0
Sat Sep 24 09:41:48 PDT 2022 ON: 20.00 +20.0 20.06 -22.2 17.9 23.3 28.2 15 0 Alarm State:  0
Sat Sep 24 09:40:46 PDT 2022 ON: 20.00 +20.0 20.05 -21.5 18.8 22.6 28.3 15 0 Alarm State:  0
Sat Sep 24 09:39:45 PDT 2022 ON: 20.00 +20.0 20.04 -21.2 19.2 22.3 28.2 16 0 Alarm State:  0
Sat Sep 24 09:38:43 PDT 2022 ON: 20.02 +20.0 20.07 -22.1 18.0 23.2 28.1 17 0 Alarm State:  0
Sat Sep 24 09:37:42 PDT 2022 ON: 20.02 +20.0 20.09 -22.4 17.6 23.6 28.1 16 0 Alarm State:  0
Sat Sep 24 09:36:40 PDT 2022 ON: 20.00 +20.0 20.06 -22.3 17.8 23.4 28.3 14 0 Alarm State:  0
Sat Sep 24 09:35:39 PDT 2022 ON: 20.01 +20.0 20.04 -21.2 19.2 22.3 28.3 15 0 Alarm State:  0
Sat Sep 24 09:34:37 PDT 2022 ON: 20.01 +20.0 20.04 -21.3 19.0 22.5 28.2 16 0 Alarm State:  0
Sat Sep 24 09:33:36 PDT 2022 ON: 20.01 +20.0 20.08 -22.6 17.3 23.8 28.1 16 0 Alarm State:  0
Sat Sep 24 09:32:34 PDT 2022 ON: 20.00 +20.0 20.06 -22.3 17.8 23.4 28.3 15 0 Alarm State:  0
Sat Sep 24 09:31:33 PDT 2022 ON: 20.00 +20.0 20.03 -21.4 18.9 22.5 28.3 14 0 Alarm State:  0
Sat Sep 24 09:30:31 PDT 2022 ON: 20.00 +20.0 20.04 -21.4 18.9 22.5 28.3 15 0 Alarm State:  0
Sat Sep 24 09:29:30 PDT 2022 ON: 20.01 +20.0 20.06 -21.8 18.3 23.0 28.1 17 0 Alarm State:  0
Sat Sep 24 09:28:28 PDT 2022 ON: 20.01 +20.0 20.07 -22.5 17.5 23.6 28.1 16 0 Alarm State:  0
Sat Sep 24 09:27:27 PDT 2022 ON: 20.01 +20.0 20.07 -23.0 16.8 24.2 28.1 15 0 Alarm State:  0
Sat Sep 24 09:26:25 PDT 2022 ON: 20.00 +20.0 20.06 -22.6 17.3 23.8 28.3 14 0 Alarm State:  0
Sat Sep 24 09:25:24 PDT 2022 ON: 20.00 +20.0 20.06 -22.5 17.5 23.6 28.3 14 0 Alarm State:  0
Sat Sep 24 09:24:22 PDT 2022 ON: 20.00 +20.0 20.07 -22.0 18.1 23.2 28.3 15 0 Alarm State:  0
Sat Sep 24 09:23:21 PDT 2022 ON: 20.01 +20.0 20.04 -21.5 18.8 22.6 28.2 15 0 Alarm State:  0
Sat Sep 24 09:22:19 PDT 2022 ON: 20.01 +20.0 20.08 -23.3 16.5 24.4 28.1 16 0 Alarm State:  0
Sat Sep 24 09:21:18 PDT 2022 ON: 19.99 +20.0 20.05 -21.6 18.6 22.8 28.3 15 0 Alarm State:  0
Sat Sep 24 09:20:16 PDT 2022 ON: 20.00 +20.0 20.06 -22.6 17.3 23.8 28.2 14 0 Alarm State:  0
Sat Sep 24 09:19:15 PDT 2022 ON: 20.00 +20.0 20.07 -23.4 16.3 24.6 28.2 14 0 Alarm State:  0
Sat Sep 24 09:18:13 PDT 2022 ON: 20.00 +20.0 20.06 -22.6 17.4 23.7 28.3 14 0 Alarm State:  0
Sat Sep 24 09:17:12 PDT 2022 ON: 20.01 +20.0 20.06 -22.8 17.1 23.9 28.2 15 0 Alarm State:  0
Sat Sep 24 09:16:10 PDT 2022 ON: 20.00 +20.0 20.04 -21.2 19.1 22.4 28.2 15 0 Alarm State:  0
Sat Sep 24 09:15:09 PDT 2022 ON: 20.01 +20.0 20.06 -22.4 17.6 23.6 28.1 16 0 Alarm State:  0
Sat Sep 24 09:14:07 PDT 2022 ON: 20.00 +20.0 20.07 -22.9 16.9 24.1 28.2 14 0 Alarm State:  0
Sat Sep 24 09:13:06 PDT 2022 ON: 19.99 +20.0 20.04 -21.4 18.9 22.5 28.4 15 0 Alarm State:  0
Sat Sep 24 09:12:04 PDT 2022 ON: 20.01 +20.0 20.05 -21.5 18.8 22.6 28.2 14 0 Alarm State:  0
Sat Sep 24 09:11:03 PDT 2022 ON: 20.01 +20.0 20.07 -22.9 17.0 24.0 28.1 16 0 Alarm State:  0
Sat Sep 24 09:10:01 PDT 2022 ON: 20.00 +20.0 20.06 -22.8 17.1 23.9 28.3 14 0 Alarm State:  0
Sat Sep 24 09:09:00 PDT 2022 ON: 19.99 +20.0 20.04 -21.5 18.8 22.6 28.3 14 0 Alarm State:  0
Sat Sep 24 09:07:58 PDT 2022 ON: 20.00 +20.0 20.05 -21.5 18.8 22.6 28.2 16 0 Alarm State:  0
Sat Sep 24 09:06:57 PDT 2022 ON: 20.00 +20.0 20.06 -22.4 17.6 23.6 28.2 16 0 Alarm State:  0
Sat Sep 24 09:05:55 PDT 2022 ON: 20.01 +20.0 20.09 -23.2 16.6 24.3 28.1 16 0 Alarm State:  0
Sat Sep 24 09:04:54 PDT 2022 ON: 20.00 +20.0 20.06 -21.6 18.6 22.8 28.3 14 0 Alarm State:  0
Sat Sep 24 09:03:52 PDT 2022 ON: 20.00 +20.0 20.05 -21.9 18.2 23.1 28.2 13 0 Alarm State:  0
Sat Sep 24 09:02:50 PDT 2022 ON: 19.99 +20.0 20.03 -21.2 19.2 22.3 28.3 15 0 Alarm State:  0
Sat Sep 24 09:01:49 PDT 2022 ON: 20.01 +20.0 20.05 -21.2 19.2 22.3 28.2 16 0 Alarm State:  0
Sat Sep 24 09:00:47 PDT 2022 ON: 20.01 +20.0 20.07 -22.7 17.2 23.9 28.2 16 0 Alarm State:  0
Sat Sep 24 08:59:46 PDT 2022 ON: 20.00 +20.0 20.06 -22.2 17.9 23.3 28.3 14 0 Alarm State:  0
Sat Sep 24 08:58:44 PDT 2022 ON: 20.00 +20.0 20.05 -21.9 18.2 23.1 28.3 15 0 Alarm State:  0
Sat Sep 24 08:57:43 PDT 2022 ON: 20.00 +20.0 20.05 -21.7 18.5 22.8 28.3 15 0 Alarm State:  0
Sat Sep 24 08:56:41 PDT 2022 ON: 20.01 +20.0 20.06 -21.8 18.4 22.9 28.2 15 0 Alarm State:  0
Sat Sep 24 08:55:40 PDT 2022 ON: 20.00 +20.0 20.04 -21.2 19.2 22.3 28.3 16 0 Alarm State:  0
Sat Sep 24 08:54:38 PDT 2022 ON: 20.00 +20.0 20.07 -23.2 16.6 24.3 28.2 15 0 Alarm State:  0
Sat Sep 24 08:53:37 PDT 2022 ON: 20.00 +20.0 20.06 -22.7 17.2 23.9 28.3 14 0 Alarm State:  0
Sat Sep 24 08:52:35 PDT 2022 ON: 20.01 +20.0 20.05 -21.4 18.9 22.5 28.3 14 0 Alarm State:  0
Sat Sep 24 08:51:34 PDT 2022 ON: 20.01 +20.0 20.07 -22.1 18.0 23.2 28.1 16 0 Alarm State:  0
Sat Sep 24 08:50:32 PDT 2022 ON: 20.00 +20.0 20.07 -22.7 17.2 23.9 28.3 15 0 Alarm State:  0
Sat Sep 24 08:49:31 PDT 2022 ON: 19.99 +20.0 20.04 -22.2 17.9 23.3 28.3 14 0 Alarm State:  0
Sat Sep 24 08:48:29 PDT 2022 ON: 20.01 +20.0 20.07 -22.0 18.1 23.2 28.1 17 0 Alarm State:  0
Sat Sep 24 08:47:28 PDT 2022 ON: 20.00 +20.0 20.07 -22.9 16.9 24.1 28.2 15 0 Alarm State:  0
Sat Sep 24 08:46:26 PDT 2022 ON: 20.00 +20.0 20.05 -21.9 18.2 23.1 28.3 14 0 Alarm State:  0
Sat Sep 24 08:45:25 PDT 2022 ON: 20.01 +20.0 20.05 -21.5 18.7 22.7 28.3 15 0 Alarm State:  0
Sat Sep 24 08:44:23 PDT 2022 ON: 20.00 +20.0 20.06 -22.8 17.1 23.9 28.2 13 0 Alarm State:  0
Sat Sep 24 08:43:22 PDT 2022 ON: 20.01 +20.0 20.06 -22.5 17.5 23.6 28.1 16 0 Alarm State:  0
Sat Sep 24 08:42:20 PDT 2022 ON: 20.00 +20.0 20.06 -22.5 17.5 23.6 28.2 16 0 Alarm State:  0
Sat Sep 24 08:41:19 PDT 2022 ON: 20.00 +20.0 20.05 -22.3 17.8 23.4 28.3 14 0 Alarm State:  0
Sat Sep 24 08:40:17 PDT 2022 ON: 20.00 +20.0 20.05 -22.0 18.1 23.2 28.3 14 0 Alarm State:  0
Sat Sep 24 08:39:16 PDT 2022 ON: 20.00 +20.0 20.04 -21.2 19.2 22.3 28.3 15 0 Alarm State:  0
Sat Sep 24 08:38:14 PDT 2022 ON: 20.00 +20.0 20.04 -21.4 18.9 22.5 28.2 14 0 Alarm State:  0
Sat Sep 24 08:37:13 PDT 2022 ON: 20.01 +20.0 20.05 -21.3 19.0 22.5 28.2 16 0 Alarm State:  0
Sat Sep 24 08:36:11 PDT 2022 ON: 20.01 +20.0 20.06 -21.9 18.2 23.1 28.2 16 0 Alarm State:  0
Sat Sep 24 08:35:10 PDT 2022 ON: 19.99 +20.0 20.05 -22.0 18.1 23.2 28.3 15 0 Alarm State:  0
Sat Sep 24 08:34:08 PDT 2022 ON: 20.01 +20.0 20.07 -22.6 17.3 23.8 28.1 16 0 Alarm State:  0
Sat Sep 24 08:33:07 PDT 2022 ON: 20.01 +20.0 20.05 -21.9 18.2 23.1 28.1 15 0 Alarm State:  0
Sat Sep 24 08:32:05 PDT 2022 ON: 20.01 +20.0 20.07 -22.4 17.6 23.6 28.2 16 0 Alarm State:  0
Sat Sep 24 08:31:04 PDT 2022 ON: 20.01 +20.0 20.09 -23.0 16.8 24.2 28.0 16 0 Alarm State:  0
Sat Sep 24 08:30:02 PDT 2022 ON: 20.01 +20.0 20.05 -21.2 19.2 22.3 28.2 16 0 Alarm State:  0
Sat Sep 24 08:29:01 PDT 2022 ON: 20.00 +20.0 20.06 -22.2 17.9 23.3 28.1 16 0 Alarm State:  0
Sat Sep 24 08:27:59 PDT 2022 ON: 20.00 +20.0 20.04 -22.5 17.5 23.6 28.3 14 0 Alarm State:  0
Sat Sep 24 08:26:58 PDT 2022 ON: 20.00 +20.0 20.05 -21.0 19.4 22.2 28.3 15 0 Alarm State:  0
Sat Sep 24 08:25:56 PDT 2022 ON: 20.01 +20.0 20.04 -21.2 19.1 22.4 28.2 15 0 Alarm State:  0
Sat Sep 24 08:24:55 PDT 2022 ON: 20.01 +20.0 20.08 -23.8 15.8 25.0 28.0 15 0 Alarm State:  0
Sat Sep 24 08:23:53 PDT 2022 ON: 19.99 +20.0 20.05 -22.3 17.7 23.5 28.3 15 0 Alarm State:  0
Sat Sep 24 08:22:52 PDT 2022 ON: 20.00 +20.0 20.05 -21.9 18.2 23.1 28.3 14 0 Alarm State:  0
Sat Sep 24 08:21:50 PDT 2022 ON: 20.01 +20.0 20.08 -22.6 17.4 23.7 28.3 14 0 Alarm State:  0
Sat Sep 24 08:20:49 PDT 2022 ON: 20.01 +20.0 20.04 -21.2 19.1 22.4 28.3 15 0 Alarm State:  0
Sat Sep 24 08:19:47 PDT 2022 ON: 20.00 +20.0 20.04 -21.4 18.9 22.5 28.3 15 0 Alarm State:  0
Sat Sep 24 08:18:46 PDT 2022 ON: 19.99 +20.0 20.04 -21.3 19.0 22.5 28.3 15 0 Alarm State:  0
Sat Sep 24 08:17:44 PDT 2022 ON: 20.00 +20.0 20.06 -22.5 17.5 23.6 28.2 16 0 Alarm State:  0
Sat Sep 24 08:16:43 PDT 2022 ON: 20.00 +20.0 20.07 -23.3 16.4 24.5 28.2 14 0 Alarm State:  0
Sat Sep 24 08:15:41 PDT 2022 ON: 20.00 +20.0 20.04 -21.8 18.4 22.9 28.4 15 0 Alarm State:  0
Sat Sep 24 08:14:40 PDT 2022 ON: 20.00 +20.0 20.04 -21.8 18.4 22.9 28.3 14 0 Alarm State:  0
Sat Sep 24 08:13:38 PDT 2022 ON: 20.00 +20.0 20.04 -21.0 19.4 22.2 28.3 15 0 Alarm State:  0
Sat Sep 24 08:12:37 PDT 2022 ON: 20.01 +20.0 20.06 -22.2 17.9 23.3 28.1 17 0 Alarm State:  0
Sat Sep 24 08:11:35 PDT 2022 ON: 20.00 +20.0 20.04 -21.4 18.9 22.5 28.3 15 0 Alarm State:  0
Sat Sep 24 08:10:34 PDT 2022 ON: 20.01 +20.0 20.06 -21.2 19.2 22.3 28.2 16 0 Alarm State:  0
Sat Sep 24 08:09:32 PDT 2022 ON: 20.01 +20.0 20.05 -21.8 18.4 22.9 28.1 16 0 Alarm State:  0
Sat Sep 24 08:08:31 PDT 2022 ON: 20.01 +20.0 20.06 -22.3 17.8 23.4 28.1 17 0 Alarm State:  0
Sat Sep 24 08:07:29 PDT 2022 ON: 20.01 +20.0 20.07 -23.0 16.8 24.2 28.2 16 0 Alarm State:  0
Sat Sep 24 08:06:27 PDT 2022 ON: 20.00 +20.0 20.06 -22.5 17.5 23.6 28.3 15 0 Alarm State:  0
Sat Sep 24 08:05:26 PDT 2022 ON: 20.00 +20.0 20.05 -22.1 18.0 23.2 28.2 14 0 Alarm State:  0
Sat Sep 24 08:04:24 PDT 2022 ON: 20.00 +20.0 20.06 -22.3 17.7 23.5 28.1 15 0 Alarm State:  0
Sat Sep 24 08:03:23 PDT 2022 ON: 20.01 +20.0 20.05 -21.4 18.9 22.5 28.2 16 0 Alarm State:  0
Sat Sep 24 08:02:21 PDT 2022 ON: 20.02 +20.0 20.07 -21.5 18.8 22.6 28.1 17 0 Alarm State:  0
Sat Sep 24 08:01:20 PDT 2022 ON: 20.02 +20.0 20.10 -23.2 16.6 24.3 28.1 16 0 Alarm State:  0
Sat Sep 24 08:00:18 PDT 2022 ON: 20.00 +20.0 20.07 -23.0 16.8 24.2 28.2 14 0 Alarm State:  0
Sat Sep 24 07:59:17 PDT 2022 ON: 20.00 +20.0 20.06 -22.8 17.1 23.9 28.3 14 0 Alarm State:  0
Sat Sep 24 07:58:15 PDT 2022 ON: 20.00 +20.0 20.05 -22.0 18.1 23.2 28.3 14 0 Alarm State:  0
Sat Sep 24 07:57:14 PDT 2022 ON: 19.99 +20.0 20.05 -22.0 18.1 23.2 28.3 14 0 Alarm State:  0
Sat Sep 24 07:56:12 PDT 2022 ON: 20.00 +20.0 20.06 -22.3 17.8 23.4 28.3 14 0 Alarm State:  0
Sat Sep 24 07:55:11 PDT 2022 ON: 20.00 +20.0 20.02 -21.4 18.9 22.5 28.3 14 0 Alarm State:  0
Sat Sep 24 07:54:09 PDT 2022 ON: 20.01 +20.0 20.05 -21.5 18.7 22.7 28.2 17 0 Alarm State:  0
Sat Sep 24 07:53:08 PDT 2022 ON: 20.00 +20.0 20.06 -22.6 17.4 23.7 28.3 14 0 Alarm State:  0
Sat Sep 24 07:52:06 PDT 2022 ON: 20.00 +20.0 20.06 -22.9 17.0 24.0 28.2 14 0 Alarm State:  0
Sat Sep 24 07:51:05 PDT 2022 ON: 20.01 +20.0 20.08 -23.3 16.5 24.4 28.1 15 0 Alarm State:  0
Sat Sep 24 07:50:03 PDT 2022 ON: 20.01 +20.0 20.08 -22.7 17.2 23.9 28.2 15 0 Alarm State:  0
Sat Sep 24 07:49:02 PDT 2022 ON: 20.01 +20.0 20.08 -23.1 16.7 24.2 28.1 16 0 Alarm State:  0
Sat Sep 24 07:48:00 PDT 2022 ON: 20.00 +20.0 20.04 -21.5 18.7 22.7 28.2 15 0 Alarm State:  0
Sat Sep 24 07:46:59 PDT 2022 ON: 20.01 +20.0 20.07 -22.2 17.9 23.3 28.1 17 0 Alarm State:  0
Sat Sep 24 07:45:57 PDT 2022 ON: 20.00 +20.0 20.06 -21.9 18.2 23.1 28.2 17 0 Alarm State:  0
Sat Sep 24 07:44:56 PDT 2022 ON: 20.00 +20.0 20.05 -21.6 18.6 22.8 28.2 16 0 Alarm State:  0
Sat Sep 24 07:43:54 PDT 2022 ON: 20.01 +20.0 20.07 -22.9 16.9 24.1 28.2 15 0 Alarm State:  0
Sat Sep 24 07:42:53 PDT 2022 ON: 20.00 +20.0 20.06 -22.8 17.1 23.9 28.2 14 0 Alarm State:  0
Sat Sep 24 07:41:51 PDT 2022 ON: 20.00 +20.0 20.05 -22.1 18.0 23.2 28.3 14 0 Alarm State:  0
Sat Sep 24 07:40:50 PDT 2022 ON: 20.00 +20.0 20.05 -22.2 17.9 23.3 28.3 14 0 Alarm State:  0
Sat Sep 24 07:39:48 PDT 2022 ON: 20.00 +20.0 20.04 -21.5 18.8 22.6 28.2 15 0 Alarm State:  0
Sat Sep 24 07:38:47 PDT 2022 ON: 20.02 +20.0 20.08 -23.1 16.7 24.2 28.0 16 0 Alarm State:  0
Sat Sep 24 07:37:45 PDT 2022 ON: 20.01 +20.0 20.07 -21.8 18.4 22.9 28.3 16 0 Alarm State:  0
Sat Sep 24 07:36:44 PDT 2022 ON: 20.00 +20.0 20.04 -21.6 18.6 22.8 28.3 14 0 Alarm State:  0
Sat Sep 24 07:35:42 PDT 2022 ON: 20.00 +20.0 20.06 -22.2 17.9 23.3 28.1 15 0 Alarm State:  0
Sat Sep 24 07:34:41 PDT 2022 ON: 20.00 +20.0 20.06 -22.3 17.8 23.4 28.2 17 0 Alarm State:  0
Sat Sep 24 07:33:39 PDT 2022 ON: 20.00 +20.0 20.07 -22.6 17.4 23.7 28.3 15 0 Alarm State:  0
Sat Sep 24 07:32:38 PDT 2022 ON: 20.01 +20.0 20.08 -22.9 16.9 24.1 28.2 14 0 Alarm State:  0
Sat Sep 24 07:31:36 PDT 2022 ON: 20.00 +20.0 20.05 -22.6 17.4 23.7 28.2 13 0 Alarm State:  0
Sat Sep 24 07:30:35 PDT 2022 ON: 20.00 +20.0 20.03 -21.4 18.9 22.5 28.3 15 0 Alarm State:  0
Sat Sep 24 07:29:33 PDT 2022 ON: 20.00 +20.0 20.07 -22.8 17.1 23.9 28.3 15 0 Alarm State:  0
Sat Sep 24 07:28:32 PDT 2022 ON: 20.00 +20.0 20.05 -21.5 18.8 22.6 28.3 14 0 Alarm State:  0
Sat Sep 24 07:27:30 PDT 2022 ON: 20.00 +20.0 20.03 -21.4 18.9 22.5 28.2 15 0 Alarm State:  0
Sat Sep 24 07:26:29 PDT 2022 ON: 20.01 +20.0 20.06 -21.9 18.2 23.1 28.3 16 0 Alarm State:  0
Sat Sep 24 07:25:27 PDT 2022 ON: 20.01 +20.0 20.07 -23.1 16.7 24.2 28.2 14 0 Alarm State:  0
Sat Sep 24 07:24:26 PDT 2022 ON: 20.00 +20.0 20.07 -22.6 17.3 23.8 28.1 16 0 Alarm State:  0
Sat Sep 24 07:23:24 PDT 2022 ON: 20.01 +20.0 20.07 -22.9 17.0 24.0 28.2 15 0 Alarm State:  0
Sat Sep 24 07:22:23 PDT 2022 ON: 20.00 +20.0 20.05 -22.3 17.8 23.4 28.3 14 0 Alarm State:  0
Sat Sep 24 07:21:21 PDT 2022 ON: 20.00 +20.0 20.05 -22.5 17.5 23.6 28.2 13 0 Alarm State:  0
Sat Sep 24 07:20:20 PDT 2022 ON: 20.00 +20.0 20.06 -21.8 18.3 23.0 28.3 16 0 Alarm State:  0
Sat Sep 24 07:19:18 PDT 2022 ON: 20.01 +20.0 20.05 -21.0 19.4 22.2 28.3 16 0 Alarm State:  0
Sat Sep 24 07:18:17 PDT 2022 ON: 20.01 +20.0 20.07 -22.5 17.5 23.6 28.0 16 0 Alarm State:  0
Sat Sep 24 07:17:15 PDT 2022 ON: 20.00 +20.0 20.05 -21.8 18.3 23.0 28.3 15 0 Alarm State:  0
Sat Sep 24 07:16:14 PDT 2022 ON: 20.01 +20.0 20.06 -21.5 18.7 22.7 28.2 15 0 Alarm State:  0
Sat Sep 24 07:15:12 PDT 2022 ON: 20.01 +20.0 20.06 -21.1 19.3 22.2 28.3 16 0 Alarm State:  0
Sat Sep 24 07:14:11 PDT 2022 ON: 20.01 +20.0 20.05 -21.7 18.5 22.8 28.1 15 0 Alarm State:  0
Sat Sep 24 07:13:09 PDT 2022 ON: 20.01 +20.0 20.07 -22.1 18.0 23.2 28.1 17 0 Alarm State:  0
Sat Sep 24 07:12:08 PDT 2022 ON: 20.02 +20.0 20.09 -23.1 16.7 24.2 28.0 16 0 Alarm State:  0
Sat Sep 24 07:11:06 PDT 2022 ON: 20.00 +20.0 20.08 -23.2 16.6 24.3 28.1 16 0 Alarm State:  0
Sat Sep 24 07:10:05 PDT 2022 ON: 20.00 +20.0 20.05 -22.1 18.0 23.2 28.3 14 0 Alarm State:  0
Sat Sep 24 07:09:03 PDT 2022 ON: 20.00 +20.0 20.04 -21.3 19.0 22.5 28.2 15 0 Alarm State:  0
Sat Sep 24 07:08:02 PDT 2022 ON: 20.01 +20.0 20.07 -22.6 17.3 23.8 28.1 16 0 Alarm State:  0
Sat Sep 24 07:07:00 PDT 2022 ON: 20.02 +20.0 20.09 -23.1 16.7 24.2 28.1 16 0 Alarm State:  0
Sat Sep 24 07:05:58 PDT 2022 ON: 20.01 +20.0 20.07 -22.9 16.9 24.1 28.2 15 0 Alarm State:  0
Sat Sep 24 07:04:57 PDT 2022 ON: 20.00 +20.0 20.07 -23.3 16.5 24.4 28.2 14 0 Alarm State:  0
Sat Sep 24 07:03:55 PDT 2022 ON: 20.00 +20.0 20.06 -22.0 18.1 23.2 28.3 14 0 Alarm State:  0
Sat Sep 24 07:02:54 PDT 2022 ON: 20.00 +20.0 20.05 -21.4 18.9 22.5 28.3 15 0 Alarm State:  0
Sat Sep 24 07:01:52 PDT 2022 ON: 20.01 +20.0 20.05 -21.8 18.3 23.0 28.1 15 0 Alarm State:  0
Sat Sep 24 07:00:51 PDT 2022 ON: 20.01 +20.0 20.05 -21.5 18.7 22.7 28.2 16 0 Alarm State:  0
Sat Sep 24 06:59:49 PDT 2022 ON: 20.02 +20.0 20.09 -22.5 17.5 23.6 28.1 16 0 Alarm State:  0
Sat Sep 24 06:58:48 PDT 2022 ON: 20.01 +20.0 20.09 -23.4 16.3 24.6 28.0 15 0 Alarm State:  0
Sat Sep 24 06:57:46 PDT 2022 ON: 20.01 +20.0 20.05 -21.6 18.6 22.8 28.2 16 0 Alarm State:  0
Sat Sep 24 06:56:45 PDT 2022 ON: 20.01 +20.0 20.07 -22.8 17.1 23.9 28.2 14 0 Alarm State:  0
Sat Sep 24 06:55:43 PDT 2022 ON: 20.00 +20.0 20.06 -21.8 18.3 23.0 28.2 15 0 Alarm State:  0
Sat Sep 24 06:54:42 PDT 2022 ON: 20.01 +20.0 20.08 -22.9 17.0 24.0 28.2 15 0 Alarm State:  0
Sat Sep 24 06:53:40 PDT 2022 ON: 20.01 +20.0 20.07 -22.9 17.0 24.0 28.2 15 0 Alarm State:  0
Sat Sep 24 06:52:39 PDT 2022 ON: 20.00 +20.0 20.06 -22.3 17.8 23.4 28.3 14 0 Alarm State:  0
Sat Sep 24 06:51:37 PDT 2022 ON: 20.00 +20.0 20.04 -21.0 19.4 22.2 28.2 16 0 Alarm State:  0
Sat Sep 24 06:50:36 PDT 2022 ON: 20.00 +20.0 20.05 -21.5 18.7 22.7 28.2 15 0 Alarm State:  0
Sat Sep 24 06:49:34 PDT 2022 ON: 20.01 +20.0 20.06 -22.0 18.1 23.2 28.2 17 0 Alarm State:  0
Sat Sep 24 06:48:33 PDT 2022 ON: 20.01 +20.0 20.07 -23.0 16.8 24.2 28.2 14 0 Alarm State:  0
Sat Sep 24 06:47:31 PDT 2022 ON: 19.99 +20.0 20.04 -21.9 18.2 23.1 28.3 14 0 Alarm State:  0
Sat Sep 24 06:46:30 PDT 2022 ON: 19.99 +20.0 20.04 -21.5 18.8 22.6 28.3 15 0 Alarm State:  0
Sat Sep 24 06:45:28 PDT 2022 ON: 20.00 +20.0 20.03 -21.2 19.2 22.3 28.3 15 0 Alarm State:  0
Sat Sep 24 06:44:27 PDT 2022 ON: 20.01 +20.0 20.07 -22.3 17.8 23.4 28.1 17 0 Alarm State:  0
Sat Sep 24 06:43:25 PDT 2022 ON: 20.02 +20.0 20.10 -23.1 16.7 24.2 28.1 16 0 Alarm State:  0
Sat Sep 24 06:42:24 PDT 2022 ON: 20.01 +20.0 20.08 -22.6 17.4 23.7 28.3 15 0 Alarm State:  0
Sat Sep 24 06:41:22 PDT 2022 ON: 20.00 +20.0 20.05 -21.4 18.9 22.5 28.3 14 0 Alarm State:  0
Sat Sep 24 06:40:21 PDT 2022 ON: 20.01 +20.0 20.05 -21.8 18.3 23.0 28.1 16 0 Alarm State:  0
Sat Sep 24 06:39:19 PDT 2022 ON: 20.01 +20.0 20.08 -23.1 16.7 24.2 28.1 16 0 Alarm State:  0
Sat Sep 24 06:38:18 PDT 2022 ON: 20.00 +20.0 20.06 -21.6 18.6 22.8 28.3 14 0 Alarm State:  0
Sat Sep 24 06:37:16 PDT 2022 ON: 20.00 +20.0 20.03 -21.3 19.0 22.5 28.2 14 0 Alarm State:  0
Sat Sep 24 06:36:15 PDT 2022 ON: 20.01 +20.0 20.06 -22.1 18.0 23.2 28.2 17 0 Alarm State:  0
Sat Sep 24 06:35:13 PDT 2022 ON: 20.01 +20.0 20.08 -23.2 16.6 24.3 28.2 15 0 Alarm State:  0
Sat Sep 24 06:34:12 PDT 2022 ON: 20.00 +20.0 20.06 -22.9 17.0 24.0 28.2 13 0 Alarm State:  0
Sat Sep 24 06:33:10 PDT 2022 ON: 20.00 +20.0 20.04 -21.2 19.2 22.3 28.2 15 0 Alarm State:  0
Sat Sep 24 06:32:09 PDT 2022 ON: 20.00 +20.0 20.07 -23.4 16.3 24.6 28.1 14 0 Alarm State:  0
Sat Sep 24 06:31:07 PDT 2022 ON: 20.01 +20.0 20.06 -21.3 19.0 22.5 28.3 15 0 Alarm State:  0
Sat Sep 24 06:30:06 PDT 2022 ON: 20.01 +20.0 20.06 -21.8 18.4 22.9 28.1 15 0 Alarm State:  0
Sat Sep 24 06:29:04 PDT 2022 ON: 20.00 +20.0 20.07 -22.3 17.7 23.5 28.2 16 0 Alarm State:  0
Sat Sep 24 06:28:03 PDT 2022 ON: 20.01 +20.0 20.08 -22.9 16.9 24.1 28.2 16 0 Alarm State:  0
Sat Sep 24 06:27:01 PDT 2022 ON: 20.01 +20.0 20.05 -21.5 18.7 22.7 28.1 15 0 Alarm State:  0
Sat Sep 24 06:26:00 PDT 2022 ON: 20.01 +20.0 20.08 -22.9 16.9 24.1 28.1 16 0 Alarm State:  0
Sat Sep 24 06:24:58 PDT 2022 ON: 20.01 +20.0 20.04 -21.3 19.0 22.5 28.2 15 0 Alarm State:  0
Sat Sep 24 06:23:57 PDT 2022 ON: 20.01 +20.0 20.07 -22.8 17.1 23.9 28.2 15 0 Alarm State:  0
Sat Sep 24 06:22:55 PDT 2022 ON: 20.01 +20.0 20.05 -21.3 19.0 22.5 28.2 15 0 Alarm State:  0
Sat Sep 24 06:21:54 PDT 2022 ON: 20.02 +20.0 20.06 -21.8 18.4 22.9 28.1 16 0 Alarm State:  0
Sat Sep 24 06:20:52 PDT 2022 ON: 20.01 +20.0 20.06 -21.9 18.2 23.1 28.1 17 0 Alarm State:  0
Sat Sep 24 06:19:51 PDT 2022 ON: 20.01 +20.0 20.07 -22.7 17.2 23.9 28.2 16 0 Alarm State:  0
Sat Sep 24 06:18:49 PDT 2022 ON: 20.01 +20.0 20.08 -22.9 16.9 24.1 28.2 15 0 Alarm State:  0
Sat Sep 24 06:17:48 PDT 2022 ON: 20.00 +20.0 20.07 -22.8 17.1 23.9 28.3 14 0 Alarm State:  0
Sat Sep 24 06:16:46 PDT 2022 ON: 20.00 +20.0 20.04 -21.5 18.7 22.7 28.3 14 0 Alarm State:  0
Sat Sep 24 06:15:45 PDT 2022 ON: 20.00 +20.0 20.04 -21.1 19.3 22.2 28.3 15 0 Alarm State:  0
Sat Sep 24 06:14:43 PDT 2022 ON: 20.01 +20.0 20.06 -21.7 18.5 22.8 28.1 17 0 Alarm State:  0
Sat Sep 24 06:13:42 PDT 2022 ON: 20.01 +20.0 20.08 -23.4 16.3 24.6 28.0 16 0 Alarm State:  0
Sat Sep 24 06:12:40 PDT 2022 ON: 20.01 +20.0 20.07 -22.9 16.9 24.1 28.1 16 0 Alarm State:  0
Sat Sep 24 06:11:39 PDT 2022 ON: 20.00 +20.0 20.06 -22.8 17.1 23.9 28.3 14 0 Alarm State:  0
Sat Sep 24 06:10:37 PDT 2022 ON: 20.00 +20.0 20.04 -21.7 18.5 22.8 28.3 14 0 Alarm State:  0
Sat Sep 24 06:09:36 PDT 2022 ON: 20.02 +20.0 20.09 -23.0 16.8 24.2 28.1 16 0 Alarm State:  0
Sat Sep 24 06:08:34 PDT 2022 ON: 20.00 +20.0 20.06 -22.8 17.1 23.9 28.3 14 0 Alarm State:  0
Sat Sep 24 06:07:33 PDT 2022 ON: 20.00 +20.0 20.05 -22.3 17.8 23.4 28.3 15 0 Alarm State:  0
Sat Sep 24 06:06:31 PDT 2022 ON: 20.00 +20.0 20.05 -22.3 17.7 23.5 28.3 14 0 Alarm State:  0
Sat Sep 24 06:05:30 PDT 2022 ON: 20.01 +20.0 20.08 -22.9 17.0 24.0 28.2 15 0 Alarm State:  0
Sat Sep 24 06:04:28 PDT 2022 ON: 20.00 +20.0 20.08 -22.9 17.0 24.0 28.2 14 0 Alarm State:  0
Sat Sep 24 06:03:26 PDT 2022 ON: 20.01 +20.0 20.06 -22.1 18.0 23.2 28.2 17 0 Alarm State:  0
Sat Sep 24 06:02:25 PDT 2022 ON: 20.01 +20.0 20.08 -23.4 16.3 24.6 28.2 15 0 Alarm State:  0
Sat Sep 24 06:01:23 PDT 2022 ON: 20.01 +20.0 20.08 -23.2 16.6 24.3 28.1 15 0 Alarm State:  0
Sat Sep 24 06:00:22 PDT 2022 ON: 20.00 +20.0 20.05 -21.2 19.1 22.4 28.3 15 0 Alarm State:  0
Sat Sep 24 05:59:20 PDT 2022 ON: 20.01 +20.0 20.06 -22.1 18.0 23.2 28.1 17 0 Alarm State:  0
Sat Sep 24 05:58:19 PDT 2022 ON: 20.01 +20.0 20.08 -23.6 16.1 24.7 28.0 15 0 Alarm State:  0
Sat Sep 24 05:57:17 PDT 2022 ON: 20.00 +20.0 20.05 -21.2 19.1 22.4 28.3 15 0 Alarm State:  0
Sat Sep 24 05:56:16 PDT 2022 ON: 20.01 +20.0 20.06 -20.9 19.5 22.1 28.3 16 0 Alarm State:  0
Sat Sep 24 05:55:14 PDT 2022 ON: 20.01 +20.0 20.04 -21.5 18.8 22.6 28.1 16 0 Alarm State:  0
Sat Sep 24 05:54:13 PDT 2022 ON: 20.01 +20.0 20.06 -22.0 18.1 23.2 28.1 17 0 Alarm State:  0
Sat Sep 24 05:53:11 PDT 2022 ON: 20.00 +20.0 20.07 -23.1 16.7 24.2 28.1 16 0 Alarm State:  0
Sat Sep 24 05:52:10 PDT 2022 ON: 20.00 +20.0 20.06 -22.9 16.9 24.1 28.2 14 0 Alarm State:  0
Sat Sep 24 05:51:08 PDT 2022 ON: 20.00 +20.0 20.06 -22.5 17.5 23.6 28.3 14 0 Alarm State:  0
Sat Sep 24 05:50:07 PDT 2022 ON: 20.00 +20.0 20.05 -21.5 18.8 22.6 28.2 14 0 Alarm State:  0
Sat Sep 24 05:49:05 PDT 2022 ON: 20.01 +20.0 20.06 -22.0 18.1 23.2 28.1 17 0 Alarm State:  0
Sat Sep 24 05:48:04 PDT 2022 ON: 20.01 +20.0 20.09 -23.1 16.7 24.2 28.1 16 0 Alarm State:  0
Sat Sep 24 05:47:02 PDT 2022 ON: 20.01 +20.0 20.08 -23.2 16.6 24.3 28.2 15 0 Alarm State:  0
Sat Sep 24 05:46:01 PDT 2022 ON: 20.00 +20.0 20.04 -21.4 18.9 22.5 28.2 15 0 Alarm State:  0
Sat Sep 24 05:44:59 PDT 2022 ON: 20.01 +20.0 20.06 -21.1 19.3 22.2 28.2 16 0 Alarm State:  0
Sat Sep 24 05:43:58 PDT 2022 ON: 20.01 +20.0 20.05 -21.0 19.4 22.2 28.2 16 0 Alarm State:  0
Sat Sep 24 05:42:56 PDT 2022 ON: 20.00 +20.0 20.05 -21.7 18.5 22.8 28.2 16 0 Alarm State:  0
Sat Sep 24 05:41:55 PDT 2022 ON: 20.00 +20.0 20.07 -22.8 17.1 23.9 28.2 15 0 Alarm State:  0
Sat Sep 24 05:40:53 PDT 2022 ON: 20.00 +20.0 20.05 -21.8 18.3 23.0 28.2 14 0 Alarm State:  0
Sat Sep 24 05:39:52 PDT 2022 ON: 20.00 +20.0 20.05 -21.4 18.9 22.5 28.3 14 0 Alarm State:  0
Sat Sep 24 05:38:50 PDT 2022 ON: 20.01 +20.0 20.06 -21.9 18.2 23.1 28.1 17 0 Alarm State:  0
Sat Sep 24 05:37:49 PDT 2022 ON: 20.01 +20.0 20.07 -22.4 17.6 23.6 28.1 17 0 Alarm State:  0
Sat Sep 24 05:36:47 PDT 2022 ON: 20.02 +20.0 20.08 -22.0 18.1 23.2 28.1 17 0 Alarm State:  0
Sat Sep 24 05:35:46 PDT 2022 ON: 20.01 +20.0 20.07 -22.3 17.8 23.4 28.1 16 0 Alarm State:  0
Sat Sep 24 05:34:44 PDT 2022 ON: 20.01 +20.0 20.08 -23.1 16.7 24.2 28.1 16 0 Alarm State:  0
Sat Sep 24 05:33:43 PDT 2022 ON: 20.00 +20.0 20.04 -21.9 18.2 23.1 28.3 14 0 Alarm State:  0
Sat Sep 24 05:32:41 PDT 2022 ON: 20.01 +20.0 20.06 -22.2 17.9 23.3 28.1 15 0 Alarm State:  0
Sat Sep 24 05:31:40 PDT 2022 ON: 20.00 +20.0 20.07 -22.6 17.3 23.8 28.2 16 0 Alarm State:  0
Sat Sep 24 05:30:38 PDT 2022 ON: 20.00 +20.0 20.05 -21.8 18.3 23.0 28.3 14 0 Alarm State:  0
Sat Sep 24 05:29:37 PDT 2022 ON: 20.00 +20.0 20.04 -21.2 19.2 22.3 28.2 15 0 Alarm State:  0
Sat Sep 24 05:28:35 PDT 2022 ON: 20.01 +20.0 20.05 -21.2 19.1 22.4 28.2 16 0 Alarm State:  0
Sat Sep 24 05:27:34 PDT 2022 ON: 20.02 +20.0 20.10 -22.9 17.0 24.0 28.1 16 0 Alarm State:  0
Sat Sep 24 05:26:32 PDT 2022 ON: 20.01 +20.0 20.08 -23.0 16.8 24.2 28.2 15 0 Alarm State:  0
Sat Sep 24 05:25:31 PDT 2022 ON: 20.00 +20.0 20.05 -21.7 18.5 22.8 28.2 14 0 Alarm State:  0
Sat Sep 24 05:24:29 PDT 2022 ON: 20.01 +20.0 20.05 -21.5 18.8 22.6 28.1 16 0 Alarm State:  0
Sat Sep 24 05:23:28 PDT 2022 ON: 20.00 +20.0 20.07 -22.2 17.9 23.3 28.2 16 0 Alarm State:  0
Sat Sep 24 05:22:26 PDT 2022 ON: 20.02 +20.0 20.08 -22.9 17.0 24.0 28.1 16 0 Alarm State:  0
Sat Sep 24 05:21:25 PDT 2022 ON: 20.00 +20.0 20.05 -22.6 17.3 23.8 28.1 14 0 Alarm State:  0
Sat Sep 24 05:20:23 PDT 2022 ON: 20.01 +20.0 20.06 -21.7 18.5 22.8 28.2 17 0 Alarm State:  0
Sat Sep 24 05:19:22 PDT 2022 ON: 20.00 +20.0 20.07 -23.1 16.7 24.2 28.2 14 0 Alarm State:  0
Sat Sep 24 05:18:20 PDT 2022 ON: 20.00 +20.0 20.06 -22.6 17.4 23.7 28.2 15 0 Alarm State:  0
Sat Sep 24 05:17:19 PDT 2022 ON: 20.00 +20.0 20.06 -23.0 16.8 24.2 28.2 14 0 Alarm State:  0
Sat Sep 24 05:16:17 PDT 2022 ON: 20.00 +20.0 20.06 -22.6 17.4 23.7 28.2 15 0 Alarm State:  0
Sat Sep 24 05:15:16 PDT 2022 ON: 20.00 +20.0 20.06 -22.2 17.9 23.3 28.3 14 0 Alarm State:  0
Sat Sep 24 05:14:14 PDT 2022 ON: 20.01 +20.0 20.04 -20.9 19.5 22.1 28.3 15 0 Alarm State:  0
Sat Sep 24 05:13:13 PDT 2022 ON: 20.00 +20.0 20.04 -21.0 19.4 22.2 28.3 15 0 Alarm State:  0
Sat Sep 24 05:12:11 PDT 2022 ON: 20.00 +20.0 20.04 -21.8 18.4 22.9 28.3 14 0 Alarm State:  0
Sat Sep 24 05:11:10 PDT 2022 ON: 20.00 +20.0 20.05 -21.1 19.3 22.2 28.3 15 0 Alarm State:  0
Sat Sep 24 05:10:08 PDT 2022 ON: 20.01 +20.0 20.06 -22.0 18.1 23.2 28.1 16 0 Alarm State:  0
Sat Sep 24 05:09:06 PDT 2022 ON: 20.00 +20.0 20.07 -23.4 16.3 24.6 28.1 15 0 Alarm State:  0
Sat Sep 24 05:08:05 PDT 2022 ON: 20.01 +20.0 20.06 -21.3 19.0 22.5 28.2 16 0 Alarm State:  0
Sat Sep 24 05:07:03 PDT 2022 ON: 20.01 +20.0 20.06 -21.7 18.5 22.8 28.1 17 0 Alarm State:  0
Sat Sep 24 05:06:02 PDT 2022 ON: 20.02 +20.0 20.07 -22.1 18.0 23.2 28.1 16 0 Alarm State:  0
Sat Sep 24 05:05:00 PDT 2022 ON: 20.00 +20.0 20.07 -22.9 16.9 24.1 28.2 15 0 Alarm State:  0
Sat Sep 24 05:03:59 PDT 2022 ON: 20.00 +20.0 20.07 -23.1 16.7 24.2 28.2 15 0 Alarm State:  0
Sat Sep 24 05:02:57 PDT 2022 ON: 20.01 +20.0 20.07 -22.3 17.7 23.5 28.2 15 0 Alarm State:  0
Sat Sep 24 05:01:56 PDT 2022 ON: 19.99 +20.0 20.05 -21.8 18.3 23.0 28.3 14 0 Alarm State:  0
Sat Sep 24 05:00:54 PDT 2022 ON: 19.99 +20.0 20.04 -21.8 18.3 23.0 28.3 14 0 Alarm State:  0
Sat Sep 24 04:59:53 PDT 2022 ON: 20.00 +20.0 20.04 -22.0 18.1 23.2 28.3 14 0 Alarm State:  0
Sat Sep 24 04:58:51 PDT 2022 ON: 20.00 +20.0 20.03 -21.2 19.2 22.3 28.3 15 0 Alarm State:  0
Sat Sep 24 04:57:50 PDT 2022 ON: 20.01 +20.0 20.06 -22.2 17.9 23.3 28.1 17 0 Alarm State:  0
Sat Sep 24 04:56:48 PDT 2022 ON: 20.01 +20.0 20.07 -22.6 17.3 23.8 28.0 16 0 Alarm State:  0
Sat Sep 24 04:55:47 PDT 2022 ON: 20.01 +20.0 20.07 -22.5 17.5 23.6 28.2 16 0 Alarm State:  0
Sat Sep 24 04:54:45 PDT 2022 ON: 20.00 +20.0 20.07 -22.9 16.9 24.1 28.2 14 0 Alarm State:  0
Sat Sep 24 04:53:44 PDT 2022 ON: 20.01 +20.0 20.09 -23.1 16.7 24.2 28.1 16 0 Alarm State:  0
Sat Sep 24 04:52:42 PDT 2022 ON: 20.00 +20.0 20.04 -21.7 18.5 22.8 28.3 14 0 Alarm State:  0
Sat Sep 24 04:51:41 PDT 2022 ON: 20.00 +20.0 20.03 -21.2 19.2 22.3 28.2 15 0 Alarm State:  0
Sat Sep 24 04:50:39 PDT 2022 ON: 20.01 +20.0 20.07 -22.5 17.5 23.6 28.2 16 0 Alarm State:  0
Sat Sep 24 04:49:38 PDT 2022 ON: 20.00 +20.0 20.06 -22.6 17.3 23.8 28.2 14 0 Alarm State:  0
Sat Sep 24 04:48:36 PDT 2022 ON: 20.01 +20.0 20.07 -22.9 17.0 24.0 28.1 16 0 Alarm State:  0
Sat Sep 24 04:47:35 PDT 2022 ON: 19.99 +20.0 20.04 -21.8 18.3 23.0 28.3 14 0 Alarm State:  0
Sat Sep 24 04:46:33 PDT 2022 ON: 20.00 +20.0 20.05 -21.2 19.1 22.4 28.3 15 0 Alarm State:  0
Sat Sep 24 04:45:32 PDT 2022 ON: 20.01 +20.0 20.07 -22.0 18.1 23.2 28.1 16 0 Alarm State:  0
Sat Sep 24 04:44:30 PDT 2022 ON: 20.00 +20.0 20.05 -21.9 18.2 23.1 28.3 14 0 Alarm State:  0
Sat Sep 24 04:43:29 PDT 2022 ON: 20.00 +20.0 20.04 -21.2 19.2 22.3 28.3 15 0 Alarm State:  0
Sat Sep 24 04:42:27 PDT 2022 ON: 20.01 +20.0 20.07 -22.1 18.0 23.2 28.1 17 0 Alarm State:  0
Sat Sep 24 04:41:26 PDT 2022 ON: 20.00 +20.0 20.07 -22.5 17.5 23.6 28.2 15 0 Alarm State:  0
Sat Sep 24 04:40:24 PDT 2022 ON: 20.01 +20.0 20.08 -23.1 16.7 24.2 28.2 14 0 Alarm State:  0
Sat Sep 24 04:39:23 PDT 2022 ON: 19.99 +20.0 20.04 -21.8 18.4 22.9 28.3 14 0 Alarm State:  0
Sat Sep 24 04:38:21 PDT 2022 ON: 20.01 +20.0 20.08 -23.4 16.3 24.6 28.1 15 0 Alarm State:  0
Sat Sep 24 04:37:20 PDT 2022 ON: 20.01 +20.0 20.06 -21.4 18.9 22.5 28.2 16 0 Alarm State:  0
Sat Sep 24 04:36:18 PDT 2022 ON: 20.01 +20.0 20.08 -23.0 16.8 24.2 28.1 16 0 Alarm State:  0
Sat Sep 24 04:35:17 PDT 2022 ON: 20.00 +20.0 20.06 -22.4 17.6 23.6 28.2 15 0 Alarm State:  0
Sat Sep 24 04:34:15 PDT 2022 ON: 20.00 +20.0 20.05 -21.3 19.0 22.5 28.3 14 0 Alarm State:  0
Sat Sep 24 04:33:14 PDT 2022 ON: 19.99 +20.0 20.04 -21.6 18.6 22.8 28.2 15 0 Alarm State:  0
Sat Sep 24 04:32:12 PDT 2022 ON: 20.01 +20.0 20.06 -21.8 18.4 22.9 28.2 17 0 Alarm State:  0
Sat Sep 24 04:31:11 PDT 2022 ON: 20.01 +20.0 20.08 -23.3 16.5 24.4 28.1 15 0 Alarm State:  0
Sat Sep 24 04:30:09 PDT 2022 ON: 20.00 +20.0 20.07 -22.3 17.8 23.4 28.3 15 0 Alarm State:  0
Sat Sep 24 04:29:08 PDT 2022 ON: 20.02 +20.0 20.08 -22.3 17.8 23.4 28.1 17 0 Alarm State:  0
Sat Sep 24 04:28:06 PDT 2022 ON: 20.01 +20.0 20.06 -22.3 17.8 23.4 28.1 16 0 Alarm State:  0
Sat Sep 24 04:27:05 PDT 2022 ON: 20.01 +20.0 20.07 -22.6 17.3 23.8 28.2 16 0 Alarm State:  0
Sat Sep 24 04:26:03 PDT 2022 ON: 20.00 +20.0 20.05 -22.4 17.6 23.6 28.3 14 0 Alarm State:  0
Sat Sep 24 04:25:02 PDT 2022 ON: 20.01 +20.0 20.07 -22.8 17.1 23.9 28.1 16 0 Alarm State:  0
Sat Sep 24 04:24:00 PDT 2022 ON: 20.01 +20.0 20.08 -23.2 16.6 24.3 28.0 16 0 Alarm State:  0
Sat Sep 24 04:22:59 PDT 2022 ON: 20.02 +20.0 20.08 -22.7 17.2 23.9 28.1 16 0 Alarm State:  0
Sat Sep 24 04:21:57 PDT 2022 ON: 20.01 +20.0 20.08 -22.4 17.6 23.6 28.2 15 0 Alarm State:  0
Sat Sep 24 04:20:56 PDT 2022 ON: 20.01 +20.0 20.07 -22.3 17.8 23.4 28.2 15 0 Alarm State:  0
Sat Sep 24 04:19:54 PDT 2022 ON: 20.01 +20.0 20.06 -22.2 17.9 23.3 28.1 17 0 Alarm State:  0
Sat Sep 24 04:18:53 PDT 2022 ON: 20.01 +20.0 20.06 -22.7 17.2 23.9 28.2 16 0 Alarm State:  0
Sat Sep 24 04:17:51 PDT 2022 ON: 20.00 +20.0 20.05 -21.7 18.5 22.8 28.3 14 0 Alarm State:  0
Sat Sep 24 04:16:49 PDT 2022 ON: 20.00 +20.0 20.03 -21.2 19.1 22.4 28.2 15 0 Alarm State:  0
Sat Sep 24 04:15:48 PDT 2022 ON: 20.01 +20.0 20.06 -21.9 18.2 23.1 28.1 16 0 Alarm State:  0
Sat Sep 24 04:14:46 PDT 2022 ON: 20.00 +20.0 20.06 -22.8 17.1 23.9 28.2 15 0 Alarm State:  0
Sat Sep 24 04:13:45 PDT 2022 ON: 20.01 +20.0 20.08 -22.6 17.4 23.7 28.3 15 0 Alarm State:  0
Sat Sep 24 04:12:43 PDT 2022 ON: 20.00 +20.0 20.06 -22.7 17.2 23.9 28.2 13 0 Alarm State:  0
Sat Sep 24 04:11:42 PDT 2022 ON: 20.00 +20.0 20.04 -21.7 18.5 22.8 28.2 14 0 Alarm State:  0
Sat Sep 24 04:10:40 PDT 2022 ON: 20.00 +20.0 20.04 -21.8 18.3 23.0 28.2 16 0 Alarm State:  0
Sat Sep 24 04:09:39 PDT 2022 ON: 20.00 +20.0 20.06 -21.6 18.6 22.8 28.3 15 0 Alarm State:  0
Sat Sep 24 04:08:37 PDT 2022 ON: 20.00 +20.0 20.03 -21.6 18.6 22.8 28.3 14 0 Alarm State:  0
Sat Sep 24 04:07:36 PDT 2022 ON: 20.01 +20.0 20.05 -21.2 19.1 22.4 28.2 16 0 Alarm State:  0
Sat Sep 24 04:06:34 PDT 2022 ON: 20.00 +20.0 20.06 -22.6 17.4 23.7 28.2 15 0 Alarm State:  0
Sat Sep 24 04:05:33 PDT 2022 ON: 20.00 +20.0 20.05 -21.4 18.9 22.5 28.3 15 0 Alarm State:  0
Sat Sep 24 04:04:31 PDT 2022 ON: 20.00 +20.0 20.05 -21.5 18.8 22.6 28.2 14 0 Alarm State:  0
Sat Sep 24 04:03:30 PDT 2022 ON: 20.01 +20.0 20.05 -21.5 18.7 22.7 28.1 16 0 Alarm State:  0
Sat Sep 24 04:02:28 PDT 2022 ON: 20.00 +20.0 20.06 -21.8 18.4 22.9 28.3 16 0 Alarm State:  0
Sat Sep 24 04:01:27 PDT 2022 ON: 20.00 +20.0 20.04 -21.8 18.4 22.9 28.2 14 0 Alarm State:  0
Sat Sep 24 04:00:25 PDT 2022 ON: 20.01 +20.0 20.08 -22.2 17.9 23.3 28.2 16 0 Alarm State:  0
Sat Sep 24 03:59:24 PDT 2022 ON: 20.00 +20.0 20.06 -22.6 17.3 23.8 28.3 14 0 Alarm State:  0
Sat Sep 24 03:58:22 PDT 2022 ON: 20.00 +20.0 20.05 -21.5 18.7 22.7 28.3 14 0 Alarm State:  0
Sat Sep 24 03:57:21 PDT 2022 ON: 20.01 +20.0 20.08 -23.3 16.5 24.4 28.1 16 0 Alarm State:  0
Sat Sep 24 03:56:19 PDT 2022 ON: 20.00 +20.0 20.07 -22.6 17.3 23.8 28.3 15 0 Alarm State:  0
Sat Sep 24 03:55:18 PDT 2022 ON: 20.01 +20.0 20.04 -21.3 19.0 22.5 28.2 14 0 Alarm State:  0
Sat Sep 24 03:54:16 PDT 2022 ON: 20.00 +20.0 20.06 -22.6 17.3 23.8 28.2 15 0 Alarm State:  0
Sat Sep 24 03:53:15 PDT 2022 ON: 20.00 +20.0 20.07 -22.1 18.0 23.2 28.3 15 0 Alarm State:  0
Sat Sep 24 03:52:13 PDT 2022 ON: 20.00 +20.0 20.05 -21.8 18.4 22.9 28.3 14 0 Alarm State:  0
Sat Sep 24 03:51:12 PDT 2022 ON: 20.00 +20.0 20.05 -21.2 19.1 22.4 28.3 14 0 Alarm State:  0
Sat Sep 24 03:50:10 PDT 2022 ON: 20.01 +20.0 20.05 -21.8 18.3 23.0 28.1 15 0 Alarm State:  0
Sat Sep 24 03:49:09 PDT 2022 ON: 20.01 +20.0 20.05 -21.4 18.9 22.5 28.2 16 0 Alarm State:  0
Sat Sep 24 03:48:07 PDT 2022 ON: 20.00 +20.0 20.05 -21.5 18.7 22.7 28.2 16 0 Alarm State:  0
Sat Sep 24 03:47:06 PDT 2022 ON: 20.01 +20.0 20.07 -21.7 18.5 22.8 28.3 16 0 Alarm State:  0
Sat Sep 24 03:46:04 PDT 2022 ON: 20.01 +20.0 20.04 -21.4 18.9 22.5 28.2 15 0 Alarm State:  0
Sat Sep 24 03:45:03 PDT 2022 ON: 20.00 +20.0 20.07 -22.8 17.1 23.9 28.2 16 0 Alarm State:  0
Sat Sep 24 03:44:01 PDT 2022 ON: 20.00 +20.0 20.07 -22.9 16.9 24.1 28.2 15 0 Alarm State:  0
Sat Sep 24 03:43:00 PDT 2022 ON: 20.00 +20.0 20.05 -21.4 18.9 22.5 28.3 14 0 Alarm State:  0
Sat Sep 24 03:41:58 PDT 2022 ON: 20.01 +20.0 20.06 -21.8 18.3 23.0 28.1 16 0 Alarm State:  0
Sat Sep 24 03:40:57 PDT 2022 ON: 20.01 +20.0 20.06 -21.5 18.7 22.7 28.1 17 0 Alarm State:  0
Sat Sep 24 03:39:55 PDT 2022 ON: 20.01 +20.0 20.07 -22.3 17.7 23.5 28.1 17 0 Alarm State:  0
Sat Sep 24 03:38:54 PDT 2022 ON: 20.01 +20.0 20.06 -21.5 18.7 22.7 28.1 17 0 Alarm State:  0
Sat Sep 24 03:37:52 PDT 2022 ON: 20.01 +20.0 20.06 -21.8 18.4 22.9 28.1 16 0 Alarm State:  0
Sat Sep 24 03:36:51 PDT 2022 ON: 20.01 +20.0 20.07 -22.3 17.8 23.4 28.2 16 0 Alarm State:  0
Sat Sep 24 03:35:49 PDT 2022 ON: 20.01 +20.0 20.08 -23.2 16.6 24.3 28.1 15 0 Alarm State:  0
Sat Sep 24 03:34:48 PDT 2022 ON: 19.99 +20.0 20.06 -22.4 17.6 23.6 28.3 14 0 Alarm State:  0
Sat Sep 24 03:33:46 PDT 2022 ON: 20.00 +20.0 20.04 -21.4 18.9 22.5 28.3 15 0 Alarm State:  0
Sat Sep 24 03:32:45 PDT 2022 ON: 20.01 +20.0 20.05 -21.3 19.0 22.5 28.2 16 0 Alarm State:  0
Sat Sep 24 03:31:43 PDT 2022 ON: 20.01 +20.0 20.08 -22.4 17.6 23.6 28.2 16 0 Alarm State:  0
Sat Sep 24 03:30:42 PDT 2022 ON: 20.01 +20.0 20.10 -23.4 16.3 24.6 28.1 15 0 Alarm State:  0
Sat Sep 24 03:29:40 PDT 2022 ON: 20.00 +20.0 20.07 -23.0 16.8 24.2 28.2 15 0 Alarm State:  0
Sat Sep 24 03:28:39 PDT 2022 ON: 20.01 +20.0 20.05 -22.1 18.0 23.2 28.2 15 0 Alarm State:  0
Sat Sep 24 03:27:37 PDT 2022 ON: 20.00 +20.0 20.07 -22.5 17.5 23.6 28.2 16 0 Alarm State:  0
Sat Sep 24 03:26:36 PDT 2022 ON: 20.01 +20.0 20.06 -22.2 17.9 23.3 28.1 15 0 Alarm State:  0
Sat Sep 24 03:25:34 PDT 2022 ON: 20.01 +20.0 20.07 -22.6 17.4 23.7 28.2 16 0 Alarm State:  0
Sat Sep 24 03:24:33 PDT 2022 ON: 20.00 +20.0 20.05 -22.3 17.8 23.4 28.3 14 0 Alarm State:  0
Sat Sep 24 03:23:31 PDT 2022 ON: 19.99 +20.0 20.04 -21.5 18.7 22.7 28.3 14 0 Alarm State:  0
Sat Sep 24 03:22:29 PDT 2022 ON: 20.00 +20.0 20.05 -21.8 18.4 22.9 28.1 16 0 Alarm State:  0
Sat Sep 24 03:21:28 PDT 2022 ON: 20.01 +20.0 20.07 -22.3 17.8 23.4 28.1 17 0 Alarm State:  0
Sat Sep 24 03:20:26 PDT 2022 ON: 20.01 +20.0 20.07 -22.7 17.2 23.9 28.1 16 0 Alarm State:  0
Sat Sep 24 03:19:25 PDT 2022 ON: 20.00 +20.0 20.08 -23.0 16.8 24.2 28.2 15 0 Alarm State:  0
Sat Sep 24 03:18:23 PDT 2022 ON: 20.00 +20.0 20.08 -23.4 16.3 24.6 28.1 14 0 Alarm State:  0
Sat Sep 24 03:17:22 PDT 2022 ON: 20.01 +20.0 20.07 -22.3 17.7 23.5 28.1 16 0 Alarm State:  0
Sat Sep 24 03:16:20 PDT 2022 ON: 20.00 +20.0 20.05 -21.9 18.2 23.1 28.3 15 0 Alarm State:  0
Sat Sep 24 03:15:19 PDT 2022 ON: 20.00 +20.0 20.04 -21.4 18.9 22.5 28.2 14 0 Alarm State:  0
Sat Sep 24 03:14:17 PDT 2022 ON: 20.00 +20.0 20.05 -21.5 18.8 22.6 28.2 16 0 Alarm State:  0
Sat Sep 24 03:13:16 PDT 2022 ON: 20.02 +20.0 20.08 -22.7 17.2 23.9 28.0 16 0 Alarm State:  0
Sat Sep 24 03:12:14 PDT 2022 ON: 20.01 +20.0 20.06 -22.1 18.0 23.2 28.1 17 0 Alarm State:  0
Sat Sep 24 03:11:13 PDT 2022 ON: 20.01 +20.0 20.08 -22.7 17.2 23.9 28.1 16 0 Alarm State:  0
Sat Sep 24 03:10:11 PDT 2022 ON: 20.01 +20.0 20.08 -22.9 17.0 24.0 28.2 15 0 Alarm State:  0
Sat Sep 24 03:09:10 PDT 2022 ON: 20.01 +20.0 20.05 -22.5 17.5 23.6 28.2 14 0 Alarm State:  0
Sat Sep 24 03:08:08 PDT 2022 ON: 20.01 +20.0 20.06 -21.7 18.5 22.8 28.2 17 0 Alarm State:  0
Sat Sep 24 03:07:07 PDT 2022 ON: 20.01 +20.0 20.08 -22.6 17.4 23.7 28.2 15 0 Alarm State:  0
Sat Sep 24 03:06:05 PDT 2022 ON: 20.00 +20.0 20.06 -21.9 18.2 23.1 28.3 15 0 Alarm State:  0
Sat Sep 24 03:05:04 PDT 2022 ON: 20.00 +20.0 20.04 -21.5 18.8 22.6 28.3 15 0 Alarm State:  0
Sat Sep 24 03:04:02 PDT 2022 ON: 20.01 +20.0 20.05 -21.4 18.9 22.5 28.2 15 0 Alarm State:  0
Sat Sep 24 03:03:01 PDT 2022 ON: 20.00 +20.0 20.06 -21.8 18.3 23.0 28.3 16 0 Alarm State:  0
Sat Sep 24 03:01:59 PDT 2022 ON: 20.00 +20.0 20.05 -21.3 19.0 22.5 28.3 15 0 Alarm State:  0
Sat Sep 24 03:00:58 PDT 2022 ON: 20.01 +20.0 20.07 -22.4 17.6 23.6 28.1 17 0 Alarm State:  0
Sat Sep 24 02:59:56 PDT 2022 ON: 20.01 +20.0 20.08 -22.8 17.1 23.9 28.1 16 0 Alarm State:  0
Sat Sep 24 02:58:55 PDT 2022 ON: 20.00 +20.0 20.07 -22.3 17.7 23.5 28.3 14 0 Alarm State:  0
Sat Sep 24 02:57:53 PDT 2022 ON: 19.99 +20.0 20.04 -21.7 18.5 22.8 28.3 14 0 Alarm State:  0
Sat Sep 24 02:56:52 PDT 2022 ON: 20.00 +20.0 20.04 -21.8 18.3 23.0 28.2 15 0 Alarm State:  0
Sat Sep 24 02:55:50 PDT 2022 ON: 20.01 +20.0 20.05 -21.2 19.1 22.4 28.2 15 0 Alarm State:  0
Sat Sep 24 02:54:49 PDT 2022 ON: 20.01 +20.0 20.05 -21.6 18.6 22.8 28.2 16 0 Alarm State:  0
Sat Sep 24 02:53:47 PDT 2022 ON: 20.01 +20.0 20.07 -22.3 17.8 23.4 28.2 15 0 Alarm State:  0
Sat Sep 24 02:52:46 PDT 2022 ON: 20.01 +20.0 20.07 -22.5 17.5 23.6 28.2 16 0 Alarm State:  0
Sat Sep 24 02:51:44 PDT 2022 ON: 20.01 +20.0 20.08 -23.3 16.5 24.4 28.1 16 0 Alarm State:  0
Sat Sep 24 02:50:43 PDT 2022 ON: 20.01 +20.0 20.09 -23.0 16.8 24.2 28.2 15 0 Alarm State:  0
Sat Sep 24 02:49:41 PDT 2022 ON: 19.99 +20.0 20.04 -21.7 18.5 22.8 28.3 14 0 Alarm State:  0
Sat Sep 24 02:48:40 PDT 2022 ON: 20.02 +20.0 20.08 -21.8 18.4 22.9 28.1 17 0 Alarm State:  0
Sat Sep 24 02:47:38 PDT 2022 ON: 20.01 +20.0 20.06 -21.8 18.3 23.0 28.1 17 0 Alarm State:  0
Sat Sep 24 02:46:37 PDT 2022 ON: 20.00 +20.0 20.05 -21.5 18.7 22.7 28.3 15 0 Alarm State:  0
Sat Sep 24 02:45:35 PDT 2022 ON: 20.00 +20.0 20.05 -21.5 18.8 22.6 28.2 14 0 Alarm State:  0
Sat Sep 24 02:44:34 PDT 2022 ON: 19.99 +20.0 20.04 -21.0 19.4 22.2 28.3 16 0 Alarm State:  0
Sat Sep 24 02:43:32 PDT 2022 ON: 20.01 +20.0 20.04 -21.0 19.4 22.2 28.3 16 0 Alarm State:  0
Sat Sep 24 02:42:31 PDT 2022 ON: 20.01 +20.0 20.05 -21.8 18.3 23.0 28.2 16 0 Alarm State:  0
Sat Sep 24 02:41:29 PDT 2022 ON: 20.01 +20.0 20.08 -22.9 17.0 24.0 28.1 16 0 Alarm State:  0
Sat Sep 24 02:40:28 PDT 2022 ON: 20.00 +20.0 20.05 -21.8 18.4 22.9 28.3 14 0 Alarm State:  0
Sat Sep 24 02:39:26 PDT 2022 ON: 20.01 +20.0 20.04 -21.1 19.3 22.2 28.2 15 0 Alarm State:  0
Sat Sep 24 02:38:25 PDT 2022 ON: 20.01 +20.0 20.05 -21.2 19.2 22.3 28.2 16 0 Alarm State:  0
Sat Sep 24 02:37:23 PDT 2022 ON: 20.01 +20.0 20.07 -22.6 17.3 23.8 28.1 16 0 Alarm State:  0
Sat Sep 24 02:36:22 PDT 2022 ON: 20.00 +20.0 20.06 -21.2 19.1 22.4 28.3 16 0 Alarm State:  0
Sat Sep 24 02:35:20 PDT 2022 ON: 20.01 +20.0 20.06 -21.8 18.3 23.0 28.2 17 0 Alarm State:  0
Sat Sep 24 02:34:19 PDT 2022 ON: 20.01 +20.0 20.08 -23.0 16.8 24.2 28.1 16 0 Alarm State:  0
Sat Sep 24 02:33:17 PDT 2022 ON: 20.01 +20.0 20.08 -22.9 17.0 24.0 28.2 15 0 Alarm State:  0
Sat Sep 24 02:32:16 PDT 2022 ON: 19.99 +20.0 20.05 -22.2 17.9 23.3 28.3 14 0 Alarm State:  0
Sat Sep 24 02:31:14 PDT 2022 ON: 20.00 +20.0 20.05 -21.9 18.2 23.1 28.3 14 0 Alarm State:  0
Sat Sep 24 02:30:13 PDT 2022 ON: 20.01 +20.0 20.05 -21.2 19.2 22.3 28.2 16 0 Alarm State:  0
Sat Sep 24 02:29:11 PDT 2022 ON: 20.00 +20.0 20.05 -21.7 18.5 22.8 28.1 16 0 Alarm State:  0
Sat Sep 24 02:28:10 PDT 2022 ON: 20.02 +20.0 20.08 -22.3 17.7 23.5 28.1 17 0 Alarm State:  0
Sat Sep 24 02:27:08 PDT 2022 ON: 20.02 +20.0 20.07 -22.3 17.7 23.5 28.0 17 0 Alarm State:  0
Sat Sep 24 02:26:07 PDT 2022 ON: 20.01 +20.0 20.05 -21.7 18.5 22.8 28.2 16 0 Alarm State:  0
Sat Sep 24 02:25:05 PDT 2022 ON: 20.01 +20.0 20.06 -21.2 19.2 22.3 28.3 15 0 Alarm State:  0
Sat Sep 24 02:24:03 PDT 2022 ON: 19.99 +20.0 20.04 -21.3 19.0 22.5 28.3 14 0 Alarm State:  0
Sat Sep 24 02:23:02 PDT 2022 ON: 20.01 +20.0 20.05 -21.8 18.4 22.9 28.2 16 0 Alarm State:  0
Sat Sep 24 02:22:00 PDT 2022 ON: 20.00 +20.0 20.05 -21.9 18.2 23.1 28.3 14 0 Alarm State:  0
Sat Sep 24 02:20:59 PDT 2022 ON: 20.00 +20.0 20.06 -22.6 17.4 23.7 28.2 15 0 Alarm State:  0
Sat Sep 24 02:19:57 PDT 2022 ON: 19.99 +20.0 20.05 -21.8 18.4 22.9 28.3 14 0 Alarm State:  0
Sat Sep 24 02:18:56 PDT 2022 ON: 20.01 +20.0 20.06 -21.5 18.7 22.7 28.1 17 0 Alarm State:  0
Sat Sep 24 02:17:54 PDT 2022 ON: 20.01 +20.0 20.07 -21.9 18.2 23.1 28.2 17 0 Alarm State:  0
Sat Sep 24 02:16:53 PDT 2022 ON: 20.00 +20.0 20.05 -21.7 18.5 22.8 28.2 14 0 Alarm State:  0
Sat Sep 24 02:15:51 PDT 2022 ON: 20.00 +20.0 20.06 -21.8 18.3 23.0 28.2 16 0 Alarm State:  0
Sat Sep 24 02:14:50 PDT 2022 ON: 20.01 +20.0 20.07 -22.8 17.1 23.9 28.2 16 0 Alarm State:  0
Sat Sep 24 02:13:48 PDT 2022 ON: 20.01 +20.0 20.07 -22.9 16.9 24.1 28.2 14 0 Alarm State:  0
Sat Sep 24 02:12:47 PDT 2022 ON: 20.01 +20.0 20.06 -21.4 18.9 22.5 28.1 15 0 Alarm State:  0
Sat Sep 24 02:11:45 PDT 2022 ON: 20.00 +20.0 20.07 -22.0 18.1 23.2 28.2 17 0 Alarm State:  0
Sat Sep 24 02:10:44 PDT 2022 ON: 20.00 +20.0 20.05 -21.8 18.4 22.9 28.3 15 0 Alarm State:  0
Sat Sep 24 02:09:42 PDT 2022 ON: 20.01 +20.0 20.06 -22.2 17.9 23.3 28.1 16 0 Alarm State:  0
Sat Sep 24 02:08:41 PDT 2022 ON: 20.01 +20.0 20.07 -23.3 16.5 24.4 28.1 16 0 Alarm State:  0
Sat Sep 24 02:07:39 PDT 2022 ON: 20.00 +20.0 20.06 -22.9 17.0 24.0 28.2 15 0 Alarm State:  0
Sat Sep 24 02:06:38 PDT 2022 ON: 20.01 +20.0 20.05 -22.6 17.4 23.7 28.3 15 0 Alarm State:  0
Sat Sep 24 02:05:36 PDT 2022 ON: 19.99 +20.0 20.05 -22.0 18.1 23.2 28.3 14 0 Alarm State:  0
Sat Sep 24 02:04:35 PDT 2022 ON: 20.00 +20.0 20.05 -21.5 18.7 22.7 28.3 14 0 Alarm State:  0
Sat Sep 24 02:03:33 PDT 2022 ON: 20.00 +20.0 20.04 -21.1 19.3 22.2 28.3 15 0 Alarm State:  0
Sat Sep 24 02:02:32 PDT 2022 ON: 20.00 +20.0 20.05 -21.4 18.9 22.5 28.3 16 0 Alarm State:  0
Sat Sep 24 02:01:30 PDT 2022 ON: 20.00 +20.0 20.05 -22.3 17.8 23.4 28.2 14 0 Alarm State:  0
Sat Sep 24 02:00:29 PDT 2022 ON: 20.00 +20.0 20.05 -21.8 18.3 23.0 28.1 17 0 Alarm State:  0
Sat Sep 24 01:59:27 PDT 2022 ON: 20.01 +20.0 20.08 -22.6 17.4 23.7 28.2 16 0 Alarm State:  0
Sat Sep 24 01:58:26 PDT 2022 ON: 20.01 +20.0 20.04 -21.9 18.2 23.1 28.2 14 0 Alarm State:  0
Sat Sep 24 01:57:24 PDT 2022 ON: 20.01 +20.0 20.06 -21.8 18.4 22.9 28.1 16 0 Alarm State:  0
Sat Sep 24 01:56:23 PDT 2022 ON: 20.01 +20.0 20.06 -21.7 18.5 22.8 28.1 17 0 Alarm State:  0
Sat Sep 24 01:55:21 PDT 2022 ON: 20.01 +20.0 20.07 -22.6 17.3 23.8 28.1 16 0 Alarm State:  0
Sat Sep 24 01:54:20 PDT 2022 ON: 20.01 +20.0 20.08 -22.8 17.1 23.9 28.2 16 0 Alarm State:  0
Sat Sep 24 01:53:18 PDT 2022 ON: 20.01 +20.0 20.08 -23.3 16.4 24.5 28.1 15 0 Alarm State:  0
Sat Sep 24 01:52:17 PDT 2022 ON: 20.00 +20.0 20.07 -22.6 17.3 23.8 28.3 14 0 Alarm State:  0
Sat Sep 24 01:51:15 PDT 2022 ON: 20.01 +20.0 20.06 -21.8 18.4 22.9 28.3 14 0 Alarm State:  0
Sat Sep 24 01:50:14 PDT 2022 ON: 20.00 +20.0 20.04 -21.5 18.7 22.7 28.3 14 0 Alarm State:  0
Sat Sep 24 01:49:12 PDT 2022 ON: 19.99 +20.0 20.04 -22.1 18.0 23.2 28.3 14 0 Alarm State:  0
Sat Sep 24 01:48:11 PDT 2022 ON: 20.00 +20.0 20.05 -21.2 19.2 22.3 28.2 15 0 Alarm State:  0
Sat Sep 24 01:47:09 PDT 2022 ON: 20.00 +20.0 20.07 -23.0 16.8 24.2 28.1 16 0 Alarm State:  0
Sat Sep 24 01:46:08 PDT 2022 ON: 20.01 +20.0 20.07 -22.6 17.4 23.7 28.1 16 0 Alarm State:  0
Sat Sep 24 01:45:06 PDT 2022 ON: 20.01 +20.0 20.05 -22.2 17.9 23.3 28.2 14 0 Alarm State:  0
Sat Sep 24 01:44:05 PDT 2022 ON: 20.00 +20.0 20.06 -22.2 17.9 23.3 28.2 15 0 Alarm State:  0
Sat Sep 24 01:43:03 PDT 2022 ON: 20.01 +20.0 20.09 -23.0 16.8 24.2 28.2 15 0 Alarm State:  0
Sat Sep 24 01:42:02 PDT 2022 ON: 20.00 +20.0 20.06 -22.9 17.0 24.0 28.2 13 0 Alarm State:  0
Sat Sep 24 01:41:00 PDT 2022 ON: 20.01 +20.0 20.06 -22.4 17.6 23.6 28.1 16 0 Alarm State:  0
Sat Sep 24 01:39:59 PDT 2022 ON: 20.01 +20.0 20.08 -22.4 17.6 23.6 28.2 16 0 Alarm State:  0
Sat Sep 24 01:38:57 PDT 2022 ON: 20.00 +20.0 20.05 -22.6 17.4 23.7 28.2 14 0 Alarm State:  0
Sat Sep 24 01:37:56 PDT 2022 ON: 19.99 +20.0 20.03 -21.1 19.3 22.2 28.3 15 0 Alarm State:  0
Sat Sep 24 01:36:54 PDT 2022 ON: 20.00 +20.0 20.03 -21.1 19.3 22.2 28.3 15 0 Alarm State:  0
Sat Sep 24 01:35:53 PDT 2022 ON: 20.01 +20.0 20.05 -21.5 18.8 22.6 28.2 16 0 Alarm State:  0
Sat Sep 24 01:34:51 PDT 2022 ON: 20.02 +20.0 20.08 -22.1 18.0 23.2 28.1 17 0 Alarm State:  0
Sat Sep 24 01:33:50 PDT 2022 ON: 20.01 +20.0 20.09 -23.0 16.8 24.2 28.1 16 0 Alarm State:  0
Sat Sep 24 01:32:48 PDT 2022 ON: 20.00 +20.0 20.05 -22.3 17.7 23.5 28.2 14 0 Alarm State:  0
Sat Sep 24 01:31:47 PDT 2022 ON: 20.01 +20.0 20.06 -22.7 17.2 23.9 28.2 16 0 Alarm State:  0
Sat Sep 24 01:30:45 PDT 2022 ON: 20.00 +20.0 20.04 -21.5 18.7 22.7 28.2 15 0 Alarm State:  0
Sat Sep 24 01:29:44 PDT 2022 ON: 20.01 +20.0 20.06 -21.7 18.5 22.8 28.1 17 0 Alarm State:  0
Sat Sep 24 01:28:42 PDT 2022 ON: 20.01 +20.0 20.05 -21.7 18.5 22.8 28.2 15 0 Alarm State:  0
Sat Sep 24 01:27:40 PDT 2022 ON: 20.00 +20.0 20.04 -21.2 19.1 22.4 28.2 15 0 Alarm State:  0
Sat Sep 24 01:26:39 PDT 2022 ON: 20.00 +20.0 20.06 -22.1 18.0 23.2 28.1 17 0 Alarm State:  0
Sat Sep 24 01:25:37 PDT 2022 ON: 20.00 +20.0 20.08 -23.0 16.8 24.2 28.1 16 0 Alarm State:  0
Sat Sep 24 01:24:36 PDT 2022 ON: 20.00 +20.0 20.04 -21.5 18.8 22.6 28.3 14 0 Alarm State:  0
Sat Sep 24 01:23:34 PDT 2022 ON: 20.00 +20.0 20.05 -21.8 18.4 22.9 28.2 14 0 Alarm State:  0
Sat Sep 24 01:22:33 PDT 2022 ON: 20.00 +20.0 20.05 -21.4 18.9 22.5 28.2 16 0 Alarm State:  0
Sat Sep 24 01:21:31 PDT 2022 ON: 20.01 +20.0 20.08 -22.4 17.6 23.6 28.1 16 0 Alarm State:  0
Sat Sep 24 01:20:30 PDT 2022 ON: 20.01 +20.0 20.08 -23.2 16.6 24.3 28.1 15 0 Alarm State:  0
Sat Sep 24 01:19:28 PDT 2022 ON: 20.00 +20.0 20.04 -21.6 18.6 22.8 28.3 14 0 Alarm State:  0
Sat Sep 24 01:18:27 PDT 2022 ON: 20.00 +20.0 20.04 -21.8 18.3 23.0 28.2 14 0 Alarm State:  0
Sat Sep 24 01:17:25 PDT 2022 ON: 20.00 +20.0 20.05 -21.5 18.8 22.6 28.2 16 0 Alarm State:  0
Sat Sep 24 01:16:24 PDT 2022 ON: 20.02 +20.0 20.06 -22.0 18.1 23.2 28.1 17 0 Alarm State:  0
Sat Sep 24 01:15:22 PDT 2022 ON: 20.01 +20.0 20.07 -22.7 17.2 23.9 28.2 16 0 Alarm State:  0
Sat Sep 24 01:14:21 PDT 2022 ON: 20.01 +20.0 20.08 -23.3 16.4 24.5 28.1 14 0 Alarm State:  0
Sat Sep 24 01:13:19 PDT 2022 ON: 19.99 +20.0 20.04 -21.5 18.8 22.6 28.2 14 0 Alarm State:  0
Sat Sep 24 01:12:18 PDT 2022 ON: 20.02 +20.0 20.07 -22.3 17.8 23.4 28.0 17 0 Alarm State:  0
Sat Sep 24 01:11:16 PDT 2022 ON: 20.02 +20.0 20.08 -22.6 17.4 23.7 28.1 16 0 Alarm State:  0
Sat Sep 24 01:10:15 PDT 2022 ON: 20.01 +20.0 20.08 -23.5 16.2 24.7 28.1 14 0 Alarm State:  0
Sat Sep 24 01:09:13 PDT 2022 ON: 20.01 +20.0 20.06 -21.4 18.9 22.5 28.2 16 0 Alarm State:  0
Sat Sep 24 01:08:12 PDT 2022 ON: 20.01 +20.0 20.07 -22.6 17.4 23.7 28.1 16 0 Alarm State:  0
Sat Sep 24 01:07:10 PDT 2022 ON: 20.01 +20.0 20.07 -23.1 16.7 24.2 28.1 15 0 Alarm State:  0
Sat Sep 24 01:06:09 PDT 2022 ON: 20.01 +20.0 20.08 -23.0 16.8 24.2 28.1 15 0 Alarm State:  0
Sat Sep 24 01:05:07 PDT 2022 ON: 20.00 +20.0 20.04 -21.2 19.1 22.4 28.2 14 0 Alarm State:  0
Sat Sep 24 01:04:06 PDT 2022 ON: 20.00 +20.0 20.04 -21.5 18.8 22.6 28.2 15 0 Alarm State:  0
Sat Sep 24 01:03:04 PDT 2022 ON: 20.01 +20.0 20.07 -22.2 17.9 23.3 28.1 17 0 Alarm State:  0
Sat Sep 24 01:02:03 PDT 2022 ON: 20.01 +20.0 20.09 -23.4 16.3 24.6 28.0 15 0 Alarm State:  0
Sat Sep 24 01:01:01 PDT 2022 ON: 20.00 +20.0 20.07 -22.4 17.6 23.6 28.0 17 0 Alarm State:  0
Sat Sep 24 01:00:00 PDT 2022 ON: 20.00 +20.0 20.07 -22.6 17.3 23.8 28.2 15 0 Alarm State:  0
Sat Sep 24 00:58:58 PDT 2022 ON: 20.02 +20.0 20.05 -21.7 18.5 22.8 28.1 16 0 Alarm State:  0
Sat Sep 24 00:57:57 PDT 2022 ON: 20.00 +20.0 20.08 -23.3 16.5 24.4 28.1 15 0 Alarm State:  0
Sat Sep 24 00:56:55 PDT 2022 ON: 20.00 +20.0 20.06 -22.3 17.8 23.4 28.3 14 0 Alarm State:  0
Sat Sep 24 00:55:54 PDT 2022 ON: 20.00 +20.0 20.04 -22.2 17.9 23.3 28.2 14 0 Alarm State:  0
Sat Sep 24 00:54:52 PDT 2022 ON: 20.01 +20.0 20.05 -21.4 18.9 22.5 28.2 17 0 Alarm State:  0
Sat Sep 24 00:53:51 PDT 2022 ON: 20.01 +20.0 20.06 -22.3 17.8 23.4 28.2 15 0 Alarm State:  0
Sat Sep 24 00:52:49 PDT 2022 ON: 20.01 +20.0 20.05 -22.1 18.0 23.2 28.0 15 0 Alarm State:  0
Sat Sep 24 00:51:48 PDT 2022 ON: 20.00 +20.0 20.04 -21.7 18.5 22.8 28.1 16 0 Alarm State:  0
Sat Sep 24 00:50:46 PDT 2022 ON: 20.01 +20.0 20.07 -22.6 17.4 23.7 28.1 16 0 Alarm State:  0
Sat Sep 24 00:49:45 PDT 2022 ON: 20.01 +20.0 20.06 -22.2 17.9 23.3 28.1 17 0 Alarm State:  0
Sat Sep 24 00:48:43 PDT 2022 ON: 20.01 +20.0 20.05 -21.4 18.9 22.5 28.1 16 0 Alarm State:  0
Sat Sep 24 00:47:42 PDT 2022 ON: 20.00 +20.0 20.05 -22.1 18.0 23.2 28.1 16 0 Alarm State:  0
Sat Sep 24 00:46:40 PDT 2022 ON: 20.02 +20.0 20.07 -22.8 17.1 23.9 28.0 16 0 Alarm State:  0
Sat Sep 24 00:45:39 PDT 2022 ON: 19.99 +20.0 20.05 -22.0 18.1 23.2 28.2 14 0 Alarm State:  0
Sat Sep 24 00:44:37 PDT 2022 ON: 20.00 +20.0 20.05 -21.4 18.9 22.5 28.2 16 0 Alarm State:  0
Sat Sep 24 00:43:36 PDT 2022 ON: 20.02 +20.0 20.08 -22.9 17.0 24.0 28.1 16 0 Alarm State:  0
Sat Sep 24 00:42:34 PDT 2022 ON: 20.01 +20.0 20.07 -23.1 16.7 24.2 28.1 14 0 Alarm State:  0
Sat Sep 24 00:41:33 PDT 2022 ON: 20.00 +20.0 20.05 -21.7 18.5 22.8 28.3 14 0 Alarm State:  0
Sat Sep 24 00:40:31 PDT 2022 ON: 20.00 +20.0 20.04 -21.2 19.1 22.4 28.2 14 0 Alarm State:  0